<?xml version="1.0" encoding="UTF-8" standalone="no" ?>
<gpx xmlns="http://www.topografix.com/GPX/1/1" creator="www.cicloide.com" version="1.1" xmlns:xsi="http://www.w3.org/2001/XMLSchema-instance" xsi:schemaLocation="http://www.topografix.com/GPX/1/1 http://www.topografix.com/GPX/1/1/gpx.xsd">
  <trk>
    <name>www.cicloide.com 4692</name>
    <desc>www.cicloide.com 4692</desc>
    <trkseg>
      <trkpt lat="41.543903000" lon="1.886792000">
        <ele>268.50</ele>
        <time>2011-04-05T11:40:02Z</time>
      </trkpt>
      <trkpt lat="41.543830000" lon="1.886930000">
        <ele>268.50</ele>
        <time>2011-04-05T11:40:17Z</time>
      </trkpt>
      <trkpt lat="41.543830000" lon="1.886952000">
        <ele>268.50</ele>
        <time>2011-04-05T11:40:23Z</time>
      </trkpt>
      <trkpt lat="41.543847000" lon="1.887022000">
        <ele>268.50</ele>
        <time>2011-04-05T11:40:26Z</time>
      </trkpt>
      <trkpt lat="41.543885000" lon="1.887068000">
        <ele>268.50</ele>
        <time>2011-04-05T11:40:28Z</time>
      </trkpt>
      <trkpt lat="41.543963000" lon="1.887103000">
        <ele>268.50</ele>
        <time>2011-04-05T11:40:31Z</time>
      </trkpt>
      <trkpt lat="41.544007000" lon="1.887158000">
        <ele>268.50</ele>
        <time>2011-04-05T11:40:33Z</time>
      </trkpt>
      <trkpt lat="41.544063000" lon="1.887177000">
        <ele>268.50</ele>
        <time>2011-04-05T11:40:35Z</time>
      </trkpt>
      <trkpt lat="41.544202000" lon="1.887172000">
        <ele>268.50</ele>
        <time>2011-04-05T11:40:40Z</time>
      </trkpt>
      <trkpt lat="41.544207000" lon="1.887188000">
        <ele>268.50</ele>
        <time>2011-04-05T11:40:40Z</time>
      </trkpt>
      <trkpt lat="41.544230000" lon="1.887172000">
        <ele>268.50</ele>
        <time>2011-04-05T11:40:42Z</time>
      </trkpt>
      <trkpt lat="41.544298000" lon="1.887118000">
        <ele>268.50</ele>
        <time>2011-04-05T11:40:47Z</time>
      </trkpt>
      <trkpt lat="41.544318000" lon="1.887150000">
        <ele>268.50</ele>
        <time>2011-04-05T11:40:50Z</time>
      </trkpt>
      <trkpt lat="41.544373000" lon="1.887177000">
        <ele>268.50</ele>
        <time>2011-04-05T11:40:54Z</time>
      </trkpt>
      <trkpt lat="41.544398000" lon="1.887173000">
        <ele>268.50</ele>
        <time>2011-04-05T11:40:56Z</time>
      </trkpt>
      <trkpt lat="41.544495000" lon="1.887220000">
        <ele>268.50</ele>
        <time>2011-04-05T11:40:59Z</time>
      </trkpt>
      <trkpt lat="41.544668000" lon="1.887303000">
        <ele>264.50</ele>
        <time>2011-04-05T11:41:06Z</time>
      </trkpt>
      <trkpt lat="41.544808000" lon="1.887330000">
        <ele>262.50</ele>
        <time>2011-04-05T11:41:11Z</time>
      </trkpt>
      <trkpt lat="41.544935000" lon="1.887327000">
        <ele>264.00</ele>
        <time>2011-04-05T11:41:17Z</time>
      </trkpt>
      <trkpt lat="41.544963000" lon="1.887430000">
        <ele>264.50</ele>
        <time>2011-04-05T11:41:18Z</time>
      </trkpt>
      <trkpt lat="41.544978000" lon="1.887407000">
        <ele>269.00</ele>
        <time>2011-04-05T11:41:22Z</time>
      </trkpt>
      <trkpt lat="41.544997000" lon="1.887348000">
        <ele>268.50</ele>
        <time>2011-04-05T11:41:27Z</time>
      </trkpt>
      <trkpt lat="41.545023000" lon="1.887343000">
        <ele>266.50</ele>
        <time>2011-04-05T11:41:29Z</time>
      </trkpt>
      <trkpt lat="41.545058000" lon="1.887370000">
        <ele>265.00</ele>
        <time>2011-04-05T11:41:30Z</time>
      </trkpt>
      <trkpt lat="41.545110000" lon="1.887432000">
        <ele>268.50</ele>
        <time>2011-04-05T11:41:34Z</time>
      </trkpt>
      <trkpt lat="41.545288000" lon="1.887465000">
        <ele>264.00</ele>
        <time>2011-04-05T11:41:41Z</time>
      </trkpt>
      <trkpt lat="41.545495000" lon="1.887580000">
        <ele>269.00</ele>
        <time>2011-04-05T11:41:50Z</time>
      </trkpt>
      <trkpt lat="41.545663000" lon="1.887668000">
        <ele>269.00</ele>
        <time>2011-04-05T11:41:57Z</time>
      </trkpt>
      <trkpt lat="41.545682000" lon="1.887680000">
        <ele>271.00</ele>
        <time>2011-04-05T11:41:58Z</time>
      </trkpt>
      <trkpt lat="41.545707000" lon="1.887698000">
        <ele>271.00</ele>
        <time>2011-04-05T11:41:58Z</time>
      </trkpt>
      <trkpt lat="41.545845000" lon="1.887690000">
        <ele>276.00</ele>
        <time>2011-04-05T11:42:05Z</time>
      </trkpt>
      <trkpt lat="41.545952000" lon="1.887730000">
        <ele>276.00</ele>
        <time>2011-04-05T11:42:09Z</time>
      </trkpt>
      <trkpt lat="41.546047000" lon="1.887787000">
        <ele>276.00</ele>
        <time>2011-04-05T11:42:12Z</time>
      </trkpt>
      <trkpt lat="41.546160000" lon="1.887855000">
        <ele>279.50</ele>
        <time>2011-04-05T11:42:19Z</time>
      </trkpt>
      <trkpt lat="41.546198000" lon="1.887892000">
        <ele>278.50</ele>
        <time>2011-04-05T11:42:21Z</time>
      </trkpt>
      <trkpt lat="41.546260000" lon="1.887937000">
        <ele>280.00</ele>
        <time>2011-04-05T11:42:26Z</time>
      </trkpt>
      <trkpt lat="41.546402000" lon="1.887952000">
        <ele>277.50</ele>
        <time>2011-04-05T11:42:30Z</time>
      </trkpt>
      <trkpt lat="41.546538000" lon="1.887952000">
        <ele>280.50</ele>
        <time>2011-04-05T11:42:35Z</time>
      </trkpt>
      <trkpt lat="41.546625000" lon="1.887965000">
        <ele>280.50</ele>
        <time>2011-04-05T11:42:38Z</time>
      </trkpt>
      <trkpt lat="41.546668000" lon="1.887982000">
        <ele>283.50</ele>
        <time>2011-04-05T11:42:40Z</time>
      </trkpt>
      <trkpt lat="41.546752000" lon="1.887968000">
        <ele>279.50</ele>
        <time>2011-04-05T11:42:44Z</time>
      </trkpt>
      <trkpt lat="41.546802000" lon="1.887960000">
        <ele>283.50</ele>
        <time>2011-04-05T11:42:47Z</time>
      </trkpt>
      <trkpt lat="41.546942000" lon="1.887985000">
        <ele>288.00</ele>
        <time>2011-04-05T11:42:52Z</time>
      </trkpt>
      <trkpt lat="41.546998000" lon="1.887990000">
        <ele>293.50</ele>
        <time>2011-04-05T11:42:54Z</time>
      </trkpt>
      <trkpt lat="41.547060000" lon="1.887977000">
        <ele>295.00</ele>
        <time>2011-04-05T11:42:58Z</time>
      </trkpt>
      <trkpt lat="41.547512000" lon="1.888053000">
        <ele>295.00</ele>
        <time>2011-04-05T11:43:15Z</time>
      </trkpt>
      <trkpt lat="41.547537000" lon="1.888045000">
        <ele>294.50</ele>
        <time>2011-04-05T11:43:17Z</time>
      </trkpt>
      <trkpt lat="41.547687000" lon="1.888033000">
        <ele>298.00</ele>
        <time>2011-04-05T11:43:22Z</time>
      </trkpt>
      <trkpt lat="41.548028000" lon="1.887957000">
        <ele>299.50</ele>
        <time>2011-04-05T11:43:36Z</time>
      </trkpt>
      <trkpt lat="41.548172000" lon="1.887918000">
        <ele>302.00</ele>
        <time>2011-04-05T11:43:43Z</time>
      </trkpt>
      <trkpt lat="41.548360000" lon="1.887873000">
        <ele>302.50</ele>
        <time>2011-04-05T11:43:50Z</time>
      </trkpt>
      <trkpt lat="41.548495000" lon="1.887863000">
        <ele>303.50</ele>
        <time>2011-04-05T11:43:57Z</time>
      </trkpt>
      <trkpt lat="41.548560000" lon="1.887860000">
        <ele>305.50</ele>
        <time>2011-04-05T11:44:00Z</time>
      </trkpt>
      <trkpt lat="41.548820000" lon="1.887840000">
        <ele>307.50</ele>
        <time>2011-04-05T11:44:09Z</time>
      </trkpt>
      <trkpt lat="41.549400000" lon="1.887810000">
        <ele>310.00</ele>
        <time>2011-04-05T11:44:32Z</time>
      </trkpt>
      <trkpt lat="41.549533000" lon="1.887805000">
        <ele>310.00</ele>
        <time>2011-04-05T11:44:37Z</time>
      </trkpt>
      <trkpt lat="41.549820000" lon="1.887818000">
        <ele>310.00</ele>
        <time>2011-04-05T11:44:47Z</time>
      </trkpt>
      <trkpt lat="41.550232000" lon="1.887900000">
        <ele>306.00</ele>
        <time>2011-04-05T11:45:01Z</time>
      </trkpt>
      <trkpt lat="41.550310000" lon="1.887925000">
        <ele>306.00</ele>
        <time>2011-04-05T11:45:05Z</time>
      </trkpt>
      <trkpt lat="41.550947000" lon="1.888208000">
        <ele>306.50</ele>
        <time>2011-04-05T11:45:31Z</time>
      </trkpt>
      <trkpt lat="41.551040000" lon="1.888255000">
        <ele>308.00</ele>
        <time>2011-04-05T11:45:34Z</time>
      </trkpt>
      <trkpt lat="41.551322000" lon="1.888375000">
        <ele>307.00</ele>
        <time>2011-04-05T11:45:45Z</time>
      </trkpt>
      <trkpt lat="41.551512000" lon="1.888473000">
        <ele>308.50</ele>
        <time>2011-04-05T11:45:54Z</time>
      </trkpt>
      <trkpt lat="41.552145000" lon="1.888880000">
        <ele>314.00</ele>
        <time>2011-04-05T11:46:21Z</time>
      </trkpt>
      <trkpt lat="41.552278000" lon="1.888970000">
        <ele>313.50</ele>
        <time>2011-04-05T11:46:27Z</time>
      </trkpt>
      <trkpt lat="41.552595000" lon="1.889147000">
        <ele>316.00</ele>
        <time>2011-04-05T11:46:42Z</time>
      </trkpt>
      <trkpt lat="41.552770000" lon="1.889228000">
        <ele>317.00</ele>
        <time>2011-04-05T11:46:49Z</time>
      </trkpt>
      <trkpt lat="41.553677000" lon="1.889587000">
        <ele>326.50</ele>
        <time>2011-04-05T11:47:28Z</time>
      </trkpt>
      <trkpt lat="41.553800000" lon="1.890325000">
        <ele>327.50</ele>
        <time>2011-04-05T11:47:48Z</time>
      </trkpt>
      <trkpt lat="41.553817000" lon="1.890360000">
        <ele>328.00</ele>
        <time>2011-04-05T11:47:50Z</time>
      </trkpt>
      <trkpt lat="41.553875000" lon="1.890603000">
        <ele>327.00</ele>
        <time>2011-04-05T11:47:55Z</time>
      </trkpt>
      <trkpt lat="41.553948000" lon="1.890677000">
        <ele>328.50</ele>
        <time>2011-04-05T11:47:57Z</time>
      </trkpt>
      <trkpt lat="41.554005000" lon="1.890682000">
        <ele>329.50</ele>
        <time>2011-04-05T11:47:59Z</time>
      </trkpt>
      <trkpt lat="41.554403000" lon="1.890632000">
        <ele>330.00</ele>
        <time>2011-04-05T11:48:13Z</time>
      </trkpt>
      <trkpt lat="41.554467000" lon="1.890635000">
        <ele>333.00</ele>
        <time>2011-04-05T11:48:16Z</time>
      </trkpt>
      <trkpt lat="41.554570000" lon="1.890638000">
        <ele>335.00</ele>
        <time>2011-04-05T11:48:20Z</time>
      </trkpt>
      <trkpt lat="41.554788000" lon="1.890633000">
        <ele>336.50</ele>
        <time>2011-04-05T11:48:29Z</time>
      </trkpt>
      <trkpt lat="41.555035000" lon="1.890720000">
        <ele>338.00</ele>
        <time>2011-04-05T11:48:39Z</time>
      </trkpt>
      <trkpt lat="41.555130000" lon="1.890725000">
        <ele>340.00</ele>
        <time>2011-04-05T11:48:42Z</time>
      </trkpt>
      <trkpt lat="41.555460000" lon="1.890772000">
        <ele>340.00</ele>
        <time>2011-04-05T11:48:55Z</time>
      </trkpt>
      <trkpt lat="41.555768000" lon="1.890738000">
        <ele>341.50</ele>
        <time>2011-04-05T11:49:07Z</time>
      </trkpt>
      <trkpt lat="41.556390000" lon="1.890670000">
        <ele>346.00</ele>
        <time>2011-04-05T11:49:31Z</time>
      </trkpt>
      <trkpt lat="41.556483000" lon="1.890650000">
        <ele>347.50</ele>
        <time>2011-04-05T11:49:35Z</time>
      </trkpt>
      <trkpt lat="41.556697000" lon="1.890583000">
        <ele>347.50</ele>
        <time>2011-04-05T11:49:49Z</time>
      </trkpt>
      <trkpt lat="41.556768000" lon="1.890557000">
        <ele>348.50</ele>
        <time>2011-04-05T11:49:52Z</time>
      </trkpt>
      <trkpt lat="41.556790000" lon="1.890532000">
        <ele>349.50</ele>
        <time>2011-04-05T11:49:54Z</time>
      </trkpt>
      <trkpt lat="41.556818000" lon="1.890123000">
        <ele>346.00</ele>
        <time>2011-04-05T11:50:06Z</time>
      </trkpt>
      <trkpt lat="41.556808000" lon="1.890072000">
        <ele>342.50</ele>
        <time>2011-04-05T11:50:06Z</time>
      </trkpt>
      <trkpt lat="41.556752000" lon="1.889885000">
        <ele>339.00</ele>
        <time>2011-04-05T11:50:10Z</time>
      </trkpt>
      <trkpt lat="41.556825000" lon="1.889132000">
        <ele>338.00</ele>
        <time>2011-04-05T11:50:22Z</time>
      </trkpt>
      <trkpt lat="41.556815000" lon="1.889082000">
        <ele>338.00</ele>
        <time>2011-04-05T11:50:24Z</time>
      </trkpt>
      <trkpt lat="41.556600000" lon="1.888535000">
        <ele>335.00</ele>
        <time>2011-04-05T11:50:34Z</time>
      </trkpt>
      <trkpt lat="41.556703000" lon="1.888428000">
        <ele>335.00</ele>
        <time>2011-04-05T11:50:37Z</time>
      </trkpt>
      <trkpt lat="41.556738000" lon="1.888455000">
        <ele>334.50</ele>
        <time>2011-04-05T11:50:39Z</time>
      </trkpt>
      <trkpt lat="41.556782000" lon="1.888558000">
        <ele>336.00</ele>
        <time>2011-04-05T11:50:41Z</time>
      </trkpt>
      <trkpt lat="41.557005000" lon="1.888983000">
        <ele>332.00</ele>
        <time>2011-04-05T11:50:48Z</time>
      </trkpt>
      <trkpt lat="41.557090000" lon="1.889127000">
        <ele>329.50</ele>
        <time>2011-04-05T11:50:50Z</time>
      </trkpt>
      <trkpt lat="41.557175000" lon="1.889482000">
        <ele>325.50</ele>
        <time>2011-04-05T11:50:53Z</time>
      </trkpt>
      <trkpt lat="41.557285000" lon="1.889708000">
        <ele>324.00</ele>
        <time>2011-04-05T11:50:57Z</time>
      </trkpt>
      <trkpt lat="41.558017000" lon="1.890290000">
        <ele>319.00</ele>
        <time>2011-04-05T11:51:12Z</time>
      </trkpt>
      <trkpt lat="41.558113000" lon="1.890437000">
        <ele>319.00</ele>
        <time>2011-04-05T11:51:14Z</time>
      </trkpt>
      <trkpt lat="41.558298000" lon="1.890600000">
        <ele>315.00</ele>
        <time>2011-04-05T11:51:19Z</time>
      </trkpt>
      <trkpt lat="41.558502000" lon="1.890810000">
        <ele>314.00</ele>
        <time>2011-04-05T11:51:23Z</time>
      </trkpt>
      <trkpt lat="41.558535000" lon="1.890870000">
        <ele>314.50</ele>
        <time>2011-04-05T11:51:23Z</time>
      </trkpt>
      <trkpt lat="41.558820000" lon="1.891075000">
        <ele>316.50</ele>
        <time>2011-04-05T11:51:30Z</time>
      </trkpt>
      <trkpt lat="41.558922000" lon="1.891107000">
        <ele>318.00</ele>
        <time>2011-04-05T11:51:33Z</time>
      </trkpt>
      <trkpt lat="41.559133000" lon="1.891115000">
        <ele>322.50</ele>
        <time>2011-04-05T11:51:42Z</time>
      </trkpt>
      <trkpt lat="41.559163000" lon="1.891103000">
        <ele>320.50</ele>
        <time>2011-04-05T11:52:34Z</time>
      </trkpt>
      <trkpt lat="41.559220000" lon="1.891088000">
        <ele>323.00</ele>
        <time>2011-04-05T11:52:38Z</time>
      </trkpt>
      <trkpt lat="41.559387000" lon="1.891088000">
        <ele>325.00</ele>
        <time>2011-04-05T11:52:45Z</time>
      </trkpt>
      <trkpt lat="41.559440000" lon="1.891083000">
        <ele>328.00</ele>
        <time>2011-04-05T11:52:48Z</time>
      </trkpt>
      <trkpt lat="41.559850000" lon="1.891067000">
        <ele>328.50</ele>
        <time>2011-04-05T11:53:00Z</time>
      </trkpt>
      <trkpt lat="41.559840000" lon="1.890928000">
        <ele>329.00</ele>
        <time>2011-04-05T11:53:04Z</time>
      </trkpt>
      <trkpt lat="41.559788000" lon="1.890990000">
        <ele>328.50</ele>
        <time>2011-04-05T11:53:07Z</time>
      </trkpt>
      <trkpt lat="41.559757000" lon="1.890973000">
        <ele>329.50</ele>
        <time>2011-04-05T11:53:09Z</time>
      </trkpt>
      <trkpt lat="41.559710000" lon="1.890962000">
        <ele>328.50</ele>
        <time>2011-04-05T11:53:11Z</time>
      </trkpt>
      <trkpt lat="41.559653000" lon="1.890908000">
        <ele>335.00</ele>
        <time>2011-04-05T11:53:12Z</time>
      </trkpt>
      <trkpt lat="41.559590000" lon="1.890878000">
        <ele>336.00</ele>
        <time>2011-04-05T11:53:16Z</time>
      </trkpt>
      <trkpt lat="41.559530000" lon="1.890877000">
        <ele>341.50</ele>
        <time>2011-04-05T11:53:18Z</time>
      </trkpt>
      <trkpt lat="41.559465000" lon="1.890833000">
        <ele>341.50</ele>
        <time>2011-04-05T11:53:21Z</time>
      </trkpt>
      <trkpt lat="41.559442000" lon="1.890902000">
        <ele>342.50</ele>
        <time>2011-04-05T11:53:23Z</time>
      </trkpt>
      <trkpt lat="41.559413000" lon="1.890872000">
        <ele>342.50</ele>
        <time>2011-04-05T11:53:25Z</time>
      </trkpt>
      <trkpt lat="41.559317000" lon="1.890787000">
        <ele>348.50</ele>
        <time>2011-04-05T11:53:30Z</time>
      </trkpt>
      <trkpt lat="41.559268000" lon="1.890735000">
        <ele>349.50</ele>
        <time>2011-04-05T11:53:33Z</time>
      </trkpt>
      <trkpt lat="41.559217000" lon="1.890675000">
        <ele>349.50</ele>
        <time>2011-04-05T11:53:35Z</time>
      </trkpt>
      <trkpt lat="41.559122000" lon="1.890558000">
        <ele>344.50</ele>
        <time>2011-04-05T11:53:42Z</time>
      </trkpt>
      <trkpt lat="41.559103000" lon="1.890535000">
        <ele>345.00</ele>
        <time>2011-04-05T11:53:42Z</time>
      </trkpt>
      <trkpt lat="41.559035000" lon="1.890403000">
        <ele>344.50</ele>
        <time>2011-04-05T11:53:47Z</time>
      </trkpt>
      <trkpt lat="41.558947000" lon="1.890018000">
        <ele>347.00</ele>
        <time>2011-04-05T11:53:59Z</time>
      </trkpt>
      <trkpt lat="41.558863000" lon="1.889855000">
        <ele>348.50</ele>
        <time>2011-04-05T11:54:05Z</time>
      </trkpt>
      <trkpt lat="41.558752000" lon="1.889658000">
        <ele>352.00</ele>
        <time>2011-04-05T11:54:13Z</time>
      </trkpt>
      <trkpt lat="41.558688000" lon="1.889537000">
        <ele>352.00</ele>
        <time>2011-04-05T11:54:19Z</time>
      </trkpt>
      <trkpt lat="41.558737000" lon="1.889392000">
        <ele>351.50</ele>
        <time>2011-04-05T11:54:24Z</time>
      </trkpt>
      <trkpt lat="41.558792000" lon="1.889365000">
        <ele>353.00</ele>
        <time>2011-04-05T11:54:27Z</time>
      </trkpt>
      <trkpt lat="41.559125000" lon="1.889202000">
        <ele>350.50</ele>
        <time>2011-04-05T11:54:40Z</time>
      </trkpt>
      <trkpt lat="41.559122000" lon="1.889170000">
        <ele>352.00</ele>
        <time>2011-04-05T11:54:41Z</time>
      </trkpt>
      <trkpt lat="41.559072000" lon="1.888998000">
        <ele>352.50</ele>
        <time>2011-04-05T11:54:45Z</time>
      </trkpt>
      <trkpt lat="41.559018000" lon="1.888883000">
        <ele>349.50</ele>
        <time>2011-04-05T11:54:48Z</time>
      </trkpt>
      <trkpt lat="41.558882000" lon="1.888582000">
        <ele>351.00</ele>
        <time>2011-04-05T11:54:59Z</time>
      </trkpt>
      <trkpt lat="41.558903000" lon="1.888453000">
        <ele>351.50</ele>
        <time>2011-04-05T11:55:02Z</time>
      </trkpt>
      <trkpt lat="41.558983000" lon="1.888323000">
        <ele>351.00</ele>
        <time>2011-04-05T11:55:06Z</time>
      </trkpt>
      <trkpt lat="41.559033000" lon="1.888283000">
        <ele>351.00</ele>
        <time>2011-04-05T11:55:07Z</time>
      </trkpt>
      <trkpt lat="41.559443000" lon="1.888142000">
        <ele>346.50</ele>
        <time>2011-04-05T11:55:21Z</time>
      </trkpt>
      <trkpt lat="41.559707000" lon="1.887943000">
        <ele>344.50</ele>
        <time>2011-04-05T11:55:28Z</time>
      </trkpt>
      <trkpt lat="41.559860000" lon="1.887838000">
        <ele>347.00</ele>
        <time>2011-04-05T11:55:32Z</time>
      </trkpt>
      <trkpt lat="41.560067000" lon="1.887842000">
        <ele>349.00</ele>
        <time>2011-04-05T11:55:41Z</time>
      </trkpt>
      <trkpt lat="41.560105000" lon="1.887835000">
        <ele>351.00</ele>
        <time>2011-04-05T11:55:44Z</time>
      </trkpt>
      <trkpt lat="41.560110000" lon="1.887777000">
        <ele>352.00</ele>
        <time>2011-04-05T11:55:46Z</time>
      </trkpt>
      <trkpt lat="41.560112000" lon="1.887742000">
        <ele>352.00</ele>
        <time>2011-04-05T11:55:46Z</time>
      </trkpt>
      <trkpt lat="41.560040000" lon="1.887608000">
        <ele>352.00</ele>
        <time>2011-04-05T11:55:53Z</time>
      </trkpt>
      <trkpt lat="41.559840000" lon="1.887407000">
        <ele>355.00</ele>
        <time>2011-04-05T11:56:05Z</time>
      </trkpt>
      <trkpt lat="41.559803000" lon="1.887385000">
        <ele>357.00</ele>
        <time>2011-04-05T11:56:07Z</time>
      </trkpt>
      <trkpt lat="41.559738000" lon="1.887258000">
        <ele>357.00</ele>
        <time>2011-04-05T11:56:12Z</time>
      </trkpt>
      <trkpt lat="41.559737000" lon="1.887222000">
        <ele>357.00</ele>
        <time>2011-04-05T11:56:12Z</time>
      </trkpt>
      <trkpt lat="41.559800000" lon="1.887068000">
        <ele>355.50</ele>
        <time>2011-04-05T11:56:17Z</time>
      </trkpt>
      <trkpt lat="41.560068000" lon="1.886782000">
        <ele>349.00</ele>
        <time>2011-04-05T11:56:24Z</time>
      </trkpt>
      <trkpt lat="41.560085000" lon="1.886718000">
        <ele>349.50</ele>
        <time>2011-04-05T11:56:24Z</time>
      </trkpt>
      <trkpt lat="41.560015000" lon="1.886490000">
        <ele>349.50</ele>
        <time>2011-04-05T11:56:29Z</time>
      </trkpt>
      <trkpt lat="41.559907000" lon="1.886300000">
        <ele>352.00</ele>
        <time>2011-04-05T11:56:33Z</time>
      </trkpt>
      <trkpt lat="41.559875000" lon="1.886223000">
        <ele>351.00</ele>
        <time>2011-04-05T11:56:36Z</time>
      </trkpt>
      <trkpt lat="41.559860000" lon="1.886068000">
        <ele>349.50</ele>
        <time>2011-04-05T11:56:40Z</time>
      </trkpt>
      <trkpt lat="41.559888000" lon="1.885810000">
        <ele>349.00</ele>
        <time>2011-04-05T11:56:47Z</time>
      </trkpt>
      <trkpt lat="41.559817000" lon="1.885735000">
        <ele>348.50</ele>
        <time>2011-04-05T11:56:52Z</time>
      </trkpt>
      <trkpt lat="41.559012000" lon="1.884695000">
        <ele>326.50</ele>
        <time>2011-04-05T11:57:16Z</time>
      </trkpt>
      <trkpt lat="41.558882000" lon="1.884332000">
        <ele>320.50</ele>
        <time>2011-04-05T11:57:23Z</time>
      </trkpt>
      <trkpt lat="41.558775000" lon="1.883943000">
        <ele>317.00</ele>
        <time>2011-04-05T11:57:29Z</time>
      </trkpt>
      <trkpt lat="41.558735000" lon="1.883778000">
        <ele>313.50</ele>
        <time>2011-04-05T11:57:30Z</time>
      </trkpt>
      <trkpt lat="41.558658000" lon="1.883240000">
        <ele>306.00</ele>
        <time>2011-04-05T11:57:37Z</time>
      </trkpt>
      <trkpt lat="41.558542000" lon="1.882570000">
        <ele>298.50</ele>
        <time>2011-04-05T11:57:46Z</time>
      </trkpt>
      <trkpt lat="41.558517000" lon="1.882527000">
        <ele>299.00</ele>
        <time>2011-04-05T11:57:48Z</time>
      </trkpt>
      <trkpt lat="41.558432000" lon="1.882603000">
        <ele>296.50</ele>
        <time>2011-04-05T11:57:51Z</time>
      </trkpt>
      <trkpt lat="41.558400000" lon="1.882928000">
        <ele>291.50</ele>
        <time>2011-04-05T11:57:58Z</time>
      </trkpt>
      <trkpt lat="41.558333000" lon="1.883043000">
        <ele>292.00</ele>
        <time>2011-04-05T11:58:02Z</time>
      </trkpt>
      <trkpt lat="41.557970000" lon="1.882897000">
        <ele>292.50</ele>
        <time>2011-04-05T11:58:10Z</time>
      </trkpt>
      <trkpt lat="41.557925000" lon="1.882902000">
        <ele>291.50</ele>
        <time>2011-04-05T11:58:10Z</time>
      </trkpt>
      <trkpt lat="41.557668000" lon="1.883097000">
        <ele>282.50</ele>
        <time>2011-04-05T11:58:16Z</time>
      </trkpt>
      <trkpt lat="41.557633000" lon="1.883145000">
        <ele>282.00</ele>
        <time>2011-04-05T11:58:17Z</time>
      </trkpt>
      <trkpt lat="41.557557000" lon="1.883362000">
        <ele>278.50</ele>
        <time>2011-04-05T11:58:21Z</time>
      </trkpt>
      <trkpt lat="41.557523000" lon="1.883473000">
        <ele>275.50</ele>
        <time>2011-04-05T11:58:23Z</time>
      </trkpt>
      <trkpt lat="41.557508000" lon="1.883798000">
        <ele>269.50</ele>
        <time>2011-04-05T11:58:28Z</time>
      </trkpt>
      <trkpt lat="41.557502000" lon="1.884107000">
        <ele>266.50</ele>
        <time>2011-04-05T11:58:33Z</time>
      </trkpt>
      <trkpt lat="41.557345000" lon="1.884700000">
        <ele>262.50</ele>
        <time>2011-04-05T11:58:43Z</time>
      </trkpt>
      <trkpt lat="41.557328000" lon="1.884742000">
        <ele>263.00</ele>
        <time>2011-04-05T11:58:45Z</time>
      </trkpt>
      <trkpt lat="41.557295000" lon="1.884705000">
        <ele>262.50</ele>
        <time>2011-04-05T11:58:47Z</time>
      </trkpt>
      <trkpt lat="41.557250000" lon="1.884535000">
        <ele>266.00</ele>
        <time>2011-04-05T11:58:52Z</time>
      </trkpt>
      <trkpt lat="41.557185000" lon="1.884330000">
        <ele>265.50</ele>
        <time>2011-04-05T11:58:56Z</time>
      </trkpt>
      <trkpt lat="41.557172000" lon="1.884162000">
        <ele>265.50</ele>
        <time>2011-04-05T11:58:59Z</time>
      </trkpt>
      <trkpt lat="41.557172000" lon="1.883965000">
        <ele>261.50</ele>
        <time>2011-04-05T11:59:04Z</time>
      </trkpt>
      <trkpt lat="41.557155000" lon="1.883885000">
        <ele>263.50</ele>
        <time>2011-04-05T11:59:06Z</time>
      </trkpt>
      <trkpt lat="41.557148000" lon="1.883800000">
        <ele>262.00</ele>
        <time>2011-04-05T11:59:08Z</time>
      </trkpt>
      <trkpt lat="41.557132000" lon="1.883442000">
        <ele>261.50</ele>
        <time>2011-04-05T11:59:17Z</time>
      </trkpt>
      <trkpt lat="41.557133000" lon="1.883417000">
        <ele>260.00</ele>
        <time>2011-04-05T11:59:18Z</time>
      </trkpt>
      <trkpt lat="41.557135000" lon="1.883293000">
        <ele>260.50</ele>
        <time>2011-04-05T11:59:20Z</time>
      </trkpt>
      <trkpt lat="41.557138000" lon="1.883028000">
        <ele>256.50</ele>
        <time>2011-04-05T11:59:25Z</time>
      </trkpt>
      <trkpt lat="41.557150000" lon="1.882810000">
        <ele>257.50</ele>
        <time>2011-04-05T11:59:29Z</time>
      </trkpt>
      <trkpt lat="41.557422000" lon="1.882487000">
        <ele>258.00</ele>
        <time>2011-04-05T11:59:39Z</time>
      </trkpt>
      <trkpt lat="41.557570000" lon="1.882485000">
        <ele>258.50</ele>
        <time>2011-04-05T11:59:43Z</time>
      </trkpt>
      <trkpt lat="41.557703000" lon="1.882370000">
        <ele>260.00</ele>
        <time>2011-04-05T11:59:48Z</time>
      </trkpt>
      <trkpt lat="41.557788000" lon="1.882257000">
        <ele>259.50</ele>
        <time>2011-04-05T11:59:51Z</time>
      </trkpt>
      <trkpt lat="41.557795000" lon="1.881768000">
        <ele>258.50</ele>
        <time>2011-04-05T12:00:00Z</time>
      </trkpt>
      <trkpt lat="41.557783000" lon="1.881643000">
        <ele>260.50</ele>
        <time>2011-04-05T12:00:02Z</time>
      </trkpt>
      <trkpt lat="41.557787000" lon="1.881578000">
        <ele>261.00</ele>
        <time>2011-04-05T12:00:02Z</time>
      </trkpt>
      <trkpt lat="41.557863000" lon="1.881338000">
        <ele>263.00</ele>
        <time>2011-04-05T12:00:07Z</time>
      </trkpt>
      <trkpt lat="41.557952000" lon="1.881202000">
        <ele>263.50</ele>
        <time>2011-04-05T12:00:14Z</time>
      </trkpt>
      <trkpt lat="41.557952000" lon="1.881192000">
        <ele>265.00</ele>
        <time>2011-04-05T12:00:16Z</time>
      </trkpt>
      <trkpt lat="41.558012000" lon="1.881103000">
        <ele>263.50</ele>
        <time>2011-04-05T12:00:26Z</time>
      </trkpt>
      <trkpt lat="41.558070000" lon="1.881053000">
        <ele>265.50</ele>
        <time>2011-04-05T12:00:28Z</time>
      </trkpt>
      <trkpt lat="41.558182000" lon="1.881082000">
        <ele>261.00</ele>
        <time>2011-04-05T12:00:31Z</time>
      </trkpt>
      <trkpt lat="41.558475000" lon="1.881155000">
        <ele>255.50</ele>
        <time>2011-04-05T12:00:37Z</time>
      </trkpt>
      <trkpt lat="41.558872000" lon="1.881200000">
        <ele>251.50</ele>
        <time>2011-04-05T12:00:45Z</time>
      </trkpt>
      <trkpt lat="41.559880000" lon="1.881188000">
        <ele>251.50</ele>
        <time>2011-04-05T12:00:59Z</time>
      </trkpt>
      <trkpt lat="41.560375000" lon="1.881213000">
        <ele>249.50</ele>
        <time>2011-04-05T12:01:05Z</time>
      </trkpt>
      <trkpt lat="41.561032000" lon="1.881328000">
        <ele>246.50</ele>
        <time>2011-04-05T12:01:13Z</time>
      </trkpt>
      <trkpt lat="41.562245000" lon="1.881715000">
        <ele>243.00</ele>
        <time>2011-04-05T12:01:27Z</time>
      </trkpt>
      <trkpt lat="41.562490000" lon="1.881790000">
        <ele>242.50</ele>
        <time>2011-04-05T12:01:31Z</time>
      </trkpt>
      <trkpt lat="41.562868000" lon="1.881842000">
        <ele>243.00</ele>
        <time>2011-04-05T12:01:36Z</time>
      </trkpt>
      <trkpt lat="41.563230000" lon="1.881890000">
        <ele>240.50</ele>
        <time>2011-04-05T12:01:41Z</time>
      </trkpt>
      <trkpt lat="41.563292000" lon="1.881882000">
        <ele>241.00</ele>
        <time>2011-04-05T12:01:41Z</time>
      </trkpt>
      <trkpt lat="41.563692000" lon="1.881788000">
        <ele>243.00</ele>
        <time>2011-04-05T12:01:48Z</time>
      </trkpt>
      <trkpt lat="41.563895000" lon="1.881703000">
        <ele>244.50</ele>
        <time>2011-04-05T12:01:53Z</time>
      </trkpt>
      <trkpt lat="41.564138000" lon="1.881612000">
        <ele>244.50</ele>
        <time>2011-04-05T12:01:57Z</time>
      </trkpt>
      <trkpt lat="41.564230000" lon="1.881557000">
        <ele>246.50</ele>
        <time>2011-04-05T12:02:00Z</time>
      </trkpt>
      <trkpt lat="41.565143000" lon="1.881195000">
        <ele>248.00</ele>
        <time>2011-04-05T12:02:18Z</time>
      </trkpt>
      <trkpt lat="41.565378000" lon="1.881085000">
        <ele>248.00</ele>
        <time>2011-04-05T12:02:23Z</time>
      </trkpt>
      <trkpt lat="41.565852000" lon="1.880847000">
        <ele>246.50</ele>
        <time>2011-04-05T12:02:33Z</time>
      </trkpt>
      <trkpt lat="41.565905000" lon="1.880815000">
        <ele>246.00</ele>
        <time>2011-04-05T12:02:33Z</time>
      </trkpt>
      <trkpt lat="41.566598000" lon="1.880358000">
        <ele>246.00</ele>
        <time>2011-04-05T12:02:47Z</time>
      </trkpt>
      <trkpt lat="41.567103000" lon="1.880452000">
        <ele>250.00</ele>
        <time>2011-04-05T12:03:05Z</time>
      </trkpt>
      <trkpt lat="41.567127000" lon="1.880447000">
        <ele>250.50</ele>
        <time>2011-04-05T12:03:05Z</time>
      </trkpt>
      <trkpt lat="41.567345000" lon="1.880230000">
        <ele>250.00</ele>
        <time>2011-04-05T12:03:17Z</time>
      </trkpt>
      <trkpt lat="41.567517000" lon="1.880168000">
        <ele>251.50</ele>
        <time>2011-04-05T12:03:24Z</time>
      </trkpt>
      <trkpt lat="41.567540000" lon="1.880180000">
        <ele>252.00</ele>
        <time>2011-04-05T12:03:26Z</time>
      </trkpt>
      <trkpt lat="41.567765000" lon="1.880458000">
        <ele>252.00</ele>
        <time>2011-04-05T12:03:38Z</time>
      </trkpt>
      <trkpt lat="41.567920000" lon="1.880562000">
        <ele>250.50</ele>
        <time>2011-04-05T12:03:43Z</time>
      </trkpt>
      <trkpt lat="41.568117000" lon="1.880650000">
        <ele>249.50</ele>
        <time>2011-04-05T12:03:50Z</time>
      </trkpt>
      <trkpt lat="41.568320000" lon="1.880608000">
        <ele>249.50</ele>
        <time>2011-04-05T12:03:55Z</time>
      </trkpt>
      <trkpt lat="41.568892000" lon="1.880130000">
        <ele>249.50</ele>
        <time>2011-04-05T12:04:09Z</time>
      </trkpt>
      <trkpt lat="41.569233000" lon="1.879847000">
        <ele>245.50</ele>
        <time>2011-04-05T12:04:16Z</time>
      </trkpt>
      <trkpt lat="41.569797000" lon="1.879412000">
        <ele>242.50</ele>
        <time>2011-04-05T12:04:25Z</time>
      </trkpt>
      <trkpt lat="41.569972000" lon="1.879118000">
        <ele>240.00</ele>
        <time>2011-04-05T12:04:28Z</time>
      </trkpt>
      <trkpt lat="41.570245000" lon="1.878503000">
        <ele>239.50</ele>
        <time>2011-04-05T12:04:37Z</time>
      </trkpt>
      <trkpt lat="41.570425000" lon="1.878212000">
        <ele>246.00</ele>
        <time>2011-04-05T12:04:46Z</time>
      </trkpt>
      <trkpt lat="41.570507000" lon="1.877992000">
        <ele>255.00</ele>
        <time>2011-04-05T12:04:54Z</time>
      </trkpt>
      <trkpt lat="41.570605000" lon="1.877802000">
        <ele>259.50</ele>
        <time>2011-04-05T12:05:03Z</time>
      </trkpt>
      <trkpt lat="41.570637000" lon="1.877757000">
        <ele>259.00</ele>
        <time>2011-04-05T12:05:05Z</time>
      </trkpt>
      <trkpt lat="41.570840000" lon="1.877425000">
        <ele>268.00</ele>
        <time>2011-04-05T12:05:26Z</time>
      </trkpt>
      <trkpt lat="41.570933000" lon="1.877163000">
        <ele>270.00</ele>
        <time>2011-04-05T12:05:38Z</time>
      </trkpt>
      <trkpt lat="41.571297000" lon="1.876925000">
        <ele>273.50</ele>
        <time>2011-04-05T12:06:04Z</time>
      </trkpt>
      <trkpt lat="41.571435000" lon="1.876807000">
        <ele>279.00</ele>
        <time>2011-04-05T12:06:16Z</time>
      </trkpt>
      <trkpt lat="41.571458000" lon="1.876742000">
        <ele>280.50</ele>
        <time>2011-04-05T12:06:20Z</time>
      </trkpt>
      <trkpt lat="41.571645000" lon="1.876140000">
        <ele>283.00</ele>
        <time>2011-04-05T12:06:44Z</time>
      </trkpt>
      <trkpt lat="41.571690000" lon="1.876008000">
        <ele>285.00</ele>
        <time>2011-04-05T12:06:51Z</time>
      </trkpt>
      <trkpt lat="41.571673000" lon="1.875820000">
        <ele>287.00</ele>
        <time>2011-04-05T12:07:00Z</time>
      </trkpt>
      <trkpt lat="41.571683000" lon="1.875390000">
        <ele>285.00</ele>
        <time>2011-04-05T12:07:21Z</time>
      </trkpt>
      <trkpt lat="41.571643000" lon="1.875325000">
        <ele>281.50</ele>
        <time>2011-04-05T12:07:26Z</time>
      </trkpt>
      <trkpt lat="41.571623000" lon="1.875283000">
        <ele>283.00</ele>
        <time>2011-04-05T12:07:28Z</time>
      </trkpt>
      <trkpt lat="41.571363000" lon="1.874847000">
        <ele>282.50</ele>
        <time>2011-04-05T12:07:54Z</time>
      </trkpt>
      <trkpt lat="41.571258000" lon="1.874650000">
        <ele>288.00</ele>
        <time>2011-04-05T12:08:06Z</time>
      </trkpt>
      <trkpt lat="41.571260000" lon="1.874623000">
        <ele>288.50</ele>
        <time>2011-04-05T12:08:06Z</time>
      </trkpt>
      <trkpt lat="41.571317000" lon="1.874460000">
        <ele>287.00</ele>
        <time>2011-04-05T12:08:13Z</time>
      </trkpt>
      <trkpt lat="41.571447000" lon="1.874320000">
        <ele>288.00</ele>
        <time>2011-04-05T12:08:22Z</time>
      </trkpt>
      <trkpt lat="41.571503000" lon="1.874218000">
        <ele>286.00</ele>
        <time>2011-04-05T12:08:27Z</time>
      </trkpt>
      <trkpt lat="41.571672000" lon="1.873852000">
        <ele>286.50</ele>
        <time>2011-04-05T12:08:41Z</time>
      </trkpt>
      <trkpt lat="41.571682000" lon="1.873822000">
        <ele>286.50</ele>
        <time>2011-04-05T12:08:43Z</time>
      </trkpt>
      <trkpt lat="41.571720000" lon="1.873452000">
        <ele>290.00</ele>
        <time>2011-04-05T12:08:55Z</time>
      </trkpt>
      <trkpt lat="41.571715000" lon="1.873385000">
        <ele>290.00</ele>
        <time>2011-04-05T12:08:57Z</time>
      </trkpt>
      <trkpt lat="41.571622000" lon="1.872977000">
        <ele>288.00</ele>
        <time>2011-04-05T12:09:11Z</time>
      </trkpt>
      <trkpt lat="41.571577000" lon="1.872668000">
        <ele>292.50</ele>
        <time>2011-04-05T12:09:23Z</time>
      </trkpt>
      <trkpt lat="41.571405000" lon="1.872490000">
        <ele>296.50</ele>
        <time>2011-04-05T12:09:35Z</time>
      </trkpt>
      <trkpt lat="41.571373000" lon="1.872423000">
        <ele>296.50</ele>
        <time>2011-04-05T12:09:38Z</time>
      </trkpt>
      <trkpt lat="41.571297000" lon="1.872137000">
        <ele>298.50</ele>
        <time>2011-04-05T12:09:49Z</time>
      </trkpt>
      <trkpt lat="41.571272000" lon="1.871922000">
        <ele>298.00</ele>
        <time>2011-04-05T12:09:56Z</time>
      </trkpt>
      <trkpt lat="41.571228000" lon="1.871735000">
        <ele>299.00</ele>
        <time>2011-04-05T12:10:03Z</time>
      </trkpt>
      <trkpt lat="41.571157000" lon="1.871608000">
        <ele>300.50</ele>
        <time>2011-04-05T12:10:10Z</time>
      </trkpt>
      <trkpt lat="41.571045000" lon="1.871295000">
        <ele>300.50</ele>
        <time>2011-04-05T12:10:20Z</time>
      </trkpt>
      <trkpt lat="41.571075000" lon="1.871105000">
        <ele>300.00</ele>
        <time>2011-04-05T12:10:27Z</time>
      </trkpt>
      <trkpt lat="41.571177000" lon="1.870882000">
        <ele>296.50</ele>
        <time>2011-04-05T12:10:34Z</time>
      </trkpt>
      <trkpt lat="41.571220000" lon="1.870542000">
        <ele>295.00</ele>
        <time>2011-04-05T12:10:45Z</time>
      </trkpt>
      <trkpt lat="41.571293000" lon="1.870372000">
        <ele>295.00</ele>
        <time>2011-04-05T12:10:50Z</time>
      </trkpt>
      <trkpt lat="41.571292000" lon="1.870307000">
        <ele>297.00</ele>
        <time>2011-04-05T12:10:52Z</time>
      </trkpt>
      <trkpt lat="41.571273000" lon="1.870250000">
        <ele>297.50</ele>
        <time>2011-04-05T12:10:53Z</time>
      </trkpt>
      <trkpt lat="41.571118000" lon="1.870088000">
        <ele>294.50</ele>
        <time>2011-04-05T12:11:02Z</time>
      </trkpt>
      <trkpt lat="41.570992000" lon="1.869945000">
        <ele>297.00</ele>
        <time>2011-04-05T12:11:09Z</time>
      </trkpt>
      <trkpt lat="41.570978000" lon="1.869925000">
        <ele>296.50</ele>
        <time>2011-04-05T12:11:11Z</time>
      </trkpt>
      <trkpt lat="41.570893000" lon="1.869608000">
        <ele>297.00</ele>
        <time>2011-04-05T12:11:21Z</time>
      </trkpt>
      <trkpt lat="41.570895000" lon="1.869573000">
        <ele>297.00</ele>
        <time>2011-04-05T12:11:21Z</time>
      </trkpt>
      <trkpt lat="41.571092000" lon="1.868990000">
        <ele>306.00</ele>
        <time>2011-04-05T12:11:47Z</time>
      </trkpt>
      <trkpt lat="41.571163000" lon="1.868783000">
        <ele>307.00</ele>
        <time>2011-04-05T12:11:56Z</time>
      </trkpt>
      <trkpt lat="41.571225000" lon="1.868632000">
        <ele>310.00</ele>
        <time>2011-04-05T12:12:03Z</time>
      </trkpt>
      <trkpt lat="41.571237000" lon="1.868568000">
        <ele>311.00</ele>
        <time>2011-04-05T12:12:05Z</time>
      </trkpt>
      <trkpt lat="41.571335000" lon="1.867840000">
        <ele>312.50</ele>
        <time>2011-04-05T12:12:36Z</time>
      </trkpt>
      <trkpt lat="41.571352000" lon="1.867832000">
        <ele>313.00</ele>
        <time>2011-04-05T12:12:38Z</time>
      </trkpt>
      <trkpt lat="41.571462000" lon="1.868138000">
        <ele>320.00</ele>
        <time>2011-04-05T12:12:54Z</time>
      </trkpt>
      <trkpt lat="41.571493000" lon="1.868218000">
        <ele>319.50</ele>
        <time>2011-04-05T12:12:57Z</time>
      </trkpt>
      <trkpt lat="41.571500000" lon="1.868283000">
        <ele>321.50</ele>
        <time>2011-04-05T12:13:00Z</time>
      </trkpt>
      <trkpt lat="41.571608000" lon="1.868808000">
        <ele>318.00</ele>
        <time>2011-04-05T12:13:20Z</time>
      </trkpt>
      <trkpt lat="41.571682000" lon="1.869340000">
        <ele>326.00</ele>
        <time>2011-04-05T12:13:42Z</time>
      </trkpt>
      <trkpt lat="41.571690000" lon="1.869387000">
        <ele>324.50</ele>
        <time>2011-04-05T12:13:44Z</time>
      </trkpt>
      <trkpt lat="41.571705000" lon="1.869460000">
        <ele>325.00</ele>
        <time>2011-04-05T12:13:46Z</time>
      </trkpt>
      <trkpt lat="41.571738000" lon="1.869602000">
        <ele>328.00</ele>
        <time>2011-04-05T12:13:53Z</time>
      </trkpt>
      <trkpt lat="41.571828000" lon="1.869753000">
        <ele>333.00</ele>
        <time>2011-04-05T12:14:00Z</time>
      </trkpt>
      <trkpt lat="41.571883000" lon="1.869825000">
        <ele>333.00</ele>
        <time>2011-04-05T12:14:05Z</time>
      </trkpt>
      <trkpt lat="41.571968000" lon="1.869910000">
        <ele>337.00</ele>
        <time>2011-04-05T12:14:12Z</time>
      </trkpt>
      <trkpt lat="41.572040000" lon="1.870098000">
        <ele>342.00</ele>
        <time>2011-04-05T12:14:21Z</time>
      </trkpt>
      <trkpt lat="41.572065000" lon="1.870203000">
        <ele>342.00</ele>
        <time>2011-04-05T12:14:24Z</time>
      </trkpt>
      <trkpt lat="41.571987000" lon="1.870682000">
        <ele>345.00</ele>
        <time>2011-04-05T12:14:41Z</time>
      </trkpt>
      <trkpt lat="41.571892000" lon="1.870960000">
        <ele>347.50</ele>
        <time>2011-04-05T12:14:52Z</time>
      </trkpt>
      <trkpt lat="41.571880000" lon="1.871008000">
        <ele>348.50</ele>
        <time>2011-04-05T12:14:54Z</time>
      </trkpt>
      <trkpt lat="41.571883000" lon="1.871033000">
        <ele>349.50</ele>
        <time>2011-04-05T12:14:55Z</time>
      </trkpt>
      <trkpt lat="41.572000000" lon="1.871278000">
        <ele>349.00</ele>
        <time>2011-04-05T12:15:02Z</time>
      </trkpt>
      <trkpt lat="41.572128000" lon="1.871320000">
        <ele>349.50</ele>
        <time>2011-04-05T12:15:09Z</time>
      </trkpt>
      <trkpt lat="41.572140000" lon="1.871322000">
        <ele>351.00</ele>
        <time>2011-04-05T12:15:11Z</time>
      </trkpt>
      <trkpt lat="41.572285000" lon="1.871372000">
        <ele>353.00</ele>
        <time>2011-04-05T12:15:18Z</time>
      </trkpt>
      <trkpt lat="41.572487000" lon="1.871443000">
        <ele>361.00</ele>
        <time>2011-04-05T12:15:30Z</time>
      </trkpt>
      <trkpt lat="41.572673000" lon="1.871520000">
        <ele>365.50</ele>
        <time>2011-04-05T12:15:41Z</time>
      </trkpt>
      <trkpt lat="41.572730000" lon="1.871542000">
        <ele>366.00</ele>
        <time>2011-04-05T12:15:44Z</time>
      </trkpt>
      <trkpt lat="41.572987000" lon="1.871713000">
        <ele>371.00</ele>
        <time>2011-04-05T12:15:58Z</time>
      </trkpt>
      <trkpt lat="41.573058000" lon="1.871777000">
        <ele>371.00</ele>
        <time>2011-04-05T12:16:02Z</time>
      </trkpt>
      <trkpt lat="41.573167000" lon="1.871852000">
        <ele>377.00</ele>
        <time>2011-04-05T12:16:10Z</time>
      </trkpt>
      <trkpt lat="41.573270000" lon="1.871902000">
        <ele>380.00</ele>
        <time>2011-04-05T12:16:16Z</time>
      </trkpt>
      <trkpt lat="41.573437000" lon="1.871945000">
        <ele>383.00</ele>
        <time>2011-04-05T12:16:24Z</time>
      </trkpt>
      <trkpt lat="41.573555000" lon="1.872003000">
        <ele>382.00</ele>
        <time>2011-04-05T12:16:31Z</time>
      </trkpt>
      <trkpt lat="41.573610000" lon="1.872023000">
        <ele>383.50</ele>
        <time>2011-04-05T12:16:33Z</time>
      </trkpt>
      <trkpt lat="41.573655000" lon="1.872042000">
        <ele>381.50</ele>
        <time>2011-04-05T12:16:35Z</time>
      </trkpt>
      <trkpt lat="41.573695000" lon="1.872047000">
        <ele>381.00</ele>
        <time>2011-04-05T12:16:38Z</time>
      </trkpt>
      <trkpt lat="41.573860000" lon="1.872055000">
        <ele>381.00</ele>
        <time>2011-04-05T12:16:47Z</time>
      </trkpt>
      <trkpt lat="41.574002000" lon="1.872065000">
        <ele>382.50</ele>
        <time>2011-04-05T12:16:56Z</time>
      </trkpt>
      <trkpt lat="41.574028000" lon="1.872063000">
        <ele>384.00</ele>
        <time>2011-04-05T12:16:59Z</time>
      </trkpt>
      <trkpt lat="41.574043000" lon="1.872080000">
        <ele>385.00</ele>
        <time>2011-04-05T12:17:01Z</time>
      </trkpt>
      <trkpt lat="41.574163000" lon="1.872165000">
        <ele>386.00</ele>
        <time>2011-04-05T12:17:15Z</time>
      </trkpt>
      <trkpt lat="41.574158000" lon="1.872152000">
        <ele>380.50</ele>
        <time>2011-04-05T12:17:20Z</time>
      </trkpt>
      <trkpt lat="41.574123000" lon="1.872207000">
        <ele>378.50</ele>
        <time>2011-04-05T12:17:24Z</time>
      </trkpt>
      <trkpt lat="41.574180000" lon="1.872245000">
        <ele>380.50</ele>
        <time>2011-04-05T12:17:30Z</time>
      </trkpt>
      <trkpt lat="41.574197000" lon="1.872252000">
        <ele>377.50</ele>
        <time>2011-04-05T12:17:32Z</time>
      </trkpt>
      <trkpt lat="41.574173000" lon="1.872213000">
        <ele>373.50</ele>
        <time>2011-04-05T12:17:36Z</time>
      </trkpt>
      <trkpt lat="41.574067000" lon="1.872173000">
        <ele>371.00</ele>
        <time>2011-04-05T12:17:44Z</time>
      </trkpt>
      <trkpt lat="41.574052000" lon="1.872165000">
        <ele>371.00</ele>
        <time>2011-04-05T12:17:46Z</time>
      </trkpt>
      <trkpt lat="41.574032000" lon="1.872243000">
        <ele>372.50</ele>
        <time>2011-04-05T12:17:50Z</time>
      </trkpt>
      <trkpt lat="41.574247000" lon="1.872398000">
        <ele>376.50</ele>
        <time>2011-04-05T12:18:05Z</time>
      </trkpt>
      <trkpt lat="41.574340000" lon="1.872525000">
        <ele>376.50</ele>
        <time>2011-04-05T12:18:14Z</time>
      </trkpt>
      <trkpt lat="41.574398000" lon="1.872577000">
        <ele>374.50</ele>
        <time>2011-04-05T12:18:16Z</time>
      </trkpt>
      <trkpt lat="41.574518000" lon="1.872653000">
        <ele>374.00</ele>
        <time>2011-04-05T12:18:21Z</time>
      </trkpt>
      <trkpt lat="41.574692000" lon="1.872600000">
        <ele>375.50</ele>
        <time>2011-04-05T12:18:28Z</time>
      </trkpt>
      <trkpt lat="41.574720000" lon="1.872575000">
        <ele>377.00</ele>
        <time>2011-04-05T12:18:28Z</time>
      </trkpt>
      <trkpt lat="41.575000000" lon="1.872473000">
        <ele>376.00</ele>
        <time>2011-04-05T12:18:40Z</time>
      </trkpt>
      <trkpt lat="41.575387000" lon="1.872483000">
        <ele>374.50</ele>
        <time>2011-04-05T12:18:51Z</time>
      </trkpt>
      <trkpt lat="41.575617000" lon="1.872468000">
        <ele>375.50</ele>
        <time>2011-04-05T12:18:59Z</time>
      </trkpt>
      <trkpt lat="41.575708000" lon="1.872433000">
        <ele>377.50</ele>
        <time>2011-04-05T12:19:03Z</time>
      </trkpt>
      <trkpt lat="41.576217000" lon="1.872430000">
        <ele>376.50</ele>
        <time>2011-04-05T12:19:18Z</time>
      </trkpt>
      <trkpt lat="41.576268000" lon="1.872422000">
        <ele>377.50</ele>
        <time>2011-04-05T12:19:20Z</time>
      </trkpt>
      <trkpt lat="41.576417000" lon="1.872327000">
        <ele>380.00</ele>
        <time>2011-04-05T12:19:29Z</time>
      </trkpt>
      <trkpt lat="41.576803000" lon="1.872035000">
        <ele>379.50</ele>
        <time>2011-04-05T12:19:46Z</time>
      </trkpt>
      <trkpt lat="41.576847000" lon="1.872022000">
        <ele>381.00</ele>
        <time>2011-04-05T12:19:46Z</time>
      </trkpt>
      <trkpt lat="41.577273000" lon="1.872063000">
        <ele>379.00</ele>
        <time>2011-04-05T12:19:55Z</time>
      </trkpt>
      <trkpt lat="41.577402000" lon="1.872063000">
        <ele>379.50</ele>
        <time>2011-04-05T12:19:59Z</time>
      </trkpt>
      <trkpt lat="41.577898000" lon="1.871898000">
        <ele>379.00</ele>
        <time>2011-04-05T12:20:09Z</time>
      </trkpt>
      <trkpt lat="41.577932000" lon="1.871897000">
        <ele>379.50</ele>
        <time>2011-04-05T12:20:11Z</time>
      </trkpt>
      <trkpt lat="41.577973000" lon="1.871937000">
        <ele>378.00</ele>
        <time>2011-04-05T12:20:11Z</time>
      </trkpt>
      <trkpt lat="41.578122000" lon="1.872163000">
        <ele>380.00</ele>
        <time>2011-04-05T12:20:23Z</time>
      </trkpt>
      <trkpt lat="41.578208000" lon="1.872198000">
        <ele>378.00</ele>
        <time>2011-04-05T12:20:25Z</time>
      </trkpt>
      <trkpt lat="41.578345000" lon="1.872208000">
        <ele>376.50</ele>
        <time>2011-04-05T12:20:28Z</time>
      </trkpt>
      <trkpt lat="41.578628000" lon="1.872295000">
        <ele>379.00</ele>
        <time>2011-04-05T12:20:37Z</time>
      </trkpt>
      <trkpt lat="41.578790000" lon="1.872318000">
        <ele>379.00</ele>
        <time>2011-04-05T12:20:42Z</time>
      </trkpt>
      <trkpt lat="41.579130000" lon="1.872212000">
        <ele>379.50</ele>
        <time>2011-04-05T12:20:53Z</time>
      </trkpt>
      <trkpt lat="41.579157000" lon="1.872225000">
        <ele>380.50</ele>
        <time>2011-04-05T12:20:54Z</time>
      </trkpt>
      <trkpt lat="41.579210000" lon="1.872313000">
        <ele>377.50</ele>
        <time>2011-04-05T12:20:56Z</time>
      </trkpt>
      <trkpt lat="41.579295000" lon="1.872503000">
        <ele>378.50</ele>
        <time>2011-04-05T12:21:01Z</time>
      </trkpt>
      <trkpt lat="41.579320000" lon="1.872603000">
        <ele>379.00</ele>
        <time>2011-04-05T12:21:05Z</time>
      </trkpt>
      <trkpt lat="41.579353000" lon="1.872860000">
        <ele>377.50</ele>
        <time>2011-04-05T12:21:12Z</time>
      </trkpt>
      <trkpt lat="41.579398000" lon="1.873043000">
        <ele>380.00</ele>
        <time>2011-04-05T12:21:17Z</time>
      </trkpt>
      <trkpt lat="41.579488000" lon="1.873207000">
        <ele>383.50</ele>
        <time>2011-04-05T12:21:24Z</time>
      </trkpt>
      <trkpt lat="41.579565000" lon="1.873358000">
        <ele>383.50</ele>
        <time>2011-04-05T12:21:31Z</time>
      </trkpt>
      <trkpt lat="41.579630000" lon="1.873583000">
        <ele>386.00</ele>
        <time>2011-04-05T12:21:41Z</time>
      </trkpt>
      <trkpt lat="41.579667000" lon="1.873635000">
        <ele>385.00</ele>
        <time>2011-04-05T12:21:43Z</time>
      </trkpt>
      <trkpt lat="41.579725000" lon="1.873600000">
        <ele>384.00</ele>
        <time>2011-04-05T12:21:50Z</time>
      </trkpt>
      <trkpt lat="41.579680000" lon="1.873275000">
        <ele>380.50</ele>
        <time>2011-04-05T12:21:57Z</time>
      </trkpt>
      <trkpt lat="41.579713000" lon="1.873240000">
        <ele>380.00</ele>
        <time>2011-04-05T12:21:59Z</time>
      </trkpt>
      <trkpt lat="41.579772000" lon="1.873202000">
        <ele>382.50</ele>
        <time>2011-04-05T12:22:02Z</time>
      </trkpt>
      <trkpt lat="41.579782000" lon="1.873207000">
        <ele>383.00</ele>
        <time>2011-04-05T12:22:04Z</time>
      </trkpt>
      <trkpt lat="41.579827000" lon="1.873257000">
        <ele>389.00</ele>
        <time>2011-04-05T12:22:16Z</time>
      </trkpt>
      <trkpt lat="41.579842000" lon="1.873298000">
        <ele>388.50</ele>
        <time>2011-04-05T12:22:21Z</time>
      </trkpt>
      <trkpt lat="41.579855000" lon="1.873312000">
        <ele>390.50</ele>
        <time>2011-04-05T12:22:25Z</time>
      </trkpt>
      <trkpt lat="41.579943000" lon="1.873413000">
        <ele>393.50</ele>
        <time>2011-04-05T12:22:35Z</time>
      </trkpt>
      <trkpt lat="41.580015000" lon="1.873487000">
        <ele>393.50</ele>
        <time>2011-04-05T12:22:39Z</time>
      </trkpt>
      <trkpt lat="41.580153000" lon="1.873612000">
        <ele>396.50</ele>
        <time>2011-04-05T12:22:51Z</time>
      </trkpt>
      <trkpt lat="41.580180000" lon="1.873622000">
        <ele>397.00</ele>
        <time>2011-04-05T12:22:53Z</time>
      </trkpt>
      <trkpt lat="41.580573000" lon="1.873770000">
        <ele>411.50</ele>
        <time>2011-04-05T12:23:22Z</time>
      </trkpt>
      <trkpt lat="41.580660000" lon="1.873810000">
        <ele>418.00</ele>
        <time>2011-04-05T12:23:33Z</time>
      </trkpt>
      <trkpt lat="41.580792000" lon="1.873920000">
        <ele>417.00</ele>
        <time>2011-04-05T12:23:45Z</time>
      </trkpt>
      <trkpt lat="41.580828000" lon="1.873945000">
        <ele>419.50</ele>
        <time>2011-04-05T12:23:48Z</time>
      </trkpt>
      <trkpt lat="41.580913000" lon="1.873968000">
        <ele>419.50</ele>
        <time>2011-04-05T12:23:55Z</time>
      </trkpt>
      <trkpt lat="41.581090000" lon="1.873972000">
        <ele>425.50</ele>
        <time>2011-04-05T12:24:11Z</time>
      </trkpt>
      <trkpt lat="41.581230000" lon="1.874030000">
        <ele>422.50</ele>
        <time>2011-04-05T12:24:20Z</time>
      </trkpt>
      <trkpt lat="41.581495000" lon="1.874152000">
        <ele>422.50</ele>
        <time>2011-04-05T12:24:27Z</time>
      </trkpt>
      <trkpt lat="41.581638000" lon="1.874243000">
        <ele>420.50</ele>
        <time>2011-04-05T12:24:32Z</time>
      </trkpt>
      <trkpt lat="41.581675000" lon="1.874245000">
        <ele>420.00</ele>
        <time>2011-04-05T12:24:32Z</time>
      </trkpt>
      <trkpt lat="41.581903000" lon="1.874182000">
        <ele>419.50</ele>
        <time>2011-04-05T12:24:41Z</time>
      </trkpt>
      <trkpt lat="41.581928000" lon="1.874157000">
        <ele>422.00</ele>
        <time>2011-04-05T12:24:44Z</time>
      </trkpt>
      <trkpt lat="41.581968000" lon="1.874120000">
        <ele>422.00</ele>
        <time>2011-04-05T12:24:46Z</time>
      </trkpt>
      <trkpt lat="41.582067000" lon="1.874098000">
        <ele>418.50</ele>
        <time>2011-04-05T12:24:51Z</time>
      </trkpt>
      <trkpt lat="41.582202000" lon="1.874033000">
        <ele>417.50</ele>
        <time>2011-04-05T12:25:00Z</time>
      </trkpt>
      <trkpt lat="41.582308000" lon="1.873962000">
        <ele>418.50</ele>
        <time>2011-04-05T12:25:07Z</time>
      </trkpt>
      <trkpt lat="41.582462000" lon="1.873767000">
        <ele>420.00</ele>
        <time>2011-04-05T12:25:21Z</time>
      </trkpt>
      <trkpt lat="41.582507000" lon="1.873642000">
        <ele>423.00</ele>
        <time>2011-04-05T12:25:28Z</time>
      </trkpt>
      <trkpt lat="41.582563000" lon="1.873485000">
        <ele>422.00</ele>
        <time>2011-04-05T12:25:35Z</time>
      </trkpt>
      <trkpt lat="41.582672000" lon="1.873380000">
        <ele>421.50</ele>
        <time>2011-04-05T12:25:42Z</time>
      </trkpt>
      <trkpt lat="41.582722000" lon="1.873345000">
        <ele>422.00</ele>
        <time>2011-04-05T12:25:45Z</time>
      </trkpt>
      <trkpt lat="41.582982000" lon="1.873232000">
        <ele>425.00</ele>
        <time>2011-04-05T12:25:56Z</time>
      </trkpt>
      <trkpt lat="41.583217000" lon="1.873200000">
        <ele>425.50</ele>
        <time>2011-04-05T12:26:04Z</time>
      </trkpt>
      <trkpt lat="41.583247000" lon="1.873123000">
        <ele>425.50</ele>
        <time>2011-04-05T12:26:06Z</time>
      </trkpt>
      <trkpt lat="41.583247000" lon="1.873003000">
        <ele>428.50</ele>
        <time>2011-04-05T12:26:11Z</time>
      </trkpt>
      <trkpt lat="41.583247000" lon="1.872963000">
        <ele>428.50</ele>
        <time>2011-04-05T12:26:13Z</time>
      </trkpt>
      <trkpt lat="41.583300000" lon="1.872882000">
        <ele>426.00</ele>
        <time>2011-04-05T12:26:18Z</time>
      </trkpt>
      <trkpt lat="41.583480000" lon="1.872615000">
        <ele>429.50</ele>
        <time>2011-04-05T12:26:37Z</time>
      </trkpt>
      <trkpt lat="41.583503000" lon="1.872588000">
        <ele>431.50</ele>
        <time>2011-04-05T12:26:41Z</time>
      </trkpt>
      <trkpt lat="41.583590000" lon="1.872570000">
        <ele>432.50</ele>
        <time>2011-04-05T12:26:46Z</time>
      </trkpt>
      <trkpt lat="41.583737000" lon="1.872580000">
        <ele>432.50</ele>
        <time>2011-04-05T12:26:53Z</time>
      </trkpt>
      <trkpt lat="41.583822000" lon="1.872655000">
        <ele>432.50</ele>
        <time>2011-04-05T12:26:58Z</time>
      </trkpt>
      <trkpt lat="41.584023000" lon="1.872730000">
        <ele>429.50</ele>
        <time>2011-04-05T12:27:05Z</time>
      </trkpt>
      <trkpt lat="41.584267000" lon="1.872577000">
        <ele>431.00</ele>
        <time>2011-04-05T12:27:14Z</time>
      </trkpt>
      <trkpt lat="41.584315000" lon="1.872557000">
        <ele>432.50</ele>
        <time>2011-04-05T12:27:16Z</time>
      </trkpt>
      <trkpt lat="41.584667000" lon="1.872425000">
        <ele>432.00</ele>
        <time>2011-04-05T12:27:31Z</time>
      </trkpt>
      <trkpt lat="41.584765000" lon="1.872355000">
        <ele>432.00</ele>
        <time>2011-04-05T12:27:37Z</time>
      </trkpt>
      <trkpt lat="41.584810000" lon="1.872308000">
        <ele>433.00</ele>
        <time>2011-04-05T12:27:40Z</time>
      </trkpt>
      <trkpt lat="41.584825000" lon="1.872287000">
        <ele>435.50</ele>
        <time>2011-04-05T12:27:42Z</time>
      </trkpt>
      <trkpt lat="41.584907000" lon="1.872230000">
        <ele>438.50</ele>
        <time>2011-04-05T12:27:49Z</time>
      </trkpt>
      <trkpt lat="41.584967000" lon="1.872230000">
        <ele>440.50</ele>
        <time>2011-04-05T12:27:54Z</time>
      </trkpt>
      <trkpt lat="41.584970000" lon="1.872225000">
        <ele>442.50</ele>
        <time>2011-04-05T12:27:54Z</time>
      </trkpt>
      <trkpt lat="41.585012000" lon="1.872228000">
        <ele>445.00</ele>
        <time>2011-04-05T12:27:58Z</time>
      </trkpt>
      <trkpt lat="41.585055000" lon="1.872260000">
        <ele>444.00</ele>
        <time>2011-04-05T12:28:01Z</time>
      </trkpt>
      <trkpt lat="41.585113000" lon="1.872302000">
        <ele>447.00</ele>
        <time>2011-04-05T12:28:08Z</time>
      </trkpt>
      <trkpt lat="41.585137000" lon="1.872317000">
        <ele>447.00</ele>
        <time>2011-04-05T12:28:10Z</time>
      </trkpt>
      <trkpt lat="41.585273000" lon="1.872475000">
        <ele>448.50</ele>
        <time>2011-04-05T12:28:24Z</time>
      </trkpt>
      <trkpt lat="41.585288000" lon="1.872487000">
        <ele>450.50</ele>
        <time>2011-04-05T12:28:27Z</time>
      </trkpt>
      <trkpt lat="41.585332000" lon="1.872563000">
        <ele>452.50</ele>
        <time>2011-04-05T12:28:32Z</time>
      </trkpt>
      <trkpt lat="41.585335000" lon="1.872615000">
        <ele>452.00</ele>
        <time>2011-04-05T12:28:36Z</time>
      </trkpt>
      <trkpt lat="41.585295000" lon="1.872648000">
        <ele>452.00</ele>
        <time>2011-04-05T12:28:39Z</time>
      </trkpt>
      <trkpt lat="41.585215000" lon="1.872680000">
        <ele>454.00</ele>
        <time>2011-04-05T12:28:46Z</time>
      </trkpt>
      <trkpt lat="41.585130000" lon="1.872737000">
        <ele>447.50</ele>
        <time>2011-04-05T12:28:55Z</time>
      </trkpt>
      <trkpt lat="41.585092000" lon="1.872755000">
        <ele>449.00</ele>
        <time>2011-04-05T12:28:57Z</time>
      </trkpt>
      <trkpt lat="41.585040000" lon="1.872800000">
        <ele>446.50</ele>
        <time>2011-04-05T12:29:02Z</time>
      </trkpt>
      <trkpt lat="41.584988000" lon="1.872863000">
        <ele>447.50</ele>
        <time>2011-04-05T12:29:07Z</time>
      </trkpt>
      <trkpt lat="41.584938000" lon="1.872912000">
        <ele>446.00</ele>
        <time>2011-04-05T12:29:12Z</time>
      </trkpt>
      <trkpt lat="41.584842000" lon="1.873002000">
        <ele>450.00</ele>
        <time>2011-04-05T12:29:21Z</time>
      </trkpt>
      <trkpt lat="41.584820000" lon="1.873022000">
        <ele>450.00</ele>
        <time>2011-04-05T12:29:23Z</time>
      </trkpt>
      <trkpt lat="41.584748000" lon="1.873143000">
        <ele>450.50</ele>
        <time>2011-04-05T12:29:33Z</time>
      </trkpt>
      <trkpt lat="41.584685000" lon="1.873240000">
        <ele>455.00</ele>
        <time>2011-04-05T12:29:42Z</time>
      </trkpt>
      <trkpt lat="41.584647000" lon="1.873280000">
        <ele>454.50</ele>
        <time>2011-04-05T12:29:44Z</time>
      </trkpt>
      <trkpt lat="41.584647000" lon="1.873342000">
        <ele>457.00</ele>
        <time>2011-04-05T12:29:49Z</time>
      </trkpt>
      <trkpt lat="41.584667000" lon="1.873353000">
        <ele>457.00</ele>
        <time>2011-04-05T12:29:51Z</time>
      </trkpt>
      <trkpt lat="41.584752000" lon="1.873330000">
        <ele>456.00</ele>
        <time>2011-04-05T12:29:58Z</time>
      </trkpt>
      <trkpt lat="41.584805000" lon="1.873268000">
        <ele>457.50</ele>
        <time>2011-04-05T12:30:05Z</time>
      </trkpt>
      <trkpt lat="41.584903000" lon="1.873175000">
        <ele>464.50</ele>
        <time>2011-04-05T12:30:15Z</time>
      </trkpt>
      <trkpt lat="41.584953000" lon="1.873163000">
        <ele>465.00</ele>
        <time>2011-04-05T12:30:19Z</time>
      </trkpt>
      <trkpt lat="41.584977000" lon="1.873162000">
        <ele>466.00</ele>
        <time>2011-04-05T12:30:22Z</time>
      </trkpt>
      <trkpt lat="41.585085000" lon="1.873225000">
        <ele>471.50</ele>
        <time>2011-04-05T12:30:31Z</time>
      </trkpt>
      <trkpt lat="41.585230000" lon="1.873342000">
        <ele>471.00</ele>
        <time>2011-04-05T12:30:41Z</time>
      </trkpt>
      <trkpt lat="41.585282000" lon="1.873368000">
        <ele>472.50</ele>
        <time>2011-04-05T12:30:45Z</time>
      </trkpt>
      <trkpt lat="41.585353000" lon="1.873368000">
        <ele>474.50</ele>
        <time>2011-04-05T12:30:52Z</time>
      </trkpt>
      <trkpt lat="41.585582000" lon="1.873395000">
        <ele>475.50</ele>
        <time>2011-04-05T12:31:04Z</time>
      </trkpt>
      <trkpt lat="41.585613000" lon="1.873418000">
        <ele>473.00</ele>
        <time>2011-04-05T12:31:06Z</time>
      </trkpt>
      <trkpt lat="41.585737000" lon="1.873445000">
        <ele>473.50</ele>
        <time>2011-04-05T12:31:11Z</time>
      </trkpt>
      <trkpt lat="41.585892000" lon="1.873438000">
        <ele>471.50</ele>
        <time>2011-04-05T12:31:16Z</time>
      </trkpt>
      <trkpt lat="41.585960000" lon="1.873387000">
        <ele>471.50</ele>
        <time>2011-04-05T12:31:18Z</time>
      </trkpt>
      <trkpt lat="41.585963000" lon="1.873357000">
        <ele>469.50</ele>
        <time>2011-04-05T12:31:20Z</time>
      </trkpt>
      <trkpt lat="41.585963000" lon="1.873265000">
        <ele>469.00</ele>
        <time>2011-04-05T12:31:23Z</time>
      </trkpt>
      <trkpt lat="41.585960000" lon="1.873098000">
        <ele>471.50</ele>
        <time>2011-04-05T12:31:32Z</time>
      </trkpt>
      <trkpt lat="41.586025000" lon="1.873045000">
        <ele>473.00</ele>
        <time>2011-04-05T12:31:37Z</time>
      </trkpt>
      <trkpt lat="41.586058000" lon="1.872998000">
        <ele>475.50</ele>
        <time>2011-04-05T12:31:39Z</time>
      </trkpt>
      <trkpt lat="41.586078000" lon="1.872990000">
        <ele>474.50</ele>
        <time>2011-04-05T12:31:41Z</time>
      </trkpt>
      <trkpt lat="41.586220000" lon="1.872900000">
        <ele>476.50</ele>
        <time>2011-04-05T12:31:49Z</time>
      </trkpt>
      <trkpt lat="41.586340000" lon="1.872782000">
        <ele>480.50</ele>
        <time>2011-04-05T12:32:00Z</time>
      </trkpt>
      <trkpt lat="41.586357000" lon="1.872778000">
        <ele>481.00</ele>
        <time>2011-04-05T12:32:00Z</time>
      </trkpt>
      <trkpt lat="41.586603000" lon="1.872717000">
        <ele>484.00</ele>
        <time>2011-04-05T12:32:17Z</time>
      </trkpt>
      <trkpt lat="41.586688000" lon="1.872678000">
        <ele>488.00</ele>
        <time>2011-04-05T12:32:24Z</time>
      </trkpt>
      <trkpt lat="41.586802000" lon="1.872640000">
        <ele>490.00</ele>
        <time>2011-04-05T12:32:31Z</time>
      </trkpt>
      <trkpt lat="41.586887000" lon="1.872610000">
        <ele>494.00</ele>
        <time>2011-04-05T12:32:38Z</time>
      </trkpt>
      <trkpt lat="41.586930000" lon="1.872620000">
        <ele>495.50</ele>
        <time>2011-04-05T12:32:42Z</time>
      </trkpt>
      <trkpt lat="41.587007000" lon="1.872743000">
        <ele>497.00</ele>
        <time>2011-04-05T12:32:50Z</time>
      </trkpt>
      <trkpt lat="41.587068000" lon="1.872878000">
        <ele>500.50</ele>
        <time>2011-04-05T12:32:59Z</time>
      </trkpt>
      <trkpt lat="41.587170000" lon="1.873005000">
        <ele>499.00</ele>
        <time>2011-04-05T12:33:09Z</time>
      </trkpt>
      <trkpt lat="41.587212000" lon="1.873022000">
        <ele>498.50</ele>
        <time>2011-04-05T12:33:11Z</time>
      </trkpt>
      <trkpt lat="41.587348000" lon="1.873078000">
        <ele>504.00</ele>
        <time>2011-04-05T12:33:23Z</time>
      </trkpt>
      <trkpt lat="41.587442000" lon="1.873122000">
        <ele>505.00</ele>
        <time>2011-04-05T12:33:29Z</time>
      </trkpt>
      <trkpt lat="41.587528000" lon="1.873050000">
        <ele>505.50</ele>
        <time>2011-04-05T12:33:34Z</time>
      </trkpt>
      <trkpt lat="41.587555000" lon="1.873007000">
        <ele>507.50</ele>
        <time>2011-04-05T12:33:37Z</time>
      </trkpt>
      <trkpt lat="41.587582000" lon="1.872997000">
        <ele>508.00</ele>
        <time>2011-04-05T12:33:41Z</time>
      </trkpt>
      <trkpt lat="41.587658000" lon="1.873083000">
        <ele>509.00</ele>
        <time>2011-04-05T12:33:48Z</time>
      </trkpt>
      <trkpt lat="41.587743000" lon="1.873217000">
        <ele>506.50</ele>
        <time>2011-04-05T12:33:55Z</time>
      </trkpt>
      <trkpt lat="41.587815000" lon="1.873247000">
        <ele>505.50</ele>
        <time>2011-04-05T12:34:07Z</time>
      </trkpt>
      <trkpt lat="41.587890000" lon="1.873217000">
        <ele>509.00</ele>
        <time>2011-04-05T12:34:26Z</time>
      </trkpt>
      <trkpt lat="41.587897000" lon="1.873263000">
        <ele>511.00</ele>
        <time>2011-04-05T12:34:33Z</time>
      </trkpt>
      <trkpt lat="41.587903000" lon="1.873268000">
        <ele>512.50</ele>
        <time>2011-04-05T12:34:33Z</time>
      </trkpt>
      <trkpt lat="41.587892000" lon="1.873288000">
        <ele>512.00</ele>
        <time>2011-04-05T12:34:40Z</time>
      </trkpt>
      <trkpt lat="41.587895000" lon="1.873295000">
        <ele>510.00</ele>
        <time>2011-04-05T12:34:43Z</time>
      </trkpt>
      <trkpt lat="41.587907000" lon="1.873322000">
        <ele>511.50</ele>
        <time>2011-04-05T12:34:57Z</time>
      </trkpt>
      <trkpt lat="41.587840000" lon="1.873315000">
        <ele>511.00</ele>
        <time>2011-04-05T12:35:25Z</time>
      </trkpt>
      <trkpt lat="41.587842000" lon="1.873318000">
        <ele>508.00</ele>
        <time>2011-04-05T12:35:32Z</time>
      </trkpt>
      <trkpt lat="41.587858000" lon="1.873342000">
        <ele>507.00</ele>
        <time>2011-04-05T12:35:43Z</time>
      </trkpt>
      <trkpt lat="41.587862000" lon="1.873340000">
        <ele>506.00</ele>
        <time>2011-04-05T12:35:44Z</time>
      </trkpt>
      <trkpt lat="41.587872000" lon="1.873323000">
        <ele>508.00</ele>
        <time>2011-04-05T12:35:48Z</time>
      </trkpt>
      <trkpt lat="41.587898000" lon="1.873300000">
        <ele>507.50</ele>
        <time>2011-04-05T12:35:57Z</time>
      </trkpt>
      <trkpt lat="41.587890000" lon="1.873292000">
        <ele>509.00</ele>
        <time>2011-04-05T12:36:02Z</time>
      </trkpt>
      <trkpt lat="41.587895000" lon="1.873303000">
        <ele>504.50</ele>
        <time>2011-04-05T12:36:14Z</time>
      </trkpt>
      <trkpt lat="41.587897000" lon="1.873302000">
        <ele>505.00</ele>
        <time>2011-04-05T12:36:19Z</time>
      </trkpt>
      <trkpt lat="41.587897000" lon="1.873303000">
        <ele>501.50</ele>
        <time>2011-04-05T12:36:37Z</time>
      </trkpt>
      <trkpt lat="41.587895000" lon="1.873315000">
        <ele>502.50</ele>
        <time>2011-04-05T12:36:58Z</time>
      </trkpt>
      <trkpt lat="41.587892000" lon="1.873310000">
        <ele>497.00</ele>
        <time>2011-04-05T12:37:53Z</time>
      </trkpt>
      <trkpt lat="41.587885000" lon="1.873293000">
        <ele>500.50</ele>
        <time>2011-04-05T12:38:02Z</time>
      </trkpt>
      <trkpt lat="41.587905000" lon="1.873292000">
        <ele>503.00</ele>
        <time>2011-04-05T12:38:30Z</time>
      </trkpt>
      <trkpt lat="41.587973000" lon="1.873245000">
        <ele>504.00</ele>
        <time>2011-04-05T12:38:37Z</time>
      </trkpt>
      <trkpt lat="41.588152000" lon="1.873133000">
        <ele>513.00</ele>
        <time>2011-04-05T12:38:51Z</time>
      </trkpt>
      <trkpt lat="41.588190000" lon="1.873085000">
        <ele>513.00</ele>
        <time>2011-04-05T12:38:56Z</time>
      </trkpt>
      <trkpt lat="41.588263000" lon="1.872778000">
        <ele>516.00</ele>
        <time>2011-04-05T12:39:12Z</time>
      </trkpt>
      <trkpt lat="41.588318000" lon="1.872595000">
        <ele>514.50</ele>
        <time>2011-04-05T12:39:19Z</time>
      </trkpt>
      <trkpt lat="41.588430000" lon="1.872058000">
        <ele>518.50</ele>
        <time>2011-04-05T12:39:36Z</time>
      </trkpt>
      <trkpt lat="41.588435000" lon="1.872017000">
        <ele>518.00</ele>
        <time>2011-04-05T12:39:38Z</time>
      </trkpt>
      <trkpt lat="41.588337000" lon="1.871733000">
        <ele>518.50</ele>
        <time>2011-04-05T12:39:45Z</time>
      </trkpt>
      <trkpt lat="41.588315000" lon="1.871672000">
        <ele>518.00</ele>
        <time>2011-04-05T12:39:48Z</time>
      </trkpt>
      <trkpt lat="41.588333000" lon="1.871452000">
        <ele>515.00</ele>
        <time>2011-04-05T12:39:52Z</time>
      </trkpt>
      <trkpt lat="41.588315000" lon="1.871333000">
        <ele>515.00</ele>
        <time>2011-04-05T12:39:55Z</time>
      </trkpt>
      <trkpt lat="41.588222000" lon="1.871293000">
        <ele>515.50</ele>
        <time>2011-04-05T12:39:59Z</time>
      </trkpt>
      <trkpt lat="41.588105000" lon="1.871297000">
        <ele>513.00</ele>
        <time>2011-04-05T12:40:04Z</time>
      </trkpt>
      <trkpt lat="41.587970000" lon="1.871272000">
        <ele>512.00</ele>
        <time>2011-04-05T12:40:09Z</time>
      </trkpt>
      <trkpt lat="41.587765000" lon="1.871088000">
        <ele>510.00</ele>
        <time>2011-04-05T12:40:21Z</time>
      </trkpt>
      <trkpt lat="41.587710000" lon="1.871065000">
        <ele>510.00</ele>
        <time>2011-04-05T12:40:23Z</time>
      </trkpt>
      <trkpt lat="41.587498000" lon="1.871017000">
        <ele>513.00</ele>
        <time>2011-04-05T12:40:32Z</time>
      </trkpt>
      <trkpt lat="41.587250000" lon="1.870910000">
        <ele>514.00</ele>
        <time>2011-04-05T12:40:44Z</time>
      </trkpt>
      <trkpt lat="41.586983000" lon="1.870685000">
        <ele>515.00</ele>
        <time>2011-04-05T12:40:58Z</time>
      </trkpt>
      <trkpt lat="41.586865000" lon="1.870672000">
        <ele>515.50</ele>
        <time>2011-04-05T12:41:03Z</time>
      </trkpt>
      <trkpt lat="41.586653000" lon="1.870593000">
        <ele>519.50</ele>
        <time>2011-04-05T12:41:12Z</time>
      </trkpt>
      <trkpt lat="41.586450000" lon="1.870530000">
        <ele>519.50</ele>
        <time>2011-04-05T12:41:24Z</time>
      </trkpt>
      <trkpt lat="41.586313000" lon="1.870543000">
        <ele>519.50</ele>
        <time>2011-04-05T12:41:31Z</time>
      </trkpt>
      <trkpt lat="41.585990000" lon="1.870510000">
        <ele>521.50</ele>
        <time>2011-04-05T12:41:47Z</time>
      </trkpt>
      <trkpt lat="41.585865000" lon="1.870527000">
        <ele>523.50</ele>
        <time>2011-04-05T12:41:54Z</time>
      </trkpt>
      <trkpt lat="41.585787000" lon="1.870500000">
        <ele>526.00</ele>
        <time>2011-04-05T12:41:59Z</time>
      </trkpt>
      <trkpt lat="41.585230000" lon="1.870268000">
        <ele>531.50</ele>
        <time>2011-04-05T12:42:30Z</time>
      </trkpt>
      <trkpt lat="41.584945000" lon="1.869955000">
        <ele>534.00</ele>
        <time>2011-04-05T12:42:46Z</time>
      </trkpt>
      <trkpt lat="41.584918000" lon="1.869888000">
        <ele>534.00</ele>
        <time>2011-04-05T12:42:49Z</time>
      </trkpt>
      <trkpt lat="41.584868000" lon="1.869558000">
        <ele>530.50</ele>
        <time>2011-04-05T12:42:55Z</time>
      </trkpt>
      <trkpt lat="41.584567000" lon="1.868435000">
        <ele>527.50</ele>
        <time>2011-04-05T12:43:10Z</time>
      </trkpt>
      <trkpt lat="41.584562000" lon="1.868367000">
        <ele>527.50</ele>
        <time>2011-04-05T12:43:10Z</time>
      </trkpt>
      <trkpt lat="41.584593000" lon="1.868258000">
        <ele>528.00</ele>
        <time>2011-04-05T12:43:12Z</time>
      </trkpt>
      <trkpt lat="41.584640000" lon="1.868227000">
        <ele>530.00</ele>
        <time>2011-04-05T12:43:16Z</time>
      </trkpt>
      <trkpt lat="41.584687000" lon="1.868272000">
        <ele>531.50</ele>
        <time>2011-04-05T12:43:21Z</time>
      </trkpt>
      <trkpt lat="41.584742000" lon="1.868497000">
        <ele>539.50</ele>
        <time>2011-04-05T12:43:36Z</time>
      </trkpt>
      <trkpt lat="41.585098000" lon="1.869230000">
        <ele>547.50</ele>
        <time>2011-04-05T12:43:59Z</time>
      </trkpt>
      <trkpt lat="41.585128000" lon="1.869282000">
        <ele>547.50</ele>
        <time>2011-04-05T12:43:59Z</time>
      </trkpt>
      <trkpt lat="41.585388000" lon="1.869643000">
        <ele>550.00</ele>
        <time>2011-04-05T12:44:10Z</time>
      </trkpt>
      <trkpt lat="41.585518000" lon="1.869725000">
        <ele>552.50</ele>
        <time>2011-04-05T12:44:15Z</time>
      </trkpt>
      <trkpt lat="41.585605000" lon="1.869697000">
        <ele>555.00</ele>
        <time>2011-04-05T12:44:20Z</time>
      </trkpt>
      <trkpt lat="41.585775000" lon="1.869518000">
        <ele>557.00</ele>
        <time>2011-04-05T12:44:34Z</time>
      </trkpt>
      <trkpt lat="41.585823000" lon="1.869487000">
        <ele>557.00</ele>
        <time>2011-04-05T12:44:37Z</time>
      </trkpt>
      <trkpt lat="41.585873000" lon="1.869478000">
        <ele>555.50</ele>
        <time>2011-04-05T12:44:41Z</time>
      </trkpt>
      <trkpt lat="41.586350000" lon="1.869402000">
        <ele>555.50</ele>
        <time>2011-04-05T12:45:00Z</time>
      </trkpt>
      <trkpt lat="41.586418000" lon="1.869418000">
        <ele>555.00</ele>
        <time>2011-04-05T12:45:04Z</time>
      </trkpt>
      <trkpt lat="41.586682000" lon="1.869610000">
        <ele>553.00</ele>
        <time>2011-04-05T12:45:14Z</time>
      </trkpt>
      <trkpt lat="41.586713000" lon="1.869627000">
        <ele>553.50</ele>
        <time>2011-04-05T12:45:14Z</time>
      </trkpt>
      <trkpt lat="41.587142000" lon="1.869815000">
        <ele>555.50</ele>
        <time>2011-04-05T12:45:30Z</time>
      </trkpt>
      <trkpt lat="41.587547000" lon="1.869942000">
        <ele>555.50</ele>
        <time>2011-04-05T12:45:44Z</time>
      </trkpt>
      <trkpt lat="41.587593000" lon="1.869963000">
        <ele>555.50</ele>
        <time>2011-04-05T12:45:45Z</time>
      </trkpt>
      <trkpt lat="41.587797000" lon="1.870082000">
        <ele>550.50</ele>
        <time>2011-04-05T12:45:56Z</time>
      </trkpt>
      <trkpt lat="41.587977000" lon="1.870192000">
        <ele>550.50</ele>
        <time>2011-04-05T12:46:05Z</time>
      </trkpt>
      <trkpt lat="41.588015000" lon="1.870208000">
        <ele>549.50</ele>
        <time>2011-04-05T12:46:06Z</time>
      </trkpt>
      <trkpt lat="41.588232000" lon="1.870193000">
        <ele>545.50</ele>
        <time>2011-04-05T12:46:17Z</time>
      </trkpt>
      <trkpt lat="41.588437000" lon="1.870208000">
        <ele>545.00</ele>
        <time>2011-04-05T12:46:27Z</time>
      </trkpt>
      <trkpt lat="41.588500000" lon="1.870235000">
        <ele>546.50</ele>
        <time>2011-04-05T12:46:31Z</time>
      </trkpt>
      <trkpt lat="41.588678000" lon="1.870417000">
        <ele>543.50</ele>
        <time>2011-04-05T12:46:38Z</time>
      </trkpt>
      <trkpt lat="41.588735000" lon="1.870473000">
        <ele>540.50</ele>
        <time>2011-04-05T12:46:41Z</time>
      </trkpt>
      <trkpt lat="41.588833000" lon="1.870565000">
        <ele>540.50</ele>
        <time>2011-04-05T12:46:46Z</time>
      </trkpt>
      <trkpt lat="41.589023000" lon="1.870717000">
        <ele>533.00</ele>
        <time>2011-04-05T12:46:57Z</time>
      </trkpt>
      <trkpt lat="41.589298000" lon="1.871045000">
        <ele>534.50</ele>
        <time>2011-04-05T12:47:18Z</time>
      </trkpt>
      <trkpt lat="41.589360000" lon="1.871017000">
        <ele>534.50</ele>
        <time>2011-04-05T12:47:21Z</time>
      </trkpt>
      <trkpt lat="41.589397000" lon="1.870953000">
        <ele>533.50</ele>
        <time>2011-04-05T12:47:25Z</time>
      </trkpt>
      <trkpt lat="41.589485000" lon="1.870617000">
        <ele>529.00</ele>
        <time>2011-04-05T12:47:37Z</time>
      </trkpt>
      <trkpt lat="41.589598000" lon="1.870188000">
        <ele>527.00</ele>
        <time>2011-04-05T12:47:47Z</time>
      </trkpt>
      <trkpt lat="41.589622000" lon="1.870150000">
        <ele>526.50</ele>
        <time>2011-04-05T12:47:49Z</time>
      </trkpt>
      <trkpt lat="41.589715000" lon="1.870085000">
        <ele>527.00</ele>
        <time>2011-04-05T12:47:53Z</time>
      </trkpt>
      <trkpt lat="41.589748000" lon="1.870103000">
        <ele>528.50</ele>
        <time>2011-04-05T12:47:54Z</time>
      </trkpt>
      <trkpt lat="41.589820000" lon="1.870143000">
        <ele>527.50</ele>
        <time>2011-04-05T12:47:56Z</time>
      </trkpt>
      <trkpt lat="41.589988000" lon="1.870312000">
        <ele>523.00</ele>
        <time>2011-04-05T12:48:01Z</time>
      </trkpt>
      <trkpt lat="41.589998000" lon="1.870352000">
        <ele>523.00</ele>
        <time>2011-04-05T12:48:01Z</time>
      </trkpt>
      <trkpt lat="41.590080000" lon="1.870668000">
        <ele>515.00</ele>
        <time>2011-04-05T12:48:08Z</time>
      </trkpt>
      <trkpt lat="41.590203000" lon="1.870883000">
        <ele>511.00</ele>
        <time>2011-04-05T12:48:12Z</time>
      </trkpt>
      <trkpt lat="41.590297000" lon="1.870963000">
        <ele>508.50</ele>
        <time>2011-04-05T12:48:13Z</time>
      </trkpt>
      <trkpt lat="41.590447000" lon="1.871068000">
        <ele>507.00</ele>
        <time>2011-04-05T12:48:17Z</time>
      </trkpt>
      <trkpt lat="41.590795000" lon="1.871190000">
        <ele>499.50</ele>
        <time>2011-04-05T12:48:24Z</time>
      </trkpt>
      <trkpt lat="41.591320000" lon="1.871538000">
        <ele>493.00</ele>
        <time>2011-04-05T12:48:34Z</time>
      </trkpt>
      <trkpt lat="41.591437000" lon="1.871600000">
        <ele>492.50</ele>
        <time>2011-04-05T12:48:36Z</time>
      </trkpt>
      <trkpt lat="41.591537000" lon="1.871705000">
        <ele>492.50</ele>
        <time>2011-04-05T12:48:38Z</time>
      </trkpt>
      <trkpt lat="41.591998000" lon="1.872378000">
        <ele>484.50</ele>
        <time>2011-04-05T12:48:48Z</time>
      </trkpt>
      <trkpt lat="41.592057000" lon="1.872450000">
        <ele>484.00</ele>
        <time>2011-04-05T12:48:50Z</time>
      </trkpt>
      <trkpt lat="41.592612000" lon="1.873015000">
        <ele>480.00</ele>
        <time>2011-04-05T12:48:59Z</time>
      </trkpt>
      <trkpt lat="41.592665000" lon="1.873068000">
        <ele>480.00</ele>
        <time>2011-04-05T12:48:59Z</time>
      </trkpt>
      <trkpt lat="41.592722000" lon="1.873070000">
        <ele>481.00</ele>
        <time>2011-04-05T12:49:00Z</time>
      </trkpt>
      <trkpt lat="41.592765000" lon="1.873053000">
        <ele>480.00</ele>
        <time>2011-04-05T12:49:02Z</time>
      </trkpt>
      <trkpt lat="41.592788000" lon="1.873020000">
        <ele>478.00</ele>
        <time>2011-04-05T12:49:02Z</time>
      </trkpt>
      <trkpt lat="41.593080000" lon="1.872738000">
        <ele>479.50</ele>
        <time>2011-04-05T12:49:13Z</time>
      </trkpt>
      <trkpt lat="41.593113000" lon="1.872708000">
        <ele>479.00</ele>
        <time>2011-04-05T12:49:13Z</time>
      </trkpt>
      <trkpt lat="41.593302000" lon="1.872430000">
        <ele>477.00</ele>
        <time>2011-04-05T12:49:21Z</time>
      </trkpt>
      <trkpt lat="41.593353000" lon="1.872417000">
        <ele>476.50</ele>
        <time>2011-04-05T12:49:21Z</time>
      </trkpt>
      <trkpt lat="41.593460000" lon="1.872437000">
        <ele>477.00</ele>
        <time>2011-04-05T12:49:23Z</time>
      </trkpt>
      <trkpt lat="41.593838000" lon="1.872630000">
        <ele>476.50</ele>
        <time>2011-04-05T12:49:32Z</time>
      </trkpt>
      <trkpt lat="41.593870000" lon="1.872653000">
        <ele>476.00</ele>
        <time>2011-04-05T12:49:32Z</time>
      </trkpt>
      <trkpt lat="41.593953000" lon="1.872807000">
        <ele>475.00</ele>
        <time>2011-04-05T12:49:37Z</time>
      </trkpt>
      <trkpt lat="41.593972000" lon="1.873328000">
        <ele>468.50</ele>
        <time>2011-04-05T12:49:44Z</time>
      </trkpt>
      <trkpt lat="41.594107000" lon="1.873555000">
        <ele>468.50</ele>
        <time>2011-04-05T12:49:47Z</time>
      </trkpt>
      <trkpt lat="41.594180000" lon="1.873653000">
        <ele>467.00</ele>
        <time>2011-04-05T12:49:49Z</time>
      </trkpt>
      <trkpt lat="41.594288000" lon="1.874040000">
        <ele>461.50</ele>
        <time>2011-04-05T12:49:54Z</time>
      </trkpt>
      <trkpt lat="41.594342000" lon="1.874108000">
        <ele>459.50</ele>
        <time>2011-04-05T12:49:56Z</time>
      </trkpt>
      <trkpt lat="41.594492000" lon="1.874262000">
        <ele>460.50</ele>
        <time>2011-04-05T12:49:58Z</time>
      </trkpt>
      <trkpt lat="41.594542000" lon="1.874280000">
        <ele>459.00</ele>
        <time>2011-04-05T12:50:00Z</time>
      </trkpt>
      <trkpt lat="41.594930000" lon="1.874403000">
        <ele>458.00</ele>
        <time>2011-04-05T12:50:10Z</time>
      </trkpt>
      <trkpt lat="41.595005000" lon="1.874447000">
        <ele>459.00</ele>
        <time>2011-04-05T12:50:12Z</time>
      </trkpt>
      <trkpt lat="41.595217000" lon="1.874695000">
        <ele>462.50</ele>
        <time>2011-04-05T12:50:22Z</time>
      </trkpt>
      <trkpt lat="41.595238000" lon="1.874705000">
        <ele>462.50</ele>
        <time>2011-04-05T12:50:22Z</time>
      </trkpt>
      <trkpt lat="41.595553000" lon="1.874767000">
        <ele>461.00</ele>
        <time>2011-04-05T12:50:31Z</time>
      </trkpt>
      <trkpt lat="41.595725000" lon="1.874742000">
        <ele>459.50</ele>
        <time>2011-04-05T12:50:35Z</time>
      </trkpt>
      <trkpt lat="41.595975000" lon="1.874473000">
        <ele>456.50</ele>
        <time>2011-04-05T12:50:40Z</time>
      </trkpt>
      <trkpt lat="41.596058000" lon="1.874325000">
        <ele>454.00</ele>
        <time>2011-04-05T12:50:43Z</time>
      </trkpt>
      <trkpt lat="41.596237000" lon="1.874255000">
        <ele>450.50</ele>
        <time>2011-04-05T12:50:45Z</time>
      </trkpt>
      <trkpt lat="41.596763000" lon="1.874220000">
        <ele>446.00</ele>
        <time>2011-04-05T12:50:52Z</time>
      </trkpt>
      <trkpt lat="41.597078000" lon="1.874317000">
        <ele>438.50</ele>
        <time>2011-04-05T12:50:59Z</time>
      </trkpt>
      <trkpt lat="41.597192000" lon="1.874280000">
        <ele>437.00</ele>
        <time>2011-04-05T12:51:01Z</time>
      </trkpt>
      <trkpt lat="41.597325000" lon="1.874167000">
        <ele>434.00</ele>
        <time>2011-04-05T12:51:04Z</time>
      </trkpt>
      <trkpt lat="41.597502000" lon="1.874018000">
        <ele>433.00</ele>
        <time>2011-04-05T12:51:09Z</time>
      </trkpt>
      <trkpt lat="41.597615000" lon="1.873942000">
        <ele>430.50</ele>
        <time>2011-04-05T12:51:11Z</time>
      </trkpt>
      <trkpt lat="41.597735000" lon="1.873727000">
        <ele>427.00</ele>
        <time>2011-04-05T12:51:16Z</time>
      </trkpt>
      <trkpt lat="41.598187000" lon="1.873038000">
        <ele>422.50</ele>
        <time>2011-04-05T12:51:25Z</time>
      </trkpt>
      <trkpt lat="41.598245000" lon="1.872987000">
        <ele>422.50</ele>
        <time>2011-04-05T12:51:25Z</time>
      </trkpt>
      <trkpt lat="41.598970000" lon="1.872428000">
        <ele>415.00</ele>
        <time>2011-04-05T12:51:37Z</time>
      </trkpt>
      <trkpt lat="41.599072000" lon="1.872442000">
        <ele>416.50</ele>
        <time>2011-04-05T12:51:39Z</time>
      </trkpt>
      <trkpt lat="41.599123000" lon="1.872477000">
        <ele>414.50</ele>
        <time>2011-04-05T12:51:39Z</time>
      </trkpt>
      <trkpt lat="41.599415000" lon="1.872762000">
        <ele>411.50</ele>
        <time>2011-04-05T12:51:46Z</time>
      </trkpt>
      <trkpt lat="41.599770000" lon="1.872958000">
        <ele>410.00</ele>
        <time>2011-04-05T12:51:53Z</time>
      </trkpt>
      <trkpt lat="41.599843000" lon="1.873027000">
        <ele>409.50</ele>
        <time>2011-04-05T12:51:55Z</time>
      </trkpt>
      <trkpt lat="41.599963000" lon="1.873343000">
        <ele>405.50</ele>
        <time>2011-04-05T12:52:02Z</time>
      </trkpt>
      <trkpt lat="41.600022000" lon="1.873392000">
        <ele>404.50</ele>
        <time>2011-04-05T12:52:03Z</time>
      </trkpt>
      <trkpt lat="41.600143000" lon="1.873445000">
        <ele>401.00</ele>
        <time>2011-04-05T12:52:07Z</time>
      </trkpt>
      <trkpt lat="41.600230000" lon="1.873430000">
        <ele>399.50</ele>
        <time>2011-04-05T12:52:09Z</time>
      </trkpt>
      <trkpt lat="41.600427000" lon="1.873275000">
        <ele>397.00</ele>
        <time>2011-04-05T12:52:12Z</time>
      </trkpt>
      <trkpt lat="41.600862000" lon="1.872988000">
        <ele>394.50</ele>
        <time>2011-04-05T12:52:24Z</time>
      </trkpt>
      <trkpt lat="41.601202000" lon="1.873013000">
        <ele>392.50</ele>
        <time>2011-04-05T12:52:31Z</time>
      </trkpt>
      <trkpt lat="41.601590000" lon="1.873067000">
        <ele>395.00</ele>
        <time>2011-04-05T12:52:42Z</time>
      </trkpt>
      <trkpt lat="41.601880000" lon="1.873010000">
        <ele>391.50</ele>
        <time>2011-04-05T12:52:47Z</time>
      </trkpt>
      <trkpt lat="41.602323000" lon="1.872750000">
        <ele>387.50</ele>
        <time>2011-04-05T12:52:54Z</time>
      </trkpt>
      <trkpt lat="41.602437000" lon="1.872678000">
        <ele>390.00</ele>
        <time>2011-04-05T12:52:56Z</time>
      </trkpt>
      <trkpt lat="41.602677000" lon="1.872458000">
        <ele>384.00</ele>
        <time>2011-04-05T12:52:59Z</time>
      </trkpt>
      <trkpt lat="41.602853000" lon="1.872247000">
        <ele>383.00</ele>
        <time>2011-04-05T12:53:04Z</time>
      </trkpt>
      <trkpt lat="41.602900000" lon="1.872218000">
        <ele>381.00</ele>
        <time>2011-04-05T12:53:04Z</time>
      </trkpt>
      <trkpt lat="41.603070000" lon="1.872107000">
        <ele>384.50</ele>
        <time>2011-04-05T12:53:10Z</time>
      </trkpt>
      <trkpt lat="41.603145000" lon="1.872050000">
        <ele>384.00</ele>
        <time>2011-04-05T12:53:11Z</time>
      </trkpt>
      <trkpt lat="41.603288000" lon="1.871723000">
        <ele>381.00</ele>
        <time>2011-04-05T12:53:18Z</time>
      </trkpt>
      <trkpt lat="41.603407000" lon="1.871365000">
        <ele>381.50</ele>
        <time>2011-04-05T12:53:25Z</time>
      </trkpt>
      <trkpt lat="41.603533000" lon="1.871102000">
        <ele>379.50</ele>
        <time>2011-04-05T12:53:30Z</time>
      </trkpt>
      <trkpt lat="41.603678000" lon="1.871072000">
        <ele>378.00</ele>
        <time>2011-04-05T12:53:34Z</time>
      </trkpt>
      <trkpt lat="41.603712000" lon="1.871063000">
        <ele>379.00</ele>
        <time>2011-04-05T12:53:36Z</time>
      </trkpt>
      <trkpt lat="41.603848000" lon="1.871005000">
        <ele>375.50</ele>
        <time>2011-04-05T12:53:39Z</time>
      </trkpt>
      <trkpt lat="41.604037000" lon="1.870920000">
        <ele>376.50</ele>
        <time>2011-04-05T12:53:43Z</time>
      </trkpt>
      <trkpt lat="41.604358000" lon="1.871287000">
        <ele>372.50</ele>
        <time>2011-04-05T12:53:53Z</time>
      </trkpt>
      <trkpt lat="41.604382000" lon="1.871327000">
        <ele>370.00</ele>
        <time>2011-04-05T12:53:53Z</time>
      </trkpt>
      <trkpt lat="41.604483000" lon="1.871435000">
        <ele>368.50</ele>
        <time>2011-04-05T12:54:02Z</time>
      </trkpt>
      <trkpt lat="41.604478000" lon="1.871137000">
        <ele>365.00</ele>
        <time>2011-04-05T12:54:09Z</time>
      </trkpt>
      <trkpt lat="41.604543000" lon="1.871022000">
        <ele>368.00</ele>
        <time>2011-04-05T12:54:12Z</time>
      </trkpt>
      <trkpt lat="41.604597000" lon="1.870970000">
        <ele>368.50</ele>
        <time>2011-04-05T12:54:14Z</time>
      </trkpt>
      <trkpt lat="41.604830000" lon="1.871005000">
        <ele>379.50</ele>
        <time>2011-04-05T12:54:21Z</time>
      </trkpt>
      <trkpt lat="41.605010000" lon="1.870947000">
        <ele>383.50</ele>
        <time>2011-04-05T12:54:30Z</time>
      </trkpt>
      <trkpt lat="41.605095000" lon="1.870903000">
        <ele>384.50</ele>
        <time>2011-04-05T12:54:33Z</time>
      </trkpt>
      <trkpt lat="41.605133000" lon="1.870875000">
        <ele>385.00</ele>
        <time>2011-04-05T12:54:35Z</time>
      </trkpt>
      <trkpt lat="41.605230000" lon="1.870767000">
        <ele>383.50</ele>
        <time>2011-04-05T12:54:42Z</time>
      </trkpt>
      <trkpt lat="41.605255000" lon="1.870743000">
        <ele>384.50</ele>
        <time>2011-04-05T12:54:44Z</time>
      </trkpt>
      <trkpt lat="41.605668000" lon="1.870267000">
        <ele>380.00</ele>
        <time>2011-04-05T12:55:03Z</time>
      </trkpt>
      <trkpt lat="41.605677000" lon="1.870260000">
        <ele>380.50</ele>
        <time>2011-04-05T12:55:03Z</time>
      </trkpt>
      <trkpt lat="41.605682000" lon="1.870127000">
        <ele>381.50</ele>
        <time>2011-04-05T12:55:10Z</time>
      </trkpt>
      <trkpt lat="41.605642000" lon="1.870007000">
        <ele>389.50</ele>
        <time>2011-04-05T12:55:17Z</time>
      </trkpt>
      <trkpt lat="41.605643000" lon="1.869948000">
        <ele>390.00</ele>
        <time>2011-04-05T12:55:18Z</time>
      </trkpt>
      <trkpt lat="41.605672000" lon="1.869832000">
        <ele>390.50</ele>
        <time>2011-04-05T12:55:22Z</time>
      </trkpt>
      <trkpt lat="41.605678000" lon="1.869800000">
        <ele>393.00</ele>
        <time>2011-04-05T12:55:24Z</time>
      </trkpt>
      <trkpt lat="41.605693000" lon="1.869572000">
        <ele>397.00</ele>
        <time>2011-04-05T12:55:31Z</time>
      </trkpt>
      <trkpt lat="41.605712000" lon="1.869440000">
        <ele>394.50</ele>
        <time>2011-04-05T12:55:36Z</time>
      </trkpt>
      <trkpt lat="41.605732000" lon="1.869408000">
        <ele>391.00</ele>
        <time>2011-04-05T12:55:36Z</time>
      </trkpt>
      <trkpt lat="41.605753000" lon="1.869335000">
        <ele>390.00</ele>
        <time>2011-04-05T12:55:38Z</time>
      </trkpt>
      <trkpt lat="41.605760000" lon="1.869248000">
        <ele>392.00</ele>
        <time>2011-04-05T12:55:41Z</time>
      </trkpt>
      <trkpt lat="41.605813000" lon="1.869007000">
        <ele>391.50</ele>
        <time>2011-04-05T12:55:48Z</time>
      </trkpt>
      <trkpt lat="41.605828000" lon="1.868880000">
        <ele>394.50</ele>
        <time>2011-04-05T12:55:52Z</time>
      </trkpt>
      <trkpt lat="41.605837000" lon="1.868767000">
        <ele>394.00</ele>
        <time>2011-04-05T12:55:53Z</time>
      </trkpt>
      <trkpt lat="41.605840000" lon="1.868653000">
        <ele>392.50</ele>
        <time>2011-04-05T12:55:57Z</time>
      </trkpt>
      <trkpt lat="41.605855000" lon="1.868545000">
        <ele>387.50</ele>
        <time>2011-04-05T12:56:00Z</time>
      </trkpt>
      <trkpt lat="41.605825000" lon="1.868380000">
        <ele>387.50</ele>
        <time>2011-04-05T12:56:04Z</time>
      </trkpt>
      <trkpt lat="41.605820000" lon="1.868343000">
        <ele>384.50</ele>
        <time>2011-04-05T12:56:06Z</time>
      </trkpt>
      <trkpt lat="41.605800000" lon="1.868210000">
        <ele>384.50</ele>
        <time>2011-04-05T12:56:09Z</time>
      </trkpt>
      <trkpt lat="41.605790000" lon="1.868120000">
        <ele>382.00</ele>
        <time>2011-04-05T12:56:12Z</time>
      </trkpt>
      <trkpt lat="41.605760000" lon="1.867928000">
        <ele>383.50</ele>
        <time>2011-04-05T12:56:19Z</time>
      </trkpt>
      <trkpt lat="41.605757000" lon="1.867872000">
        <ele>386.00</ele>
        <time>2011-04-05T12:56:21Z</time>
      </trkpt>
      <trkpt lat="41.605755000" lon="1.867810000">
        <ele>386.50</ele>
        <time>2011-04-05T12:56:23Z</time>
      </trkpt>
      <trkpt lat="41.605768000" lon="1.867673000">
        <ele>385.00</ele>
        <time>2011-04-05T12:56:26Z</time>
      </trkpt>
      <trkpt lat="41.605835000" lon="1.867513000">
        <ele>385.00</ele>
        <time>2011-04-05T12:56:32Z</time>
      </trkpt>
      <trkpt lat="41.605917000" lon="1.867400000">
        <ele>388.50</ele>
        <time>2011-04-05T12:56:37Z</time>
      </trkpt>
      <trkpt lat="41.606002000" lon="1.867265000">
        <ele>388.00</ele>
        <time>2011-04-05T12:56:42Z</time>
      </trkpt>
      <trkpt lat="41.606060000" lon="1.867188000">
        <ele>391.00</ele>
        <time>2011-04-05T12:56:46Z</time>
      </trkpt>
      <trkpt lat="41.606207000" lon="1.867022000">
        <ele>395.00</ele>
        <time>2011-04-05T12:56:54Z</time>
      </trkpt>
      <trkpt lat="41.606285000" lon="1.866740000">
        <ele>399.00</ele>
        <time>2011-04-05T12:57:03Z</time>
      </trkpt>
      <trkpt lat="41.606333000" lon="1.866587000">
        <ele>398.50</ele>
        <time>2011-04-05T12:57:08Z</time>
      </trkpt>
      <trkpt lat="41.606388000" lon="1.866463000">
        <ele>401.00</ele>
        <time>2011-04-05T12:57:12Z</time>
      </trkpt>
      <trkpt lat="41.606490000" lon="1.866325000">
        <ele>406.00</ele>
        <time>2011-04-05T12:57:19Z</time>
      </trkpt>
      <trkpt lat="41.606565000" lon="1.866205000">
        <ele>403.50</ele>
        <time>2011-04-05T12:57:24Z</time>
      </trkpt>
      <trkpt lat="41.606617000" lon="1.866105000">
        <ele>404.00</ele>
        <time>2011-04-05T12:57:29Z</time>
      </trkpt>
      <trkpt lat="41.606628000" lon="1.866077000">
        <ele>404.00</ele>
        <time>2011-04-05T12:57:29Z</time>
      </trkpt>
      <trkpt lat="41.606657000" lon="1.865985000">
        <ele>401.00</ele>
        <time>2011-04-05T12:57:33Z</time>
      </trkpt>
      <trkpt lat="41.606678000" lon="1.865618000">
        <ele>405.50</ele>
        <time>2011-04-05T12:57:45Z</time>
      </trkpt>
      <trkpt lat="41.606813000" lon="1.865043000">
        <ele>405.00</ele>
        <time>2011-04-05T12:58:02Z</time>
      </trkpt>
      <trkpt lat="41.606862000" lon="1.864968000">
        <ele>406.00</ele>
        <time>2011-04-05T12:58:06Z</time>
      </trkpt>
      <trkpt lat="41.606940000" lon="1.864940000">
        <ele>407.00</ele>
        <time>2011-04-05T12:58:09Z</time>
      </trkpt>
      <trkpt lat="41.607082000" lon="1.865097000">
        <ele>404.00</ele>
        <time>2011-04-05T12:58:18Z</time>
      </trkpt>
      <trkpt lat="41.607143000" lon="1.865123000">
        <ele>401.50</ele>
        <time>2011-04-05T12:58:21Z</time>
      </trkpt>
      <trkpt lat="41.607243000" lon="1.865142000">
        <ele>403.00</ele>
        <time>2011-04-05T12:58:25Z</time>
      </trkpt>
      <trkpt lat="41.607270000" lon="1.865133000">
        <ele>403.00</ele>
        <time>2011-04-05T12:58:25Z</time>
      </trkpt>
      <trkpt lat="41.607400000" lon="1.864992000">
        <ele>402.00</ele>
        <time>2011-04-05T12:58:32Z</time>
      </trkpt>
      <trkpt lat="41.607480000" lon="1.864910000">
        <ele>406.00</ele>
        <time>2011-04-05T12:58:37Z</time>
      </trkpt>
      <trkpt lat="41.607598000" lon="1.864822000">
        <ele>406.00</ele>
        <time>2011-04-05T12:58:44Z</time>
      </trkpt>
      <trkpt lat="41.607663000" lon="1.864798000">
        <ele>409.00</ele>
        <time>2011-04-05T12:58:46Z</time>
      </trkpt>
      <trkpt lat="41.607738000" lon="1.864750000">
        <ele>408.50</ele>
        <time>2011-04-05T12:58:51Z</time>
      </trkpt>
      <trkpt lat="41.607757000" lon="1.864733000">
        <ele>409.00</ele>
        <time>2011-04-05T12:58:51Z</time>
      </trkpt>
      <trkpt lat="41.607847000" lon="1.864618000">
        <ele>411.50</ele>
        <time>2011-04-05T12:58:58Z</time>
      </trkpt>
      <trkpt lat="41.607997000" lon="1.864410000">
        <ele>410.00</ele>
        <time>2011-04-05T12:59:05Z</time>
      </trkpt>
      <trkpt lat="41.608022000" lon="1.864388000">
        <ele>410.50</ele>
        <time>2011-04-05T12:59:05Z</time>
      </trkpt>
      <trkpt lat="41.608217000" lon="1.864353000">
        <ele>412.00</ele>
        <time>2011-04-05T12:59:12Z</time>
      </trkpt>
      <trkpt lat="41.608320000" lon="1.864383000">
        <ele>412.00</ele>
        <time>2011-04-05T12:59:14Z</time>
      </trkpt>
      <trkpt lat="41.608408000" lon="1.864443000">
        <ele>415.50</ele>
        <time>2011-04-05T12:59:19Z</time>
      </trkpt>
      <trkpt lat="41.608432000" lon="1.864495000">
        <ele>417.50</ele>
        <time>2011-04-05T12:59:21Z</time>
      </trkpt>
      <trkpt lat="41.608457000" lon="1.864558000">
        <ele>417.00</ele>
        <time>2011-04-05T12:59:22Z</time>
      </trkpt>
      <trkpt lat="41.608460000" lon="1.864607000">
        <ele>419.50</ele>
        <time>2011-04-05T12:59:24Z</time>
      </trkpt>
      <trkpt lat="41.608588000" lon="1.864825000">
        <ele>416.50</ele>
        <time>2011-04-05T12:59:33Z</time>
      </trkpt>
      <trkpt lat="41.608622000" lon="1.864900000">
        <ele>414.00</ele>
        <time>2011-04-05T12:59:36Z</time>
      </trkpt>
      <trkpt lat="41.608627000" lon="1.865005000">
        <ele>415.00</ele>
        <time>2011-04-05T12:59:38Z</time>
      </trkpt>
      <trkpt lat="41.608308000" lon="1.865445000">
        <ele>417.00</ele>
        <time>2011-04-05T12:59:47Z</time>
      </trkpt>
      <trkpt lat="41.608288000" lon="1.865488000">
        <ele>417.00</ele>
        <time>2011-04-05T12:59:48Z</time>
      </trkpt>
      <trkpt lat="41.608272000" lon="1.865532000">
        <ele>415.50</ele>
        <time>2011-04-05T12:59:50Z</time>
      </trkpt>
      <trkpt lat="41.608195000" lon="1.865802000">
        <ele>414.50</ele>
        <time>2011-04-05T12:59:57Z</time>
      </trkpt>
      <trkpt lat="41.608153000" lon="1.865850000">
        <ele>414.00</ele>
        <time>2011-04-05T12:59:59Z</time>
      </trkpt>
      <trkpt lat="41.608017000" lon="1.865972000">
        <ele>413.50</ele>
        <time>2011-04-05T13:00:04Z</time>
      </trkpt>
      <trkpt lat="41.608000000" lon="1.866002000">
        <ele>414.00</ele>
        <time>2011-04-05T13:00:06Z</time>
      </trkpt>
      <trkpt lat="41.608002000" lon="1.866037000">
        <ele>415.00</ele>
        <time>2011-04-05T13:00:06Z</time>
      </trkpt>
      <trkpt lat="41.608013000" lon="1.866147000">
        <ele>415.00</ele>
        <time>2011-04-05T13:00:09Z</time>
      </trkpt>
      <trkpt lat="41.608108000" lon="1.866258000">
        <ele>415.50</ele>
        <time>2011-04-05T13:00:15Z</time>
      </trkpt>
      <trkpt lat="41.608167000" lon="1.866317000">
        <ele>413.50</ele>
        <time>2011-04-05T13:00:18Z</time>
      </trkpt>
      <trkpt lat="41.608200000" lon="1.866348000">
        <ele>414.00</ele>
        <time>2011-04-05T13:00:20Z</time>
      </trkpt>
      <trkpt lat="41.608298000" lon="1.866355000">
        <ele>414.50</ele>
        <time>2011-04-05T13:00:23Z</time>
      </trkpt>
      <trkpt lat="41.608405000" lon="1.866108000">
        <ele>414.00</ele>
        <time>2011-04-05T13:00:34Z</time>
      </trkpt>
      <trkpt lat="41.608477000" lon="1.865863000">
        <ele>412.00</ele>
        <time>2011-04-05T13:00:42Z</time>
      </trkpt>
      <trkpt lat="41.608732000" lon="1.865713000">
        <ele>415.50</ele>
        <time>2011-04-05T13:00:53Z</time>
      </trkpt>
      <trkpt lat="41.608775000" lon="1.865707000">
        <ele>414.00</ele>
        <time>2011-04-05T13:00:55Z</time>
      </trkpt>
      <trkpt lat="41.608977000" lon="1.865577000">
        <ele>414.50</ele>
        <time>2011-04-05T13:01:02Z</time>
      </trkpt>
      <trkpt lat="41.609057000" lon="1.865315000">
        <ele>414.00</ele>
        <time>2011-04-05T13:01:07Z</time>
      </trkpt>
      <trkpt lat="41.609057000" lon="1.865207000">
        <ele>414.00</ele>
        <time>2011-04-05T13:01:10Z</time>
      </trkpt>
      <trkpt lat="41.609050000" lon="1.865112000">
        <ele>412.50</ele>
        <time>2011-04-05T13:01:12Z</time>
      </trkpt>
      <trkpt lat="41.609027000" lon="1.864998000">
        <ele>416.00</ele>
        <time>2011-04-05T13:01:14Z</time>
      </trkpt>
      <trkpt lat="41.608998000" lon="1.864768000">
        <ele>412.50</ele>
        <time>2011-04-05T13:01:21Z</time>
      </trkpt>
      <trkpt lat="41.609000000" lon="1.864612000">
        <ele>414.50</ele>
        <time>2011-04-05T13:01:26Z</time>
      </trkpt>
      <trkpt lat="41.609015000" lon="1.864552000">
        <ele>415.50</ele>
        <time>2011-04-05T13:01:28Z</time>
      </trkpt>
      <trkpt lat="41.609047000" lon="1.864358000">
        <ele>414.50</ele>
        <time>2011-04-05T13:01:33Z</time>
      </trkpt>
      <trkpt lat="41.609082000" lon="1.864243000">
        <ele>415.50</ele>
        <time>2011-04-05T13:01:35Z</time>
      </trkpt>
      <trkpt lat="41.609272000" lon="1.863917000">
        <ele>418.50</ele>
        <time>2011-04-05T13:01:45Z</time>
      </trkpt>
      <trkpt lat="41.609290000" lon="1.863832000">
        <ele>418.00</ele>
        <time>2011-04-05T13:01:47Z</time>
      </trkpt>
      <trkpt lat="41.609263000" lon="1.862970000">
        <ele>415.50</ele>
        <time>2011-04-05T13:02:08Z</time>
      </trkpt>
      <trkpt lat="41.609205000" lon="1.862468000">
        <ele>418.00</ele>
        <time>2011-04-05T13:02:20Z</time>
      </trkpt>
      <trkpt lat="41.609123000" lon="1.862222000">
        <ele>416.50</ele>
        <time>2011-04-05T13:02:25Z</time>
      </trkpt>
      <trkpt lat="41.609128000" lon="1.862175000">
        <ele>416.00</ele>
        <time>2011-04-05T13:02:27Z</time>
      </trkpt>
      <trkpt lat="41.609205000" lon="1.861882000">
        <ele>417.50</ele>
        <time>2011-04-05T13:02:34Z</time>
      </trkpt>
      <trkpt lat="41.609243000" lon="1.861545000">
        <ele>416.50</ele>
        <time>2011-04-05T13:02:41Z</time>
      </trkpt>
      <trkpt lat="41.609313000" lon="1.861140000">
        <ele>420.50</ele>
        <time>2011-04-05T13:02:50Z</time>
      </trkpt>
      <trkpt lat="41.609343000" lon="1.860837000">
        <ele>417.00</ele>
        <time>2011-04-05T13:02:57Z</time>
      </trkpt>
      <trkpt lat="41.609400000" lon="1.860663000">
        <ele>416.50</ele>
        <time>2011-04-05T13:03:00Z</time>
      </trkpt>
      <trkpt lat="41.609438000" lon="1.860655000">
        <ele>414.50</ele>
        <time>2011-04-05T13:03:02Z</time>
      </trkpt>
      <trkpt lat="41.609928000" lon="1.860353000">
        <ele>414.00</ele>
        <time>2011-04-05T13:03:18Z</time>
      </trkpt>
      <trkpt lat="41.610152000" lon="1.860195000">
        <ele>411.50</ele>
        <time>2011-04-05T13:03:28Z</time>
      </trkpt>
      <trkpt lat="41.610307000" lon="1.860133000">
        <ele>409.50</ele>
        <time>2011-04-05T13:03:33Z</time>
      </trkpt>
      <trkpt lat="41.610650000" lon="1.860020000">
        <ele>409.00</ele>
        <time>2011-04-05T13:03:42Z</time>
      </trkpt>
      <trkpt lat="41.610727000" lon="1.859988000">
        <ele>407.50</ele>
        <time>2011-04-05T13:03:44Z</time>
      </trkpt>
      <trkpt lat="41.610998000" lon="1.859738000">
        <ele>404.50</ele>
        <time>2011-04-05T13:03:52Z</time>
      </trkpt>
      <trkpt lat="41.611192000" lon="1.859518000">
        <ele>404.00</ele>
        <time>2011-04-05T13:04:01Z</time>
      </trkpt>
      <trkpt lat="41.611373000" lon="1.859437000">
        <ele>403.50</ele>
        <time>2011-04-05T13:04:06Z</time>
      </trkpt>
      <trkpt lat="41.611453000" lon="1.859382000">
        <ele>401.00</ele>
        <time>2011-04-05T13:04:08Z</time>
      </trkpt>
      <trkpt lat="41.611612000" lon="1.859277000">
        <ele>401.00</ele>
        <time>2011-04-05T13:04:13Z</time>
      </trkpt>
      <trkpt lat="41.611823000" lon="1.859262000">
        <ele>400.00</ele>
        <time>2011-04-05T13:04:17Z</time>
      </trkpt>
      <trkpt lat="41.611845000" lon="1.859267000">
        <ele>401.50</ele>
        <time>2011-04-05T13:04:18Z</time>
      </trkpt>
      <trkpt lat="41.612253000" lon="1.859312000">
        <ele>403.50</ele>
        <time>2011-04-05T13:04:36Z</time>
      </trkpt>
      <trkpt lat="41.612290000" lon="1.859315000">
        <ele>402.50</ele>
        <time>2011-04-05T13:04:38Z</time>
      </trkpt>
      <trkpt lat="41.612347000" lon="1.859310000">
        <ele>403.00</ele>
        <time>2011-04-05T13:04:41Z</time>
      </trkpt>
      <trkpt lat="41.612377000" lon="1.859298000">
        <ele>404.00</ele>
        <time>2011-04-05T13:04:43Z</time>
      </trkpt>
      <trkpt lat="41.612618000" lon="1.859158000">
        <ele>401.00</ele>
        <time>2011-04-05T13:04:57Z</time>
      </trkpt>
      <trkpt lat="41.612800000" lon="1.859062000">
        <ele>403.00</ele>
        <time>2011-04-05T13:05:12Z</time>
      </trkpt>
      <trkpt lat="41.613032000" lon="1.858940000">
        <ele>401.50</ele>
        <time>2011-04-05T13:05:28Z</time>
      </trkpt>
      <trkpt lat="41.613192000" lon="1.858838000">
        <ele>402.50</ele>
        <time>2011-04-05T13:05:35Z</time>
      </trkpt>
      <trkpt lat="41.613245000" lon="1.858822000">
        <ele>402.50</ele>
        <time>2011-04-05T13:05:37Z</time>
      </trkpt>
      <trkpt lat="41.613420000" lon="1.858803000">
        <ele>399.50</ele>
        <time>2011-04-05T13:05:42Z</time>
      </trkpt>
      <trkpt lat="41.613587000" lon="1.858632000">
        <ele>396.50</ele>
        <time>2011-04-05T13:05:56Z</time>
      </trkpt>
      <trkpt lat="41.613597000" lon="1.858602000">
        <ele>395.50</ele>
        <time>2011-04-05T13:05:58Z</time>
      </trkpt>
      <trkpt lat="41.613577000" lon="1.858532000">
        <ele>392.00</ele>
        <time>2011-04-05T13:06:03Z</time>
      </trkpt>
      <trkpt lat="41.613428000" lon="1.858413000">
        <ele>388.00</ele>
        <time>2011-04-05T13:06:50Z</time>
      </trkpt>
      <trkpt lat="41.613417000" lon="1.858422000">
        <ele>387.50</ele>
        <time>2011-04-05T13:06:50Z</time>
      </trkpt>
      <trkpt lat="41.613568000" lon="1.858775000">
        <ele>388.50</ele>
        <time>2011-04-05T13:07:09Z</time>
      </trkpt>
      <trkpt lat="41.613593000" lon="1.858830000">
        <ele>390.50</ele>
        <time>2011-04-05T13:07:13Z</time>
      </trkpt>
      <trkpt lat="41.613610000" lon="1.858827000">
        <ele>389.50</ele>
        <time>2011-04-05T13:07:14Z</time>
      </trkpt>
      <trkpt lat="41.613612000" lon="1.858778000">
        <ele>390.00</ele>
        <time>2011-04-05T13:07:20Z</time>
      </trkpt>
      <trkpt lat="41.613570000" lon="1.858737000">
        <ele>392.50</ele>
        <time>2011-04-05T13:07:25Z</time>
      </trkpt>
      <trkpt lat="41.613630000" lon="1.858637000">
        <ele>392.50</ele>
        <time>2011-04-05T13:07:30Z</time>
      </trkpt>
      <trkpt lat="41.613902000" lon="1.858418000">
        <ele>392.50</ele>
        <time>2011-04-05T13:07:39Z</time>
      </trkpt>
      <trkpt lat="41.614103000" lon="1.858275000">
        <ele>394.50</ele>
        <time>2011-04-05T13:07:53Z</time>
      </trkpt>
      <trkpt lat="41.614128000" lon="1.858255000">
        <ele>394.50</ele>
        <time>2011-04-05T13:07:54Z</time>
      </trkpt>
      <trkpt lat="41.614243000" lon="1.857917000">
        <ele>389.00</ele>
        <time>2011-04-05T13:08:03Z</time>
      </trkpt>
      <trkpt lat="41.614273000" lon="1.857878000">
        <ele>388.00</ele>
        <time>2011-04-05T13:08:05Z</time>
      </trkpt>
      <trkpt lat="41.614485000" lon="1.857637000">
        <ele>388.50</ele>
        <time>2011-04-05T13:08:12Z</time>
      </trkpt>
      <trkpt lat="41.614530000" lon="1.857308000">
        <ele>391.00</ele>
        <time>2011-04-05T13:08:26Z</time>
      </trkpt>
      <trkpt lat="41.614520000" lon="1.857237000">
        <ele>390.00</ele>
        <time>2011-04-05T13:08:29Z</time>
      </trkpt>
      <trkpt lat="41.614483000" lon="1.857115000">
        <ele>388.50</ele>
        <time>2011-04-05T13:08:33Z</time>
      </trkpt>
      <trkpt lat="41.614395000" lon="1.856915000">
        <ele>388.00</ele>
        <time>2011-04-05T13:08:45Z</time>
      </trkpt>
      <trkpt lat="41.614292000" lon="1.856690000">
        <ele>384.00</ele>
        <time>2011-04-05T13:08:55Z</time>
      </trkpt>
      <trkpt lat="41.614298000" lon="1.856630000">
        <ele>384.00</ele>
        <time>2011-04-05T13:08:57Z</time>
      </trkpt>
      <trkpt lat="41.614502000" lon="1.856528000">
        <ele>383.00</ele>
        <time>2011-04-05T13:09:06Z</time>
      </trkpt>
      <trkpt lat="41.614563000" lon="1.856493000">
        <ele>382.00</ele>
        <time>2011-04-05T13:09:09Z</time>
      </trkpt>
      <trkpt lat="41.614763000" lon="1.856208000">
        <ele>377.00</ele>
        <time>2011-04-05T13:09:13Z</time>
      </trkpt>
      <trkpt lat="41.614845000" lon="1.856035000">
        <ele>375.00</ele>
        <time>2011-04-05T13:09:16Z</time>
      </trkpt>
      <trkpt lat="41.614985000" lon="1.855665000">
        <ele>373.00</ele>
        <time>2011-04-05T13:09:20Z</time>
      </trkpt>
      <trkpt lat="41.614987000" lon="1.855397000">
        <ele>370.00</ele>
        <time>2011-04-05T13:09:23Z</time>
      </trkpt>
      <trkpt lat="41.614613000" lon="1.854662000">
        <ele>362.00</ele>
        <time>2011-04-05T13:09:32Z</time>
      </trkpt>
      <trkpt lat="41.614528000" lon="1.854137000">
        <ele>359.00</ele>
        <time>2011-04-05T13:09:37Z</time>
      </trkpt>
      <trkpt lat="41.614507000" lon="1.854038000">
        <ele>358.50</ele>
        <time>2011-04-05T13:09:37Z</time>
      </trkpt>
      <trkpt lat="41.614438000" lon="1.853883000">
        <ele>358.00</ele>
        <time>2011-04-05T13:09:39Z</time>
      </trkpt>
      <trkpt lat="41.614395000" lon="1.853830000">
        <ele>358.50</ele>
        <time>2011-04-05T13:09:41Z</time>
      </trkpt>
      <trkpt lat="41.614197000" lon="1.853748000">
        <ele>361.50</ele>
        <time>2011-04-05T13:09:46Z</time>
      </trkpt>
      <trkpt lat="41.614062000" lon="1.853788000">
        <ele>362.50</ele>
        <time>2011-04-05T13:09:49Z</time>
      </trkpt>
      <trkpt lat="41.613660000" lon="1.854395000">
        <ele>357.50</ele>
        <time>2011-04-05T13:10:00Z</time>
      </trkpt>
      <trkpt lat="41.613593000" lon="1.854378000">
        <ele>357.00</ele>
        <time>2011-04-05T13:10:02Z</time>
      </trkpt>
      <trkpt lat="41.613400000" lon="1.854192000">
        <ele>359.00</ele>
        <time>2011-04-05T13:10:05Z</time>
      </trkpt>
      <trkpt lat="41.613313000" lon="1.853428000">
        <ele>351.50</ele>
        <time>2011-04-05T13:10:14Z</time>
      </trkpt>
      <trkpt lat="41.613412000" lon="1.853383000">
        <ele>351.50</ele>
        <time>2011-04-05T13:10:17Z</time>
      </trkpt>
      <trkpt lat="41.613617000" lon="1.853453000">
        <ele>350.00</ele>
        <time>2011-04-05T13:10:21Z</time>
      </trkpt>
      <trkpt lat="41.613712000" lon="1.853388000">
        <ele>349.50</ele>
        <time>2011-04-05T13:10:24Z</time>
      </trkpt>
      <trkpt lat="41.613735000" lon="1.853333000">
        <ele>350.00</ele>
        <time>2011-04-05T13:10:24Z</time>
      </trkpt>
      <trkpt lat="41.613812000" lon="1.852905000">
        <ele>345.00</ele>
        <time>2011-04-05T13:10:29Z</time>
      </trkpt>
      <trkpt lat="41.613568000" lon="1.851912000">
        <ele>335.00</ele>
        <time>2011-04-05T13:10:50Z</time>
      </trkpt>
      <trkpt lat="41.613522000" lon="1.851772000">
        <ele>334.00</ele>
        <time>2011-04-05T13:10:54Z</time>
      </trkpt>
      <trkpt lat="41.613430000" lon="1.851493000">
        <ele>334.00</ele>
        <time>2011-04-05T13:10:59Z</time>
      </trkpt>
      <trkpt lat="41.613408000" lon="1.851462000">
        <ele>335.50</ele>
        <time>2011-04-05T13:11:01Z</time>
      </trkpt>
      <trkpt lat="41.613358000" lon="1.851315000">
        <ele>336.00</ele>
        <time>2011-04-05T13:11:04Z</time>
      </trkpt>
      <trkpt lat="41.613222000" lon="1.850987000">
        <ele>333.50</ele>
        <time>2011-04-05T13:11:11Z</time>
      </trkpt>
      <trkpt lat="41.612815000" lon="1.850412000">
        <ele>326.00</ele>
        <time>2011-04-05T13:11:23Z</time>
      </trkpt>
      <trkpt lat="41.612628000" lon="1.850180000">
        <ele>326.00</ele>
        <time>2011-04-05T13:11:29Z</time>
      </trkpt>
      <trkpt lat="41.612367000" lon="1.849968000">
        <ele>326.00</ele>
        <time>2011-04-05T13:11:36Z</time>
      </trkpt>
      <trkpt lat="41.612142000" lon="1.849790000">
        <ele>323.00</ele>
        <time>2011-04-05T13:11:53Z</time>
      </trkpt>
      <trkpt lat="41.612187000" lon="1.849797000">
        <ele>324.50</ele>
        <time>2011-04-05T13:11:58Z</time>
      </trkpt>
      <trkpt lat="41.612193000" lon="1.849833000">
        <ele>327.00</ele>
        <time>2011-04-05T13:12:00Z</time>
      </trkpt>
      <trkpt lat="41.611895000" lon="1.849880000">
        <ele>328.00</ele>
        <time>2011-04-05T13:12:12Z</time>
      </trkpt>
      <trkpt lat="41.611817000" lon="1.849715000">
        <ele>327.50</ele>
        <time>2011-04-05T13:12:16Z</time>
      </trkpt>
      <trkpt lat="41.611523000" lon="1.848830000">
        <ele>316.50</ele>
        <time>2011-04-05T13:12:26Z</time>
      </trkpt>
      <trkpt lat="41.611388000" lon="1.848560000">
        <ele>315.50</ele>
        <time>2011-04-05T13:12:28Z</time>
      </trkpt>
      <trkpt lat="41.611240000" lon="1.848502000">
        <ele>317.00</ele>
        <time>2011-04-05T13:12:31Z</time>
      </trkpt>
      <trkpt lat="41.611198000" lon="1.848503000">
        <ele>316.00</ele>
        <time>2011-04-05T13:12:33Z</time>
      </trkpt>
      <trkpt lat="41.610995000" lon="1.848597000">
        <ele>313.00</ele>
        <time>2011-04-05T13:12:38Z</time>
      </trkpt>
      <trkpt lat="41.610725000" lon="1.848888000">
        <ele>305.50</ele>
        <time>2011-04-05T13:12:47Z</time>
      </trkpt>
      <trkpt lat="41.610600000" lon="1.848945000">
        <ele>304.50</ele>
        <time>2011-04-05T13:12:49Z</time>
      </trkpt>
      <trkpt lat="41.610312000" lon="1.849030000">
        <ele>305.50</ele>
        <time>2011-04-05T13:12:59Z</time>
      </trkpt>
      <trkpt lat="41.610262000" lon="1.849068000">
        <ele>305.00</ele>
        <time>2011-04-05T13:13:01Z</time>
      </trkpt>
      <trkpt lat="41.610218000" lon="1.849098000">
        <ele>308.00</ele>
        <time>2011-04-05T13:13:03Z</time>
      </trkpt>
      <trkpt lat="41.610122000" lon="1.849220000">
        <ele>306.50</ele>
        <time>2011-04-05T13:13:06Z</time>
      </trkpt>
      <trkpt lat="41.609837000" lon="1.849470000">
        <ele>307.00</ele>
        <time>2011-04-05T13:13:15Z</time>
      </trkpt>
      <trkpt lat="41.609605000" lon="1.849640000">
        <ele>302.50</ele>
        <time>2011-04-05T13:13:20Z</time>
      </trkpt>
      <trkpt lat="41.609550000" lon="1.849653000">
        <ele>303.00</ele>
        <time>2011-04-05T13:13:22Z</time>
      </trkpt>
      <trkpt lat="41.609422000" lon="1.849582000">
        <ele>304.00</ele>
        <time>2011-04-05T13:13:29Z</time>
      </trkpt>
      <trkpt lat="41.609348000" lon="1.849503000">
        <ele>302.00</ele>
        <time>2011-04-05T13:13:34Z</time>
      </trkpt>
      <trkpt lat="41.609010000" lon="1.849628000">
        <ele>292.50</ele>
        <time>2011-04-05T13:13:48Z</time>
      </trkpt>
      <trkpt lat="41.609085000" lon="1.849457000">
        <ele>292.50</ele>
        <time>2011-04-05T13:13:52Z</time>
      </trkpt>
      <trkpt lat="41.609270000" lon="1.849007000">
        <ele>286.00</ele>
        <time>2011-04-05T13:13:59Z</time>
      </trkpt>
      <trkpt lat="41.609072000" lon="1.849138000">
        <ele>282.50</ele>
        <time>2011-04-05T13:14:04Z</time>
      </trkpt>
      <trkpt lat="41.609005000" lon="1.849103000">
        <ele>283.50</ele>
        <time>2011-04-05T13:14:06Z</time>
      </trkpt>
      <trkpt lat="41.608873000" lon="1.849003000">
        <ele>279.50</ele>
        <time>2011-04-05T13:14:11Z</time>
      </trkpt>
      <trkpt lat="41.608850000" lon="1.849005000">
        <ele>279.50</ele>
        <time>2011-04-05T13:14:11Z</time>
      </trkpt>
      <trkpt lat="41.608560000" lon="1.849332000">
        <ele>276.50</ele>
        <time>2011-04-05T13:14:23Z</time>
      </trkpt>
      <trkpt lat="41.608337000" lon="1.849557000">
        <ele>277.00</ele>
        <time>2011-04-05T13:14:30Z</time>
      </trkpt>
      <trkpt lat="41.608277000" lon="1.849610000">
        <ele>279.00</ele>
        <time>2011-04-05T13:14:32Z</time>
      </trkpt>
      <trkpt lat="41.607828000" lon="1.850013000">
        <ele>278.00</ele>
        <time>2011-04-05T13:14:44Z</time>
      </trkpt>
      <trkpt lat="41.607770000" lon="1.850062000">
        <ele>278.50</ele>
        <time>2011-04-05T13:14:47Z</time>
      </trkpt>
      <trkpt lat="41.607737000" lon="1.850083000">
        <ele>278.50</ele>
        <time>2011-04-05T13:14:47Z</time>
      </trkpt>
      <trkpt lat="41.607698000" lon="1.850092000">
        <ele>281.00</ele>
        <time>2011-04-05T13:14:49Z</time>
      </trkpt>
      <trkpt lat="41.607603000" lon="1.850127000">
        <ele>281.00</ele>
        <time>2011-04-05T13:14:51Z</time>
      </trkpt>
      <trkpt lat="41.607512000" lon="1.850167000">
        <ele>279.00</ele>
        <time>2011-04-05T13:14:53Z</time>
      </trkpt>
      <trkpt lat="41.607163000" lon="1.850260000">
        <ele>280.50</ele>
        <time>2011-04-05T13:15:01Z</time>
      </trkpt>
      <trkpt lat="41.606983000" lon="1.850378000">
        <ele>279.50</ele>
        <time>2011-04-05T13:15:05Z</time>
      </trkpt>
      <trkpt lat="41.606788000" lon="1.850595000">
        <ele>277.50</ele>
        <time>2011-04-05T13:15:10Z</time>
      </trkpt>
      <trkpt lat="41.606513000" lon="1.851023000">
        <ele>279.50</ele>
        <time>2011-04-05T13:15:19Z</time>
      </trkpt>
      <trkpt lat="41.606387000" lon="1.851190000">
        <ele>282.50</ele>
        <time>2011-04-05T13:15:22Z</time>
      </trkpt>
      <trkpt lat="41.606353000" lon="1.851223000">
        <ele>283.00</ele>
        <time>2011-04-05T13:15:24Z</time>
      </trkpt>
      <trkpt lat="41.605670000" lon="1.851902000">
        <ele>281.50</ele>
        <time>2011-04-05T13:15:41Z</time>
      </trkpt>
      <trkpt lat="41.605575000" lon="1.852003000">
        <ele>283.50</ele>
        <time>2011-04-05T13:15:45Z</time>
      </trkpt>
      <trkpt lat="41.605423000" lon="1.852157000">
        <ele>282.00</ele>
        <time>2011-04-05T13:15:48Z</time>
      </trkpt>
      <trkpt lat="41.605357000" lon="1.852228000">
        <ele>283.50</ele>
        <time>2011-04-05T13:15:50Z</time>
      </trkpt>
      <trkpt lat="41.604897000" lon="1.852753000">
        <ele>283.50</ele>
        <time>2011-04-05T13:16:04Z</time>
      </trkpt>
      <trkpt lat="41.604697000" lon="1.852937000">
        <ele>281.50</ele>
        <time>2011-04-05T13:16:09Z</time>
      </trkpt>
      <trkpt lat="41.604435000" lon="1.853117000">
        <ele>281.00</ele>
        <time>2011-04-05T13:16:14Z</time>
      </trkpt>
      <trkpt lat="41.604078000" lon="1.853347000">
        <ele>282.50</ele>
        <time>2011-04-05T13:16:23Z</time>
      </trkpt>
      <trkpt lat="41.603557000" lon="1.853692000">
        <ele>277.50</ele>
        <time>2011-04-05T13:16:35Z</time>
      </trkpt>
      <trkpt lat="41.603335000" lon="1.853810000">
        <ele>277.50</ele>
        <time>2011-04-05T13:16:41Z</time>
      </trkpt>
      <trkpt lat="41.603193000" lon="1.853865000">
        <ele>281.00</ele>
        <time>2011-04-05T13:16:44Z</time>
      </trkpt>
      <trkpt lat="41.603035000" lon="1.853917000">
        <ele>281.00</ele>
        <time>2011-04-05T13:16:49Z</time>
      </trkpt>
      <trkpt lat="41.602857000" lon="1.853892000">
        <ele>290.50</ele>
        <time>2011-04-05T13:16:53Z</time>
      </trkpt>
      <trkpt lat="41.602768000" lon="1.853887000">
        <ele>291.50</ele>
        <time>2011-04-05T13:16:56Z</time>
      </trkpt>
      <trkpt lat="41.602725000" lon="1.853905000">
        <ele>290.00</ele>
        <time>2011-04-05T13:16:56Z</time>
      </trkpt>
      <trkpt lat="41.602290000" lon="1.853830000">
        <ele>288.50</ele>
        <time>2011-04-05T13:17:05Z</time>
      </trkpt>
      <trkpt lat="41.601848000" lon="1.853540000">
        <ele>288.00</ele>
        <time>2011-04-05T13:17:14Z</time>
      </trkpt>
      <trkpt lat="41.601570000" lon="1.853315000">
        <ele>286.50</ele>
        <time>2011-04-05T13:17:21Z</time>
      </trkpt>
      <trkpt lat="41.600877000" lon="1.852558000">
        <ele>282.00</ele>
        <time>2011-04-05T13:17:38Z</time>
      </trkpt>
      <trkpt lat="41.600823000" lon="1.852537000">
        <ele>282.00</ele>
        <time>2011-04-05T13:17:40Z</time>
      </trkpt>
      <trkpt lat="41.600643000" lon="1.852413000">
        <ele>280.50</ele>
        <time>2011-04-05T13:17:43Z</time>
      </trkpt>
      <trkpt lat="41.600468000" lon="1.852310000">
        <ele>277.00</ele>
        <time>2011-04-05T13:17:47Z</time>
      </trkpt>
      <trkpt lat="41.600237000" lon="1.852215000">
        <ele>278.50</ele>
        <time>2011-04-05T13:17:54Z</time>
      </trkpt>
      <trkpt lat="41.599878000" lon="1.852093000">
        <ele>277.50</ele>
        <time>2011-04-05T13:18:06Z</time>
      </trkpt>
      <trkpt lat="41.599855000" lon="1.852077000">
        <ele>279.50</ele>
        <time>2011-04-05T13:18:08Z</time>
      </trkpt>
      <trkpt lat="41.599743000" lon="1.852015000">
        <ele>282.50</ele>
        <time>2011-04-05T13:18:11Z</time>
      </trkpt>
      <trkpt lat="41.599713000" lon="1.852007000">
        <ele>283.50</ele>
        <time>2011-04-05T13:18:13Z</time>
      </trkpt>
      <trkpt lat="41.599383000" lon="1.852005000">
        <ele>285.50</ele>
        <time>2011-04-05T13:18:23Z</time>
      </trkpt>
      <trkpt lat="41.599313000" lon="1.852027000">
        <ele>285.50</ele>
        <time>2011-04-05T13:18:25Z</time>
      </trkpt>
      <trkpt lat="41.599000000" lon="1.852158000">
        <ele>283.00</ele>
        <time>2011-04-05T13:18:32Z</time>
      </trkpt>
      <trkpt lat="41.598693000" lon="1.852440000">
        <ele>278.00</ele>
        <time>2011-04-05T13:18:41Z</time>
      </trkpt>
      <trkpt lat="41.598472000" lon="1.852830000">
        <ele>274.50</ele>
        <time>2011-04-05T13:18:48Z</time>
      </trkpt>
      <trkpt lat="41.598145000" lon="1.853265000">
        <ele>271.00</ele>
        <time>2011-04-05T13:18:55Z</time>
      </trkpt>
      <trkpt lat="41.597792000" lon="1.853847000">
        <ele>270.00</ele>
        <time>2011-04-05T13:19:02Z</time>
      </trkpt>
      <trkpt lat="41.597762000" lon="1.853937000">
        <ele>268.50</ele>
        <time>2011-04-05T13:19:03Z</time>
      </trkpt>
      <trkpt lat="41.597590000" lon="1.854325000">
        <ele>268.50</ele>
        <time>2011-04-05T13:19:09Z</time>
      </trkpt>
      <trkpt lat="41.597288000" lon="1.854753000">
        <ele>268.00</ele>
        <time>2011-04-05T13:19:17Z</time>
      </trkpt>
      <trkpt lat="41.596890000" lon="1.855105000">
        <ele>268.50</ele>
        <time>2011-04-05T13:19:28Z</time>
      </trkpt>
      <trkpt lat="41.596723000" lon="1.855213000">
        <ele>268.00</ele>
        <time>2011-04-05T13:19:31Z</time>
      </trkpt>
      <trkpt lat="41.596612000" lon="1.855253000">
        <ele>269.50</ele>
        <time>2011-04-05T13:19:35Z</time>
      </trkpt>
      <trkpt lat="41.596417000" lon="1.855302000">
        <ele>269.00</ele>
        <time>2011-04-05T13:19:40Z</time>
      </trkpt>
      <trkpt lat="41.596192000" lon="1.855395000">
        <ele>266.00</ele>
        <time>2011-04-05T13:19:45Z</time>
      </trkpt>
      <trkpt lat="41.595922000" lon="1.855530000">
        <ele>266.00</ele>
        <time>2011-04-05T13:19:49Z</time>
      </trkpt>
      <trkpt lat="41.595837000" lon="1.855568000">
        <ele>267.00</ele>
        <time>2011-04-05T13:19:52Z</time>
      </trkpt>
      <trkpt lat="41.595108000" lon="1.855793000">
        <ele>269.50</ele>
        <time>2011-04-05T13:20:08Z</time>
      </trkpt>
      <trkpt lat="41.594853000" lon="1.855848000">
        <ele>269.50</ele>
        <time>2011-04-05T13:20:15Z</time>
      </trkpt>
      <trkpt lat="41.594480000" lon="1.855808000">
        <ele>269.00</ele>
        <time>2011-04-05T13:20:24Z</time>
      </trkpt>
      <trkpt lat="41.594303000" lon="1.855755000">
        <ele>269.00</ele>
        <time>2011-04-05T13:20:29Z</time>
      </trkpt>
      <trkpt lat="41.593840000" lon="1.855580000">
        <ele>272.50</ele>
        <time>2011-04-05T13:20:41Z</time>
      </trkpt>
      <trkpt lat="41.593813000" lon="1.855545000">
        <ele>272.50</ele>
        <time>2011-04-05T13:20:43Z</time>
      </trkpt>
      <trkpt lat="41.593557000" lon="1.855240000">
        <ele>271.00</ele>
        <time>2011-04-05T13:20:50Z</time>
      </trkpt>
      <trkpt lat="41.593292000" lon="1.854952000">
        <ele>267.00</ele>
        <time>2011-04-05T13:20:57Z</time>
      </trkpt>
      <trkpt lat="41.593078000" lon="1.854697000">
        <ele>269.00</ele>
        <time>2011-04-05T13:21:02Z</time>
      </trkpt>
      <trkpt lat="41.592833000" lon="1.854378000">
        <ele>267.50</ele>
        <time>2011-04-05T13:21:11Z</time>
      </trkpt>
      <trkpt lat="41.592735000" lon="1.854175000">
        <ele>267.50</ele>
        <time>2011-04-05T13:21:14Z</time>
      </trkpt>
      <trkpt lat="41.592507000" lon="1.853543000">
        <ele>264.50</ele>
        <time>2011-04-05T13:21:23Z</time>
      </trkpt>
      <trkpt lat="41.592318000" lon="1.853243000">
        <ele>261.50</ele>
        <time>2011-04-05T13:21:30Z</time>
      </trkpt>
      <trkpt lat="41.592077000" lon="1.852895000">
        <ele>262.00</ele>
        <time>2011-04-05T13:21:37Z</time>
      </trkpt>
      <trkpt lat="41.591780000" lon="1.852625000">
        <ele>262.00</ele>
        <time>2011-04-05T13:21:45Z</time>
      </trkpt>
      <trkpt lat="41.591593000" lon="1.852548000">
        <ele>261.50</ele>
        <time>2011-04-05T13:21:49Z</time>
      </trkpt>
      <trkpt lat="41.591458000" lon="1.852500000">
        <ele>262.50</ele>
        <time>2011-04-05T13:21:54Z</time>
      </trkpt>
      <trkpt lat="41.591438000" lon="1.852495000">
        <ele>264.00</ele>
        <time>2011-04-05T13:21:54Z</time>
      </trkpt>
      <trkpt lat="41.591190000" lon="1.852448000">
        <ele>264.00</ele>
        <time>2011-04-05T13:22:06Z</time>
      </trkpt>
      <trkpt lat="41.591208000" lon="1.852445000">
        <ele>264.50</ele>
        <time>2011-04-05T13:22:20Z</time>
      </trkpt>
      <trkpt lat="41.591207000" lon="1.852458000">
        <ele>263.00</ele>
        <time>2011-04-05T13:22:24Z</time>
      </trkpt>
      <trkpt lat="41.591228000" lon="1.852398000">
        <ele>266.00</ele>
        <time>2011-04-05T13:22:31Z</time>
      </trkpt>
      <trkpt lat="41.591233000" lon="1.852345000">
        <ele>264.50</ele>
        <time>2011-04-05T13:22:36Z</time>
      </trkpt>
      <trkpt lat="41.591227000" lon="1.852318000">
        <ele>268.00</ele>
        <time>2011-04-05T13:22:41Z</time>
      </trkpt>
      <trkpt lat="41.591223000" lon="1.852312000">
        <ele>267.50</ele>
        <time>2011-04-05T13:22:45Z</time>
      </trkpt>
      <trkpt lat="41.591305000" lon="1.852303000">
        <ele>271.00</ele>
        <time>2011-04-05T13:22:55Z</time>
      </trkpt>
      <trkpt lat="41.591342000" lon="1.852318000">
        <ele>270.50</ele>
        <time>2011-04-05T13:23:00Z</time>
      </trkpt>
      <trkpt lat="41.591355000" lon="1.852328000">
        <ele>269.00</ele>
        <time>2011-04-05T13:23:02Z</time>
      </trkpt>
      <trkpt lat="41.591357000" lon="1.852350000">
        <ele>267.50</ele>
        <time>2011-04-05T13:23:04Z</time>
      </trkpt>
      <trkpt lat="41.591425000" lon="1.852480000">
        <ele>267.50</ele>
        <time>2011-04-05T13:23:23Z</time>
      </trkpt>
      <trkpt lat="41.591427000" lon="1.852610000">
        <ele>273.00</ele>
        <time>2011-04-05T13:23:49Z</time>
      </trkpt>
      <trkpt lat="41.591442000" lon="1.852615000">
        <ele>277.00</ele>
        <time>2011-04-05T13:24:01Z</time>
      </trkpt>
      <trkpt lat="41.591485000" lon="1.852690000">
        <ele>277.00</ele>
        <time>2011-04-05T13:24:17Z</time>
      </trkpt>
      <trkpt lat="41.591492000" lon="1.852693000">
        <ele>279.00</ele>
        <time>2011-04-05T13:24:19Z</time>
      </trkpt>
      <trkpt lat="41.591473000" lon="1.852737000">
        <ele>284.00</ele>
        <time>2011-04-05T13:24:29Z</time>
      </trkpt>
      <trkpt lat="41.591470000" lon="1.852742000">
        <ele>282.50</ele>
        <time>2011-04-05T13:24:31Z</time>
      </trkpt>
      <trkpt lat="41.591442000" lon="1.852822000">
        <ele>284.00</ele>
        <time>2011-04-05T13:24:52Z</time>
      </trkpt>
      <trkpt lat="41.591423000" lon="1.852790000">
        <ele>281.00</ele>
        <time>2011-04-05T13:24:57Z</time>
      </trkpt>
      <trkpt lat="41.591472000" lon="1.852777000">
        <ele>280.00</ele>
        <time>2011-04-05T13:25:02Z</time>
      </trkpt>
      <trkpt lat="41.591457000" lon="1.852790000">
        <ele>279.00</ele>
        <time>2011-04-05T13:25:11Z</time>
      </trkpt>
      <trkpt lat="41.591453000" lon="1.852807000">
        <ele>274.00</ele>
        <time>2011-04-05T13:25:37Z</time>
      </trkpt>
      <trkpt lat="41.591458000" lon="1.852810000">
        <ele>277.50</ele>
        <time>2011-04-05T13:25:51Z</time>
      </trkpt>
      <trkpt lat="41.591465000" lon="1.852798000">
        <ele>281.50</ele>
        <time>2011-04-05T13:26:00Z</time>
      </trkpt>
      <trkpt lat="41.591472000" lon="1.852785000">
        <ele>281.50</ele>
        <time>2011-04-05T13:26:15Z</time>
      </trkpt>
      <trkpt lat="41.591465000" lon="1.852775000">
        <ele>278.50</ele>
        <time>2011-04-05T13:26:19Z</time>
      </trkpt>
      <trkpt lat="41.591448000" lon="1.852783000">
        <ele>282.00</ele>
        <time>2011-04-05T13:26:29Z</time>
      </trkpt>
      <trkpt lat="41.591402000" lon="1.852955000">
        <ele>282.00</ele>
        <time>2011-04-05T13:26:36Z</time>
      </trkpt>
      <trkpt lat="41.591385000" lon="1.853030000">
        <ele>284.00</ele>
        <time>2011-04-05T13:26:38Z</time>
      </trkpt>
      <trkpt lat="41.591377000" lon="1.853063000">
        <ele>286.50</ele>
        <time>2011-04-05T13:26:40Z</time>
      </trkpt>
      <trkpt lat="41.591305000" lon="1.853082000">
        <ele>290.50</ele>
        <time>2011-04-05T13:26:47Z</time>
      </trkpt>
      <trkpt lat="41.591217000" lon="1.853097000">
        <ele>293.50</ele>
        <time>2011-04-05T13:26:52Z</time>
      </trkpt>
      <trkpt lat="41.591123000" lon="1.853123000">
        <ele>293.50</ele>
        <time>2011-04-05T13:26:57Z</time>
      </trkpt>
      <trkpt lat="41.591052000" lon="1.853147000">
        <ele>296.00</ele>
        <time>2011-04-05T13:27:01Z</time>
      </trkpt>
      <trkpt lat="41.591035000" lon="1.853193000">
        <ele>297.00</ele>
        <time>2011-04-05T13:27:04Z</time>
      </trkpt>
      <trkpt lat="41.591035000" lon="1.853323000">
        <ele>297.50</ele>
        <time>2011-04-05T13:27:15Z</time>
      </trkpt>
      <trkpt lat="41.590870000" lon="1.853423000">
        <ele>300.00</ele>
        <time>2011-04-05T13:27:20Z</time>
      </trkpt>
      <trkpt lat="41.590828000" lon="1.853448000">
        <ele>300.00</ele>
        <time>2011-04-05T13:27:25Z</time>
      </trkpt>
      <trkpt lat="41.590895000" lon="1.853420000">
        <ele>299.00</ele>
        <time>2011-04-05T13:27:30Z</time>
      </trkpt>
      <trkpt lat="41.590943000" lon="1.853413000">
        <ele>301.50</ele>
        <time>2011-04-05T13:27:32Z</time>
      </trkpt>
      <trkpt lat="41.591020000" lon="1.853393000">
        <ele>297.50</ele>
        <time>2011-04-05T13:27:37Z</time>
      </trkpt>
      <trkpt lat="41.591033000" lon="1.853392000">
        <ele>297.50</ele>
        <time>2011-04-05T13:27:39Z</time>
      </trkpt>
      <trkpt lat="41.590890000" lon="1.853425000">
        <ele>293.50</ele>
        <time>2011-04-05T13:27:51Z</time>
      </trkpt>
      <trkpt lat="41.590872000" lon="1.853438000">
        <ele>294.00</ele>
        <time>2011-04-05T13:27:51Z</time>
      </trkpt>
      <trkpt lat="41.590758000" lon="1.853540000">
        <ele>297.00</ele>
        <time>2011-04-05T13:27:56Z</time>
      </trkpt>
      <trkpt lat="41.590413000" lon="1.853815000">
        <ele>298.50</ele>
        <time>2011-04-05T13:28:07Z</time>
      </trkpt>
      <trkpt lat="41.590358000" lon="1.853868000">
        <ele>296.50</ele>
        <time>2011-04-05T13:28:09Z</time>
      </trkpt>
      <trkpt lat="41.590297000" lon="1.853928000">
        <ele>296.50</ele>
        <time>2011-04-05T13:28:10Z</time>
      </trkpt>
      <trkpt lat="41.590233000" lon="1.854003000">
        <ele>300.50</ele>
        <time>2011-04-05T13:28:14Z</time>
      </trkpt>
      <trkpt lat="41.590228000" lon="1.854005000">
        <ele>300.50</ele>
        <time>2011-04-05T13:28:17Z</time>
      </trkpt>
      <trkpt lat="41.590198000" lon="1.854048000">
        <ele>301.00</ele>
        <time>2011-04-05T13:28:24Z</time>
      </trkpt>
      <trkpt lat="41.590167000" lon="1.854097000">
        <ele>307.50</ele>
        <time>2011-04-05T13:28:31Z</time>
      </trkpt>
      <trkpt lat="41.590163000" lon="1.854173000">
        <ele>310.00</ele>
        <time>2011-04-05T13:28:35Z</time>
      </trkpt>
      <trkpt lat="41.590027000" lon="1.854350000">
        <ele>311.00</ele>
        <time>2011-04-05T13:28:42Z</time>
      </trkpt>
      <trkpt lat="41.589935000" lon="1.854568000">
        <ele>315.50</ele>
        <time>2011-04-05T13:28:49Z</time>
      </trkpt>
      <trkpt lat="41.589900000" lon="1.854712000">
        <ele>314.00</ele>
        <time>2011-04-05T13:28:54Z</time>
      </trkpt>
      <trkpt lat="41.589833000" lon="1.854855000">
        <ele>318.50</ele>
        <time>2011-04-05T13:28:59Z</time>
      </trkpt>
      <trkpt lat="41.589812000" lon="1.854885000">
        <ele>317.50</ele>
        <time>2011-04-05T13:28:59Z</time>
      </trkpt>
      <trkpt lat="41.589737000" lon="1.854910000">
        <ele>316.00</ele>
        <time>2011-04-05T13:29:03Z</time>
      </trkpt>
      <trkpt lat="41.589595000" lon="1.854792000">
        <ele>308.50</ele>
        <time>2011-04-05T13:29:08Z</time>
      </trkpt>
      <trkpt lat="41.589393000" lon="1.854665000">
        <ele>308.50</ele>
        <time>2011-04-05T13:29:18Z</time>
      </trkpt>
      <trkpt lat="41.589265000" lon="1.854685000">
        <ele>310.00</ele>
        <time>2011-04-05T13:29:22Z</time>
      </trkpt>
      <trkpt lat="41.589252000" lon="1.854693000">
        <ele>311.50</ele>
        <time>2011-04-05T13:29:25Z</time>
      </trkpt>
      <trkpt lat="41.588950000" lon="1.854803000">
        <ele>314.00</ele>
        <time>2011-04-05T13:29:36Z</time>
      </trkpt>
      <trkpt lat="41.588898000" lon="1.854833000">
        <ele>314.00</ele>
        <time>2011-04-05T13:29:39Z</time>
      </trkpt>
      <trkpt lat="41.588748000" lon="1.854937000">
        <ele>322.00</ele>
        <time>2011-04-05T13:29:46Z</time>
      </trkpt>
      <trkpt lat="41.588682000" lon="1.855010000">
        <ele>319.50</ele>
        <time>2011-04-05T13:29:48Z</time>
      </trkpt>
      <trkpt lat="41.588638000" lon="1.855047000">
        <ele>321.50</ele>
        <time>2011-04-05T13:29:50Z</time>
      </trkpt>
      <trkpt lat="41.588587000" lon="1.855073000">
        <ele>321.50</ele>
        <time>2011-04-05T13:29:53Z</time>
      </trkpt>
      <trkpt lat="41.588563000" lon="1.855077000">
        <ele>323.50</ele>
        <time>2011-04-05T13:29:53Z</time>
      </trkpt>
      <trkpt lat="41.588328000" lon="1.855212000">
        <ele>323.00</ele>
        <time>2011-04-05T13:30:04Z</time>
      </trkpt>
      <trkpt lat="41.588172000" lon="1.855327000">
        <ele>326.00</ele>
        <time>2011-04-05T13:30:12Z</time>
      </trkpt>
      <trkpt lat="41.588088000" lon="1.855375000">
        <ele>324.00</ele>
        <time>2011-04-05T13:30:16Z</time>
      </trkpt>
      <trkpt lat="41.587975000" lon="1.855728000">
        <ele>329.00</ele>
        <time>2011-04-05T13:30:28Z</time>
      </trkpt>
      <trkpt lat="41.587900000" lon="1.855753000">
        <ele>330.00</ele>
        <time>2011-04-05T13:30:31Z</time>
      </trkpt>
      <trkpt lat="41.587515000" lon="1.855820000">
        <ele>325.50</ele>
        <time>2011-04-05T13:30:45Z</time>
      </trkpt>
      <trkpt lat="41.587273000" lon="1.855868000">
        <ele>326.00</ele>
        <time>2011-04-05T13:30:56Z</time>
      </trkpt>
      <trkpt lat="41.587215000" lon="1.855958000">
        <ele>327.00</ele>
        <time>2011-04-05T13:30:59Z</time>
      </trkpt>
      <trkpt lat="41.587143000" lon="1.856072000">
        <ele>325.00</ele>
        <time>2011-04-05T13:31:03Z</time>
      </trkpt>
      <trkpt lat="41.587142000" lon="1.856198000">
        <ele>322.50</ele>
        <time>2011-04-05T13:31:10Z</time>
      </trkpt>
      <trkpt lat="41.587190000" lon="1.856408000">
        <ele>322.50</ele>
        <time>2011-04-05T13:31:25Z</time>
      </trkpt>
      <trkpt lat="41.587157000" lon="1.856457000">
        <ele>320.00</ele>
        <time>2011-04-05T13:31:34Z</time>
      </trkpt>
      <trkpt lat="41.587135000" lon="1.856468000">
        <ele>319.00</ele>
        <time>2011-04-05T13:31:36Z</time>
      </trkpt>
      <trkpt lat="41.587003000" lon="1.856547000">
        <ele>324.00</ele>
        <time>2011-04-05T13:31:45Z</time>
      </trkpt>
      <trkpt lat="41.586978000" lon="1.856555000">
        <ele>323.50</ele>
        <time>2011-04-05T13:31:46Z</time>
      </trkpt>
      <trkpt lat="41.586923000" lon="1.856558000">
        <ele>323.50</ele>
        <time>2011-04-05T13:31:48Z</time>
      </trkpt>
      <trkpt lat="41.586693000" lon="1.856578000">
        <ele>326.50</ele>
        <time>2011-04-05T13:31:57Z</time>
      </trkpt>
      <trkpt lat="41.586400000" lon="1.856600000">
        <ele>318.00</ele>
        <time>2011-04-05T13:32:09Z</time>
      </trkpt>
      <trkpt lat="41.586348000" lon="1.856662000">
        <ele>316.50</ele>
        <time>2011-04-05T13:32:11Z</time>
      </trkpt>
      <trkpt lat="41.586317000" lon="1.856748000">
        <ele>316.00</ele>
        <time>2011-04-05T13:32:14Z</time>
      </trkpt>
      <trkpt lat="41.586393000" lon="1.856930000">
        <ele>313.00</ele>
        <time>2011-04-05T13:32:19Z</time>
      </trkpt>
      <trkpt lat="41.586477000" lon="1.857290000">
        <ele>311.00</ele>
        <time>2011-04-05T13:32:26Z</time>
      </trkpt>
      <trkpt lat="41.586453000" lon="1.857898000">
        <ele>303.00</ele>
        <time>2011-04-05T13:32:44Z</time>
      </trkpt>
      <trkpt lat="41.586433000" lon="1.857955000">
        <ele>303.00</ele>
        <time>2011-04-05T13:32:46Z</time>
      </trkpt>
      <trkpt lat="41.586145000" lon="1.858028000">
        <ele>301.00</ele>
        <time>2011-04-05T13:32:56Z</time>
      </trkpt>
      <trkpt lat="41.585867000" lon="1.857768000">
        <ele>297.00</ele>
        <time>2011-04-05T13:33:06Z</time>
      </trkpt>
      <trkpt lat="41.585715000" lon="1.857692000">
        <ele>296.50</ele>
        <time>2011-04-05T13:33:15Z</time>
      </trkpt>
      <trkpt lat="41.585467000" lon="1.857733000">
        <ele>296.50</ele>
        <time>2011-04-05T13:33:22Z</time>
      </trkpt>
      <trkpt lat="41.585233000" lon="1.857753000">
        <ele>294.50</ele>
        <time>2011-04-05T13:33:29Z</time>
      </trkpt>
      <trkpt lat="41.585215000" lon="1.857757000">
        <ele>295.00</ele>
        <time>2011-04-05T13:33:31Z</time>
      </trkpt>
      <trkpt lat="41.585127000" lon="1.857840000">
        <ele>298.50</ele>
        <time>2011-04-05T13:33:36Z</time>
      </trkpt>
      <trkpt lat="41.585028000" lon="1.857965000">
        <ele>298.00</ele>
        <time>2011-04-05T13:33:41Z</time>
      </trkpt>
      <trkpt lat="41.584965000" lon="1.858038000">
        <ele>299.50</ele>
        <time>2011-04-05T13:33:47Z</time>
      </trkpt>
      <trkpt lat="41.584947000" lon="1.858032000">
        <ele>298.00</ele>
        <time>2011-04-05T13:34:11Z</time>
      </trkpt>
      <trkpt lat="41.584908000" lon="1.858102000">
        <ele>296.00</ele>
        <time>2011-04-05T13:34:21Z</time>
      </trkpt>
      <trkpt lat="41.584885000" lon="1.858175000">
        <ele>298.00</ele>
        <time>2011-04-05T13:34:23Z</time>
      </trkpt>
      <trkpt lat="41.584770000" lon="1.858412000">
        <ele>299.50</ele>
        <time>2011-04-05T13:34:28Z</time>
      </trkpt>
      <trkpt lat="41.584750000" lon="1.858442000">
        <ele>301.00</ele>
        <time>2011-04-05T13:34:30Z</time>
      </trkpt>
      <trkpt lat="41.584582000" lon="1.858545000">
        <ele>301.50</ele>
        <time>2011-04-05T13:34:35Z</time>
      </trkpt>
      <trkpt lat="41.584568000" lon="1.858577000">
        <ele>302.50</ele>
        <time>2011-04-05T13:34:37Z</time>
      </trkpt>
      <trkpt lat="41.584578000" lon="1.858690000">
        <ele>304.00</ele>
        <time>2011-04-05T13:34:39Z</time>
      </trkpt>
      <trkpt lat="41.584617000" lon="1.858872000">
        <ele>298.50</ele>
        <time>2011-04-05T13:34:44Z</time>
      </trkpt>
      <trkpt lat="41.584705000" lon="1.859197000">
        <ele>300.50</ele>
        <time>2011-04-05T13:34:51Z</time>
      </trkpt>
      <trkpt lat="41.584825000" lon="1.859603000">
        <ele>299.50</ele>
        <time>2011-04-05T13:34:58Z</time>
      </trkpt>
      <trkpt lat="41.584862000" lon="1.859753000">
        <ele>302.00</ele>
        <time>2011-04-05T13:35:01Z</time>
      </trkpt>
      <trkpt lat="41.584862000" lon="1.859815000">
        <ele>300.00</ele>
        <time>2011-04-05T13:35:03Z</time>
      </trkpt>
      <trkpt lat="41.584787000" lon="1.860267000">
        <ele>301.00</ele>
        <time>2011-04-05T13:35:12Z</time>
      </trkpt>
      <trkpt lat="41.584780000" lon="1.860305000">
        <ele>302.50</ele>
        <time>2011-04-05T13:35:12Z</time>
      </trkpt>
      <trkpt lat="41.584727000" lon="1.860525000">
        <ele>301.50</ele>
        <time>2011-04-05T13:35:17Z</time>
      </trkpt>
      <trkpt lat="41.584705000" lon="1.860557000">
        <ele>302.00</ele>
        <time>2011-04-05T13:35:19Z</time>
      </trkpt>
      <trkpt lat="41.584667000" lon="1.860573000">
        <ele>303.50</ele>
        <time>2011-04-05T13:35:19Z</time>
      </trkpt>
      <trkpt lat="41.584625000" lon="1.860563000">
        <ele>306.50</ele>
        <time>2011-04-05T13:35:21Z</time>
      </trkpt>
      <trkpt lat="41.584482000" lon="1.860428000">
        <ele>307.50</ele>
        <time>2011-04-05T13:35:26Z</time>
      </trkpt>
      <trkpt lat="41.584318000" lon="1.860295000">
        <ele>307.00</ele>
        <time>2011-04-05T13:35:31Z</time>
      </trkpt>
      <trkpt lat="41.584100000" lon="1.860130000">
        <ele>304.00</ele>
        <time>2011-04-05T13:35:40Z</time>
      </trkpt>
      <trkpt lat="41.584075000" lon="1.860105000">
        <ele>303.50</ele>
        <time>2011-04-05T13:35:40Z</time>
      </trkpt>
      <trkpt lat="41.583935000" lon="1.859908000">
        <ele>304.00</ele>
        <time>2011-04-05T13:35:47Z</time>
      </trkpt>
      <trkpt lat="41.583783000" lon="1.859890000">
        <ele>303.50</ele>
        <time>2011-04-05T13:35:52Z</time>
      </trkpt>
      <trkpt lat="41.583542000" lon="1.860213000">
        <ele>304.00</ele>
        <time>2011-04-05T13:36:01Z</time>
      </trkpt>
      <trkpt lat="41.583497000" lon="1.860235000">
        <ele>303.00</ele>
        <time>2011-04-05T13:36:01Z</time>
      </trkpt>
      <trkpt lat="41.583410000" lon="1.860238000">
        <ele>305.50</ele>
        <time>2011-04-05T13:36:04Z</time>
      </trkpt>
      <trkpt lat="41.583280000" lon="1.860260000">
        <ele>305.50</ele>
        <time>2011-04-05T13:36:06Z</time>
      </trkpt>
      <trkpt lat="41.582958000" lon="1.860378000">
        <ele>303.00</ele>
        <time>2011-04-05T13:36:15Z</time>
      </trkpt>
      <trkpt lat="41.582843000" lon="1.860603000">
        <ele>301.50</ele>
        <time>2011-04-05T13:36:20Z</time>
      </trkpt>
      <trkpt lat="41.582817000" lon="1.860635000">
        <ele>301.50</ele>
        <time>2011-04-05T13:36:20Z</time>
      </trkpt>
      <trkpt lat="41.582735000" lon="1.860653000">
        <ele>303.50</ele>
        <time>2011-04-05T13:36:23Z</time>
      </trkpt>
      <trkpt lat="41.582533000" lon="1.860633000">
        <ele>304.00</ele>
        <time>2011-04-05T13:36:27Z</time>
      </trkpt>
      <trkpt lat="41.582300000" lon="1.860733000">
        <ele>305.00</ele>
        <time>2011-04-05T13:36:34Z</time>
      </trkpt>
      <trkpt lat="41.582278000" lon="1.860770000">
        <ele>303.50</ele>
        <time>2011-04-05T13:36:34Z</time>
      </trkpt>
      <trkpt lat="41.582182000" lon="1.860990000">
        <ele>305.50</ele>
        <time>2011-04-05T13:36:39Z</time>
      </trkpt>
      <trkpt lat="41.581932000" lon="1.861205000">
        <ele>305.50</ele>
        <time>2011-04-05T13:36:46Z</time>
      </trkpt>
      <trkpt lat="41.581835000" lon="1.861662000">
        <ele>302.50</ele>
        <time>2011-04-05T13:36:55Z</time>
      </trkpt>
      <trkpt lat="41.581788000" lon="1.861828000">
        <ele>304.50</ele>
        <time>2011-04-05T13:36:58Z</time>
      </trkpt>
      <trkpt lat="41.581723000" lon="1.862003000">
        <ele>305.00</ele>
        <time>2011-04-05T13:37:00Z</time>
      </trkpt>
      <trkpt lat="41.581632000" lon="1.862152000">
        <ele>304.50</ele>
        <time>2011-04-05T13:37:03Z</time>
      </trkpt>
      <trkpt lat="41.581175000" lon="1.862063000">
        <ele>305.00</ele>
        <time>2011-04-05T13:37:14Z</time>
      </trkpt>
      <trkpt lat="41.581088000" lon="1.862073000">
        <ele>305.50</ele>
        <time>2011-04-05T13:37:16Z</time>
      </trkpt>
      <trkpt lat="41.580913000" lon="1.862205000">
        <ele>307.00</ele>
        <time>2011-04-05T13:37:21Z</time>
      </trkpt>
      <trkpt lat="41.580803000" lon="1.862277000">
        <ele>310.00</ele>
        <time>2011-04-05T13:37:24Z</time>
      </trkpt>
      <trkpt lat="41.580763000" lon="1.862297000">
        <ele>310.00</ele>
        <time>2011-04-05T13:37:24Z</time>
      </trkpt>
      <trkpt lat="41.580475000" lon="1.862325000">
        <ele>308.50</ele>
        <time>2011-04-05T13:37:31Z</time>
      </trkpt>
      <trkpt lat="41.579513000" lon="1.862438000">
        <ele>310.50</ele>
        <time>2011-04-05T13:37:59Z</time>
      </trkpt>
      <trkpt lat="41.579450000" lon="1.862440000">
        <ele>311.50</ele>
        <time>2011-04-05T13:38:01Z</time>
      </trkpt>
      <trkpt lat="41.579392000" lon="1.862462000">
        <ele>313.00</ele>
        <time>2011-04-05T13:38:03Z</time>
      </trkpt>
      <trkpt lat="41.579190000" lon="1.862600000">
        <ele>313.50</ele>
        <time>2011-04-05T13:38:10Z</time>
      </trkpt>
      <trkpt lat="41.578975000" lon="1.862637000">
        <ele>314.50</ele>
        <time>2011-04-05T13:38:15Z</time>
      </trkpt>
      <trkpt lat="41.578848000" lon="1.862657000">
        <ele>316.50</ele>
        <time>2011-04-05T13:38:20Z</time>
      </trkpt>
      <trkpt lat="41.578713000" lon="1.862658000">
        <ele>316.00</ele>
        <time>2011-04-05T13:38:24Z</time>
      </trkpt>
      <trkpt lat="41.578650000" lon="1.862655000">
        <ele>317.50</ele>
        <time>2011-04-05T13:38:25Z</time>
      </trkpt>
      <trkpt lat="41.578512000" lon="1.862760000">
        <ele>319.00</ele>
        <time>2011-04-05T13:38:29Z</time>
      </trkpt>
      <trkpt lat="41.578407000" lon="1.862803000">
        <ele>322.50</ele>
        <time>2011-04-05T13:38:32Z</time>
      </trkpt>
      <trkpt lat="41.578370000" lon="1.862808000">
        <ele>324.00</ele>
        <time>2011-04-05T13:38:34Z</time>
      </trkpt>
      <trkpt lat="41.578000000" lon="1.862827000">
        <ele>323.50</ele>
        <time>2011-04-05T13:38:41Z</time>
      </trkpt>
      <trkpt lat="41.577958000" lon="1.862835000">
        <ele>324.00</ele>
        <time>2011-04-05T13:38:43Z</time>
      </trkpt>
      <trkpt lat="41.577887000" lon="1.862897000">
        <ele>326.00</ele>
        <time>2011-04-05T13:38:44Z</time>
      </trkpt>
      <trkpt lat="41.577677000" lon="1.863183000">
        <ele>324.00</ele>
        <time>2011-04-05T13:38:50Z</time>
      </trkpt>
      <trkpt lat="41.577587000" lon="1.863352000">
        <ele>325.00</ele>
        <time>2011-04-05T13:38:53Z</time>
      </trkpt>
      <trkpt lat="41.577160000" lon="1.863435000">
        <ele>320.00</ele>
        <time>2011-04-05T13:39:02Z</time>
      </trkpt>
      <trkpt lat="41.577115000" lon="1.863455000">
        <ele>319.50</ele>
        <time>2011-04-05T13:39:02Z</time>
      </trkpt>
      <trkpt lat="41.577032000" lon="1.863547000">
        <ele>319.00</ele>
        <time>2011-04-05T13:39:05Z</time>
      </trkpt>
      <trkpt lat="41.576933000" lon="1.863733000">
        <ele>318.00</ele>
        <time>2011-04-05T13:39:07Z</time>
      </trkpt>
      <trkpt lat="41.576907000" lon="1.863907000">
        <ele>315.50</ele>
        <time>2011-04-05T13:39:09Z</time>
      </trkpt>
      <trkpt lat="41.576983000" lon="1.864130000">
        <ele>315.50</ele>
        <time>2011-04-05T13:39:14Z</time>
      </trkpt>
      <trkpt lat="41.577003000" lon="1.864182000">
        <ele>313.50</ele>
        <time>2011-04-05T13:39:16Z</time>
      </trkpt>
      <trkpt lat="41.577008000" lon="1.864305000">
        <ele>316.00</ele>
        <time>2011-04-05T13:39:18Z</time>
      </trkpt>
      <trkpt lat="41.577007000" lon="1.864368000">
        <ele>315.50</ele>
        <time>2011-04-05T13:39:19Z</time>
      </trkpt>
      <trkpt lat="41.576957000" lon="1.864557000">
        <ele>316.00</ele>
        <time>2011-04-05T13:39:21Z</time>
      </trkpt>
      <trkpt lat="41.576920000" lon="1.864645000">
        <ele>318.50</ele>
        <time>2011-04-05T13:39:23Z</time>
      </trkpt>
      <trkpt lat="41.576883000" lon="1.864782000">
        <ele>318.00</ele>
        <time>2011-04-05T13:39:26Z</time>
      </trkpt>
      <trkpt lat="41.576803000" lon="1.864912000">
        <ele>321.00</ele>
        <time>2011-04-05T13:39:30Z</time>
      </trkpt>
      <trkpt lat="41.576655000" lon="1.865058000">
        <ele>321.00</ele>
        <time>2011-04-05T13:39:35Z</time>
      </trkpt>
      <trkpt lat="41.576435000" lon="1.865168000">
        <ele>319.50</ele>
        <time>2011-04-05T13:39:42Z</time>
      </trkpt>
      <trkpt lat="41.576422000" lon="1.865202000">
        <ele>320.00</ele>
        <time>2011-04-05T13:39:44Z</time>
      </trkpt>
      <trkpt lat="41.576435000" lon="1.865278000">
        <ele>322.00</ele>
        <time>2011-04-05T13:39:45Z</time>
      </trkpt>
      <trkpt lat="41.576573000" lon="1.865653000">
        <ele>319.00</ele>
        <time>2011-04-05T13:39:52Z</time>
      </trkpt>
      <trkpt lat="41.576593000" lon="1.865842000">
        <ele>317.00</ele>
        <time>2011-04-05T13:39:56Z</time>
      </trkpt>
      <trkpt lat="41.576587000" lon="1.866018000">
        <ele>318.00</ele>
        <time>2011-04-05T13:39:59Z</time>
      </trkpt>
      <trkpt lat="41.576513000" lon="1.866170000">
        <ele>317.00</ele>
        <time>2011-04-05T13:40:01Z</time>
      </trkpt>
      <trkpt lat="41.576495000" lon="1.866207000">
        <ele>319.50</ele>
        <time>2011-04-05T13:40:03Z</time>
      </trkpt>
      <trkpt lat="41.576452000" lon="1.866243000">
        <ele>317.50</ele>
        <time>2011-04-05T13:40:06Z</time>
      </trkpt>
      <trkpt lat="41.576300000" lon="1.866352000">
        <ele>316.50</ele>
        <time>2011-04-05T13:40:12Z</time>
      </trkpt>
      <trkpt lat="41.576282000" lon="1.866433000">
        <ele>315.00</ele>
        <time>2011-04-05T13:40:13Z</time>
      </trkpt>
      <trkpt lat="41.576287000" lon="1.866507000">
        <ele>317.50</ele>
        <time>2011-04-05T13:40:15Z</time>
      </trkpt>
      <trkpt lat="41.576258000" lon="1.866677000">
        <ele>316.00</ele>
        <time>2011-04-05T13:40:20Z</time>
      </trkpt>
      <trkpt lat="41.576195000" lon="1.866735000">
        <ele>315.50</ele>
        <time>2011-04-05T13:40:22Z</time>
      </trkpt>
      <trkpt lat="41.576157000" lon="1.866777000">
        <ele>313.50</ele>
        <time>2011-04-05T13:40:24Z</time>
      </trkpt>
      <trkpt lat="41.576062000" lon="1.866830000">
        <ele>317.50</ele>
        <time>2011-04-05T13:40:31Z</time>
      </trkpt>
      <trkpt lat="41.575987000" lon="1.866868000">
        <ele>317.50</ele>
        <time>2011-04-05T13:40:34Z</time>
      </trkpt>
      <trkpt lat="41.575962000" lon="1.866907000">
        <ele>317.50</ele>
        <time>2011-04-05T13:40:36Z</time>
      </trkpt>
      <trkpt lat="41.575900000" lon="1.866993000">
        <ele>313.00</ele>
        <time>2011-04-05T13:40:41Z</time>
      </trkpt>
      <trkpt lat="41.575865000" lon="1.867062000">
        <ele>313.00</ele>
        <time>2011-04-05T13:40:45Z</time>
      </trkpt>
      <trkpt lat="41.575812000" lon="1.867093000">
        <ele>316.00</ele>
        <time>2011-04-05T13:40:48Z</time>
      </trkpt>
      <trkpt lat="41.575742000" lon="1.867260000">
        <ele>315.00</ele>
        <time>2011-04-05T13:40:53Z</time>
      </trkpt>
      <trkpt lat="41.575732000" lon="1.867273000">
        <ele>317.00</ele>
        <time>2011-04-05T13:40:55Z</time>
      </trkpt>
      <trkpt lat="41.575712000" lon="1.867333000">
        <ele>317.50</ele>
        <time>2011-04-05T13:40:57Z</time>
      </trkpt>
      <trkpt lat="41.575717000" lon="1.867367000">
        <ele>318.50</ele>
        <time>2011-04-05T13:41:00Z</time>
      </trkpt>
      <trkpt lat="41.575722000" lon="1.867435000">
        <ele>323.50</ele>
        <time>2011-04-05T13:41:02Z</time>
      </trkpt>
      <trkpt lat="41.575725000" lon="1.867542000">
        <ele>324.50</ele>
        <time>2011-04-05T13:41:07Z</time>
      </trkpt>
      <trkpt lat="41.575733000" lon="1.867612000">
        <ele>329.00</ele>
        <time>2011-04-05T13:41:09Z</time>
      </trkpt>
      <trkpt lat="41.575777000" lon="1.867715000">
        <ele>330.00</ele>
        <time>2011-04-05T13:41:12Z</time>
      </trkpt>
      <trkpt lat="41.575793000" lon="1.867730000">
        <ele>330.00</ele>
        <time>2011-04-05T13:41:14Z</time>
      </trkpt>
      <trkpt lat="41.575933000" lon="1.867713000">
        <ele>326.50</ele>
        <time>2011-04-05T13:41:19Z</time>
      </trkpt>
      <trkpt lat="41.576025000" lon="1.867763000">
        <ele>326.50</ele>
        <time>2011-04-05T13:41:23Z</time>
      </trkpt>
      <trkpt lat="41.576055000" lon="1.867783000">
        <ele>329.00</ele>
        <time>2011-04-05T13:41:25Z</time>
      </trkpt>
      <trkpt lat="41.576255000" lon="1.867793000">
        <ele>330.50</ele>
        <time>2011-04-05T13:41:33Z</time>
      </trkpt>
      <trkpt lat="41.576332000" lon="1.867808000">
        <ele>329.00</ele>
        <time>2011-04-05T13:41:37Z</time>
      </trkpt>
      <trkpt lat="41.576403000" lon="1.867848000">
        <ele>328.50</ele>
        <time>2011-04-05T13:41:40Z</time>
      </trkpt>
      <trkpt lat="41.576445000" lon="1.867880000">
        <ele>326.50</ele>
        <time>2011-04-05T13:41:42Z</time>
      </trkpt>
      <trkpt lat="41.576507000" lon="1.867955000">
        <ele>326.50</ele>
        <time>2011-04-05T13:41:44Z</time>
      </trkpt>
      <trkpt lat="41.576622000" lon="1.868217000">
        <ele>327.50</ele>
        <time>2011-04-05T13:41:53Z</time>
      </trkpt>
      <trkpt lat="41.576772000" lon="1.868457000">
        <ele>325.00</ele>
        <time>2011-04-05T13:42:03Z</time>
      </trkpt>
      <trkpt lat="41.576792000" lon="1.868562000">
        <ele>324.00</ele>
        <time>2011-04-05T13:42:05Z</time>
      </trkpt>
      <trkpt lat="41.576810000" lon="1.868798000">
        <ele>325.00</ele>
        <time>2011-04-05T13:42:12Z</time>
      </trkpt>
      <trkpt lat="41.576827000" lon="1.868822000">
        <ele>325.00</ele>
        <time>2011-04-05T13:42:13Z</time>
      </trkpt>
      <trkpt lat="41.576882000" lon="1.868892000">
        <ele>323.00</ele>
        <time>2011-04-05T13:42:17Z</time>
      </trkpt>
      <trkpt lat="41.576978000" lon="1.868993000">
        <ele>322.50</ele>
        <time>2011-04-05T13:42:22Z</time>
      </trkpt>
      <trkpt lat="41.577113000" lon="1.869215000">
        <ele>325.00</ele>
        <time>2011-04-05T13:42:29Z</time>
      </trkpt>
      <trkpt lat="41.577125000" lon="1.869245000">
        <ele>325.00</ele>
        <time>2011-04-05T13:42:31Z</time>
      </trkpt>
      <trkpt lat="41.577165000" lon="1.869475000">
        <ele>329.50</ele>
        <time>2011-04-05T13:42:36Z</time>
      </trkpt>
      <trkpt lat="41.577187000" lon="1.869653000">
        <ele>328.00</ele>
        <time>2011-04-05T13:42:41Z</time>
      </trkpt>
      <trkpt lat="41.577200000" lon="1.869687000">
        <ele>328.50</ele>
        <time>2011-04-05T13:42:43Z</time>
      </trkpt>
      <trkpt lat="41.577232000" lon="1.869738000">
        <ele>329.50</ele>
        <time>2011-04-05T13:42:45Z</time>
      </trkpt>
      <trkpt lat="41.577412000" lon="1.869915000">
        <ele>329.50</ele>
        <time>2011-04-05T13:42:52Z</time>
      </trkpt>
      <trkpt lat="41.577422000" lon="1.869950000">
        <ele>330.00</ele>
        <time>2011-04-05T13:42:54Z</time>
      </trkpt>
      <trkpt lat="41.577423000" lon="1.870038000">
        <ele>328.00</ele>
        <time>2011-04-05T13:42:55Z</time>
      </trkpt>
      <trkpt lat="41.577457000" lon="1.870300000">
        <ele>328.00</ele>
        <time>2011-04-05T13:43:02Z</time>
      </trkpt>
      <trkpt lat="41.577442000" lon="1.870377000">
        <ele>330.00</ele>
        <time>2011-04-05T13:43:04Z</time>
      </trkpt>
      <trkpt lat="41.577367000" lon="1.870483000">
        <ele>331.00</ele>
        <time>2011-04-05T13:43:09Z</time>
      </trkpt>
      <trkpt lat="41.577360000" lon="1.870555000">
        <ele>329.00</ele>
        <time>2011-04-05T13:43:11Z</time>
      </trkpt>
      <trkpt lat="41.577333000" lon="1.870735000">
        <ele>329.00</ele>
        <time>2011-04-05T13:43:16Z</time>
      </trkpt>
      <trkpt lat="41.577323000" lon="1.870807000">
        <ele>330.50</ele>
        <time>2011-04-05T13:43:18Z</time>
      </trkpt>
      <trkpt lat="41.577293000" lon="1.870923000">
        <ele>330.00</ele>
        <time>2011-04-05T13:43:21Z</time>
      </trkpt>
      <trkpt lat="41.577270000" lon="1.870985000">
        <ele>332.00</ele>
        <time>2011-04-05T13:43:23Z</time>
      </trkpt>
      <trkpt lat="41.577238000" lon="1.871068000">
        <ele>330.50</ele>
        <time>2011-04-05T13:43:25Z</time>
      </trkpt>
      <trkpt lat="41.577213000" lon="1.871122000">
        <ele>332.50</ele>
        <time>2011-04-05T13:43:28Z</time>
      </trkpt>
      <trkpt lat="41.577127000" lon="1.871238000">
        <ele>332.00</ele>
        <time>2011-04-05T13:43:34Z</time>
      </trkpt>
      <trkpt lat="41.576922000" lon="1.871237000">
        <ele>331.00</ele>
        <time>2011-04-05T13:43:42Z</time>
      </trkpt>
      <trkpt lat="41.576888000" lon="1.871222000">
        <ele>331.00</ele>
        <time>2011-04-05T13:43:42Z</time>
      </trkpt>
      <trkpt lat="41.576787000" lon="1.871167000">
        <ele>333.00</ele>
        <time>2011-04-05T13:43:46Z</time>
      </trkpt>
      <trkpt lat="41.576677000" lon="1.871052000">
        <ele>339.00</ele>
        <time>2011-04-05T13:43:51Z</time>
      </trkpt>
      <trkpt lat="41.576628000" lon="1.871023000">
        <ele>339.00</ele>
        <time>2011-04-05T13:43:53Z</time>
      </trkpt>
      <trkpt lat="41.576602000" lon="1.871022000">
        <ele>339.50</ele>
        <time>2011-04-05T13:43:53Z</time>
      </trkpt>
      <trkpt lat="41.576540000" lon="1.871037000">
        <ele>341.00</ele>
        <time>2011-04-05T13:43:56Z</time>
      </trkpt>
      <trkpt lat="41.576430000" lon="1.871112000">
        <ele>344.50</ele>
        <time>2011-04-05T13:44:00Z</time>
      </trkpt>
      <trkpt lat="41.576373000" lon="1.871202000">
        <ele>344.00</ele>
        <time>2011-04-05T13:44:03Z</time>
      </trkpt>
      <trkpt lat="41.576265000" lon="1.871355000">
        <ele>349.50</ele>
        <time>2011-04-05T13:44:10Z</time>
      </trkpt>
      <trkpt lat="41.576117000" lon="1.871588000">
        <ele>351.50</ele>
        <time>2011-04-05T13:44:21Z</time>
      </trkpt>
      <trkpt lat="41.576075000" lon="1.871642000">
        <ele>354.50</ele>
        <time>2011-04-05T13:44:24Z</time>
      </trkpt>
      <trkpt lat="41.576000000" lon="1.871730000">
        <ele>355.50</ele>
        <time>2011-04-05T13:44:29Z</time>
      </trkpt>
      <trkpt lat="41.575972000" lon="1.871757000">
        <ele>356.50</ele>
        <time>2011-04-05T13:44:31Z</time>
      </trkpt>
      <trkpt lat="41.575828000" lon="1.871813000">
        <ele>361.50</ele>
        <time>2011-04-05T13:44:38Z</time>
      </trkpt>
      <trkpt lat="41.575718000" lon="1.871888000">
        <ele>363.00</ele>
        <time>2011-04-05T13:44:45Z</time>
      </trkpt>
      <trkpt lat="41.575667000" lon="1.871920000">
        <ele>362.00</ele>
        <time>2011-04-05T13:44:47Z</time>
      </trkpt>
      <trkpt lat="41.575637000" lon="1.871938000">
        <ele>363.50</ele>
        <time>2011-04-05T13:44:50Z</time>
      </trkpt>
      <trkpt lat="41.575570000" lon="1.872043000">
        <ele>363.00</ele>
        <time>2011-04-05T13:44:54Z</time>
      </trkpt>
      <trkpt lat="41.575550000" lon="1.872067000">
        <ele>361.50</ele>
        <time>2011-04-05T13:44:55Z</time>
      </trkpt>
      <trkpt lat="41.575352000" lon="1.872197000">
        <ele>363.00</ele>
        <time>2011-04-05T13:45:06Z</time>
      </trkpt>
      <trkpt lat="41.575238000" lon="1.872247000">
        <ele>365.00</ele>
        <time>2011-04-05T13:45:11Z</time>
      </trkpt>
      <trkpt lat="41.575152000" lon="1.872298000">
        <ele>369.50</ele>
        <time>2011-04-05T13:45:16Z</time>
      </trkpt>
      <trkpt lat="41.575048000" lon="1.872365000">
        <ele>371.50</ele>
        <time>2011-04-05T13:45:23Z</time>
      </trkpt>
      <trkpt lat="41.574987000" lon="1.872402000">
        <ele>370.00</ele>
        <time>2011-04-05T13:45:27Z</time>
      </trkpt>
      <trkpt lat="41.574820000" lon="1.872515000">
        <ele>372.50</ele>
        <time>2011-04-05T13:45:39Z</time>
      </trkpt>
      <trkpt lat="41.574720000" lon="1.872587000">
        <ele>371.50</ele>
        <time>2011-04-05T13:45:46Z</time>
      </trkpt>
      <trkpt lat="41.574583000" lon="1.872675000">
        <ele>377.00</ele>
        <time>2011-04-05T13:45:55Z</time>
      </trkpt>
      <trkpt lat="41.574570000" lon="1.872680000">
        <ele>377.00</ele>
        <time>2011-04-05T13:45:56Z</time>
      </trkpt>
      <trkpt lat="41.574433000" lon="1.872593000">
        <ele>380.50</ele>
        <time>2011-04-05T13:46:07Z</time>
      </trkpt>
      <trkpt lat="41.574320000" lon="1.872513000">
        <ele>380.00</ele>
        <time>2011-04-05T13:46:19Z</time>
      </trkpt>
      <trkpt lat="41.574282000" lon="1.872358000">
        <ele>377.50</ele>
        <time>2011-04-05T13:46:28Z</time>
      </trkpt>
      <trkpt lat="41.574208000" lon="1.872308000">
        <ele>377.50</ele>
        <time>2011-04-05T13:46:31Z</time>
      </trkpt>
      <trkpt lat="41.574252000" lon="1.872277000">
        <ele>378.50</ele>
        <time>2011-04-05T13:46:36Z</time>
      </trkpt>
      <trkpt lat="41.574233000" lon="1.872337000">
        <ele>378.50</ele>
        <time>2011-04-05T13:46:42Z</time>
      </trkpt>
      <trkpt lat="41.574140000" lon="1.872257000">
        <ele>378.50</ele>
        <time>2011-04-05T13:46:47Z</time>
      </trkpt>
      <trkpt lat="41.574065000" lon="1.872217000">
        <ele>377.00</ele>
        <time>2011-04-05T13:46:52Z</time>
      </trkpt>
      <trkpt lat="41.573343000" lon="1.872110000">
        <ele>364.50</ele>
        <time>2011-04-05T13:47:10Z</time>
      </trkpt>
      <trkpt lat="41.573263000" lon="1.872062000">
        <ele>363.50</ele>
        <time>2011-04-05T13:47:11Z</time>
      </trkpt>
      <trkpt lat="41.572752000" lon="1.871687000">
        <ele>359.00</ele>
        <time>2011-04-05T13:47:20Z</time>
      </trkpt>
      <trkpt lat="41.572515000" lon="1.871572000">
        <ele>357.00</ele>
        <time>2011-04-05T13:47:24Z</time>
      </trkpt>
      <trkpt lat="41.571977000" lon="1.871370000">
        <ele>350.50</ele>
        <time>2011-04-05T13:47:34Z</time>
      </trkpt>
      <trkpt lat="41.571855000" lon="1.871212000">
        <ele>349.50</ele>
        <time>2011-04-05T13:47:36Z</time>
      </trkpt>
      <trkpt lat="41.571837000" lon="1.871120000">
        <ele>351.00</ele>
        <time>2011-04-05T13:47:39Z</time>
      </trkpt>
      <trkpt lat="41.571843000" lon="1.871057000">
        <ele>351.50</ele>
        <time>2011-04-05T13:47:41Z</time>
      </trkpt>
      <trkpt lat="41.571938000" lon="1.870788000">
        <ele>350.00</ele>
        <time>2011-04-05T13:47:46Z</time>
      </trkpt>
      <trkpt lat="41.572070000" lon="1.870285000">
        <ele>344.00</ele>
        <time>2011-04-05T13:47:51Z</time>
      </trkpt>
      <trkpt lat="41.571718000" lon="1.869650000">
        <ele>336.50</ele>
        <time>2011-04-05T13:48:00Z</time>
      </trkpt>
      <trkpt lat="41.571697000" lon="1.869577000">
        <ele>336.00</ele>
        <time>2011-04-05T13:48:02Z</time>
      </trkpt>
      <trkpt lat="41.571573000" lon="1.868745000">
        <ele>329.00</ele>
        <time>2011-04-05T13:48:11Z</time>
      </trkpt>
      <trkpt lat="41.571490000" lon="1.868223000">
        <ele>327.00</ele>
        <time>2011-04-05T13:48:16Z</time>
      </trkpt>
      <trkpt lat="41.571415000" lon="1.867772000">
        <ele>321.00</ele>
        <time>2011-04-05T13:48:23Z</time>
      </trkpt>
      <trkpt lat="41.571368000" lon="1.867815000">
        <ele>318.50</ele>
        <time>2011-04-05T13:48:24Z</time>
      </trkpt>
      <trkpt lat="41.571355000" lon="1.867857000">
        <ele>317.50</ele>
        <time>2011-04-05T13:48:26Z</time>
      </trkpt>
      <trkpt lat="41.571295000" lon="1.868307000">
        <ele>316.50</ele>
        <time>2011-04-05T13:48:35Z</time>
      </trkpt>
      <trkpt lat="41.571285000" lon="1.868557000">
        <ele>312.50</ele>
        <time>2011-04-05T13:48:40Z</time>
      </trkpt>
      <trkpt lat="41.571168000" lon="1.868800000">
        <ele>308.50</ele>
        <time>2011-04-05T13:48:42Z</time>
      </trkpt>
      <trkpt lat="41.571072000" lon="1.869135000">
        <ele>306.00</ele>
        <time>2011-04-05T13:48:47Z</time>
      </trkpt>
      <trkpt lat="41.570887000" lon="1.869570000">
        <ele>300.00</ele>
        <time>2011-04-05T13:48:52Z</time>
      </trkpt>
      <trkpt lat="41.570885000" lon="1.869653000">
        <ele>300.00</ele>
        <time>2011-04-05T13:48:54Z</time>
      </trkpt>
      <trkpt lat="41.570968000" lon="1.869902000">
        <ele>300.50</ele>
        <time>2011-04-05T13:48:58Z</time>
      </trkpt>
      <trkpt lat="41.571088000" lon="1.869995000">
        <ele>301.00</ele>
        <time>2011-04-05T13:49:01Z</time>
      </trkpt>
      <trkpt lat="41.571250000" lon="1.870148000">
        <ele>299.00</ele>
        <time>2011-04-05T13:49:06Z</time>
      </trkpt>
      <trkpt lat="41.571295000" lon="1.870230000">
        <ele>300.50</ele>
        <time>2011-04-05T13:49:08Z</time>
      </trkpt>
      <trkpt lat="41.571242000" lon="1.870363000">
        <ele>298.00</ele>
        <time>2011-04-05T13:49:12Z</time>
      </trkpt>
      <trkpt lat="41.571183000" lon="1.870578000">
        <ele>298.00</ele>
        <time>2011-04-05T13:49:17Z</time>
      </trkpt>
      <trkpt lat="41.571157000" lon="1.870753000">
        <ele>301.50</ele>
        <time>2011-04-05T13:49:20Z</time>
      </trkpt>
      <trkpt lat="41.571063000" lon="1.871023000">
        <ele>299.00</ele>
        <time>2011-04-05T13:49:27Z</time>
      </trkpt>
      <trkpt lat="41.571063000" lon="1.871128000">
        <ele>299.00</ele>
        <time>2011-04-05T13:49:29Z</time>
      </trkpt>
      <trkpt lat="41.571157000" lon="1.871380000">
        <ele>300.00</ele>
        <time>2011-04-05T13:49:34Z</time>
      </trkpt>
      <trkpt lat="41.571252000" lon="1.871535000">
        <ele>298.50</ele>
        <time>2011-04-05T13:49:38Z</time>
      </trkpt>
      <trkpt lat="41.571307000" lon="1.871800000">
        <ele>296.50</ele>
        <time>2011-04-05T13:49:43Z</time>
      </trkpt>
      <trkpt lat="41.571377000" lon="1.872097000">
        <ele>296.50</ele>
        <time>2011-04-05T13:49:48Z</time>
      </trkpt>
      <trkpt lat="41.571410000" lon="1.872222000">
        <ele>295.00</ele>
        <time>2011-04-05T13:49:50Z</time>
      </trkpt>
      <trkpt lat="41.571470000" lon="1.872350000">
        <ele>292.50</ele>
        <time>2011-04-05T13:49:53Z</time>
      </trkpt>
      <trkpt lat="41.571628000" lon="1.872560000">
        <ele>292.50</ele>
        <time>2011-04-05T13:49:57Z</time>
      </trkpt>
      <trkpt lat="41.571688000" lon="1.873022000">
        <ele>291.50</ele>
        <time>2011-04-05T13:50:02Z</time>
      </trkpt>
      <trkpt lat="41.571738000" lon="1.873230000">
        <ele>289.00</ele>
        <time>2011-04-05T13:50:04Z</time>
      </trkpt>
      <trkpt lat="41.571670000" lon="1.873833000">
        <ele>289.00</ele>
        <time>2011-04-05T13:50:09Z</time>
      </trkpt>
      <trkpt lat="41.571517000" lon="1.874135000">
        <ele>290.00</ele>
        <time>2011-04-05T13:50:14Z</time>
      </trkpt>
      <trkpt lat="41.571377000" lon="1.874282000">
        <ele>286.50</ele>
        <time>2011-04-05T13:50:16Z</time>
      </trkpt>
      <trkpt lat="41.571298000" lon="1.874458000">
        <ele>285.50</ele>
        <time>2011-04-05T13:50:19Z</time>
      </trkpt>
      <trkpt lat="41.571342000" lon="1.874605000">
        <ele>288.00</ele>
        <time>2011-04-05T13:50:21Z</time>
      </trkpt>
      <trkpt lat="41.571713000" lon="1.875273000">
        <ele>282.50</ele>
        <time>2011-04-05T13:50:30Z</time>
      </trkpt>
      <trkpt lat="41.571750000" lon="1.875368000">
        <ele>283.00</ele>
        <time>2011-04-05T13:50:30Z</time>
      </trkpt>
      <trkpt lat="41.571747000" lon="1.875580000">
        <ele>283.50</ele>
        <time>2011-04-05T13:50:33Z</time>
      </trkpt>
      <trkpt lat="41.571772000" lon="1.876053000">
        <ele>279.50</ele>
        <time>2011-04-05T13:50:39Z</time>
      </trkpt>
      <trkpt lat="41.571602000" lon="1.876565000">
        <ele>274.50</ele>
        <time>2011-04-05T13:50:44Z</time>
      </trkpt>
      <trkpt lat="41.571528000" lon="1.876795000">
        <ele>274.50</ele>
        <time>2011-04-05T13:50:47Z</time>
      </trkpt>
      <trkpt lat="41.571422000" lon="1.876902000">
        <ele>271.50</ele>
        <time>2011-04-05T13:50:51Z</time>
      </trkpt>
      <trkpt lat="41.571005000" lon="1.877122000">
        <ele>272.00</ele>
        <time>2011-04-05T13:50:58Z</time>
      </trkpt>
      <trkpt lat="41.570908000" lon="1.877443000">
        <ele>267.00</ele>
        <time>2011-04-05T13:51:01Z</time>
      </trkpt>
      <trkpt lat="41.570853000" lon="1.877563000">
        <ele>264.50</ele>
        <time>2011-04-05T13:51:03Z</time>
      </trkpt>
      <trkpt lat="41.570650000" lon="1.877865000">
        <ele>256.50</ele>
        <time>2011-04-05T13:51:08Z</time>
      </trkpt>
      <trkpt lat="41.570380000" lon="1.878285000">
        <ele>251.50</ele>
        <time>2011-04-05T13:51:13Z</time>
      </trkpt>
      <trkpt lat="41.570317000" lon="1.878380000">
        <ele>251.50</ele>
        <time>2011-04-05T13:51:15Z</time>
      </trkpt>
      <trkpt lat="41.569975000" lon="1.879085000">
        <ele>249.50</ele>
        <time>2011-04-05T13:51:22Z</time>
      </trkpt>
      <trkpt lat="41.569825000" lon="1.879375000">
        <ele>250.50</ele>
        <time>2011-04-05T13:51:27Z</time>
      </trkpt>
      <trkpt lat="41.569715000" lon="1.879513000">
        <ele>250.50</ele>
        <time>2011-04-05T13:51:31Z</time>
      </trkpt>
      <trkpt lat="41.569675000" lon="1.879547000">
        <ele>248.00</ele>
        <time>2011-04-05T13:51:31Z</time>
      </trkpt>
      <trkpt lat="41.569548000" lon="1.879643000">
        <ele>246.50</ele>
        <time>2011-04-05T13:51:34Z</time>
      </trkpt>
      <trkpt lat="41.569450000" lon="1.879732000">
        <ele>248.00</ele>
        <time>2011-04-05T13:51:38Z</time>
      </trkpt>
      <trkpt lat="41.569068000" lon="1.880047000">
        <ele>245.00</ele>
        <time>2011-04-05T13:51:50Z</time>
      </trkpt>
      <trkpt lat="41.568760000" lon="1.880337000">
        <ele>245.00</ele>
        <time>2011-04-05T13:52:00Z</time>
      </trkpt>
      <trkpt lat="41.568473000" lon="1.880610000">
        <ele>246.50</ele>
        <time>2011-04-05T13:52:11Z</time>
      </trkpt>
      <trkpt lat="41.568197000" lon="1.880688000">
        <ele>248.00</ele>
        <time>2011-04-05T13:52:18Z</time>
      </trkpt>
      <trkpt lat="41.568018000" lon="1.880622000">
        <ele>249.50</ele>
        <time>2011-04-05T13:52:23Z</time>
      </trkpt>
      <trkpt lat="41.567868000" lon="1.880558000">
        <ele>248.00</ele>
        <time>2011-04-05T13:52:28Z</time>
      </trkpt>
      <trkpt lat="41.567840000" lon="1.880547000">
        <ele>246.50</ele>
        <time>2011-04-05T13:52:30Z</time>
      </trkpt>
      <trkpt lat="41.567588000" lon="1.880380000">
        <ele>246.50</ele>
        <time>2011-04-05T13:52:37Z</time>
      </trkpt>
      <trkpt lat="41.567473000" lon="1.880373000">
        <ele>248.50</ele>
        <time>2011-04-05T13:52:39Z</time>
      </trkpt>
      <trkpt lat="41.567223000" lon="1.880585000">
        <ele>250.50</ele>
        <time>2011-04-05T13:52:44Z</time>
      </trkpt>
      <trkpt lat="41.567185000" lon="1.880622000">
        <ele>250.00</ele>
        <time>2011-04-05T13:52:46Z</time>
      </trkpt>
      <trkpt lat="41.567047000" lon="1.880622000">
        <ele>249.50</ele>
        <time>2011-04-05T13:52:49Z</time>
      </trkpt>
      <trkpt lat="41.566933000" lon="1.880553000">
        <ele>248.50</ele>
        <time>2011-04-05T13:52:51Z</time>
      </trkpt>
      <trkpt lat="41.566728000" lon="1.880468000">
        <ele>249.00</ele>
        <time>2011-04-05T13:52:56Z</time>
      </trkpt>
      <trkpt lat="41.566712000" lon="1.880482000">
        <ele>245.00</ele>
        <time>2011-04-05T13:53:05Z</time>
      </trkpt>
      <trkpt lat="41.566717000" lon="1.880483000">
        <ele>244.50</ele>
        <time>2011-04-05T13:53:07Z</time>
      </trkpt>
      <trkpt lat="41.566863000" lon="1.880493000">
        <ele>243.00</ele>
        <time>2011-04-05T13:53:14Z</time>
      </trkpt>
      <trkpt lat="41.566863000" lon="1.880497000">
        <ele>242.50</ele>
        <time>2011-04-05T13:53:14Z</time>
      </trkpt>
      <trkpt lat="41.566842000" lon="1.880483000">
        <ele>239.50</ele>
        <time>2011-04-05T13:53:17Z</time>
      </trkpt>
      <trkpt lat="41.566710000" lon="1.880420000">
        <ele>238.50</ele>
        <time>2011-04-05T13:53:21Z</time>
      </trkpt>
      <trkpt lat="41.566158000" lon="1.880688000">
        <ele>234.50</ele>
        <time>2011-04-05T13:53:31Z</time>
      </trkpt>
      <trkpt lat="41.565933000" lon="1.880783000">
        <ele>238.00</ele>
        <time>2011-04-05T13:53:35Z</time>
      </trkpt>
      <trkpt lat="41.565667000" lon="1.880920000">
        <ele>239.50</ele>
        <time>2011-04-05T13:53:40Z</time>
      </trkpt>
      <trkpt lat="41.565447000" lon="1.881045000">
        <ele>238.00</ele>
        <time>2011-04-05T13:53:43Z</time>
      </trkpt>
      <trkpt lat="41.564942000" lon="1.881277000">
        <ele>238.50</ele>
        <time>2011-04-05T13:53:52Z</time>
      </trkpt>
      <trkpt lat="41.564880000" lon="1.881288000">
        <ele>238.50</ele>
        <time>2011-04-05T13:53:54Z</time>
      </trkpt>
      <trkpt lat="41.564333000" lon="1.881470000">
        <ele>244.50</ele>
        <time>2011-04-05T13:54:01Z</time>
      </trkpt>
      <trkpt lat="41.564102000" lon="1.881568000">
        <ele>245.00</ele>
        <time>2011-04-05T13:54:04Z</time>
      </trkpt>
      <trkpt lat="41.563730000" lon="1.881715000">
        <ele>244.00</ele>
        <time>2011-04-05T13:54:09Z</time>
      </trkpt>
      <trkpt lat="41.563482000" lon="1.881815000">
        <ele>239.00</ele>
        <time>2011-04-05T13:54:13Z</time>
      </trkpt>
      <trkpt lat="41.563322000" lon="1.881868000">
        <ele>238.50</ele>
        <time>2011-04-05T13:54:15Z</time>
      </trkpt>
      <trkpt lat="41.563057000" lon="1.881898000">
        <ele>235.50</ele>
        <time>2011-04-05T13:54:18Z</time>
      </trkpt>
      <trkpt lat="41.562703000" lon="1.881915000">
        <ele>235.50</ele>
        <time>2011-04-05T13:54:22Z</time>
      </trkpt>
      <trkpt lat="41.562328000" lon="1.881785000">
        <ele>235.00</ele>
        <time>2011-04-05T13:54:27Z</time>
      </trkpt>
      <trkpt lat="41.562197000" lon="1.881735000">
        <ele>238.00</ele>
        <time>2011-04-05T13:54:29Z</time>
      </trkpt>
      <trkpt lat="41.561375000" lon="1.881470000">
        <ele>239.00</ele>
        <time>2011-04-05T13:54:41Z</time>
      </trkpt>
      <trkpt lat="41.561203000" lon="1.881420000">
        <ele>243.00</ele>
        <time>2011-04-05T13:54:44Z</time>
      </trkpt>
      <trkpt lat="41.560942000" lon="1.881332000">
        <ele>246.50</ele>
        <time>2011-04-05T13:54:48Z</time>
      </trkpt>
      <trkpt lat="41.560625000" lon="1.881255000">
        <ele>248.50</ele>
        <time>2011-04-05T13:54:55Z</time>
      </trkpt>
      <trkpt lat="41.560512000" lon="1.881240000">
        <ele>249.50</ele>
        <time>2011-04-05T13:54:56Z</time>
      </trkpt>
      <trkpt lat="41.560403000" lon="1.881228000">
        <ele>249.50</ele>
        <time>2011-04-05T13:54:58Z</time>
      </trkpt>
      <trkpt lat="41.560237000" lon="1.881218000">
        <ele>246.50</ele>
        <time>2011-04-05T13:55:02Z</time>
      </trkpt>
      <trkpt lat="41.560075000" lon="1.881213000">
        <ele>247.50</ele>
        <time>2011-04-05T13:55:05Z</time>
      </trkpt>
      <trkpt lat="41.559868000" lon="1.881200000">
        <ele>242.00</ele>
        <time>2011-04-05T13:55:09Z</time>
      </trkpt>
      <trkpt lat="41.559700000" lon="1.881208000">
        <ele>238.50</ele>
        <time>2011-04-05T13:55:12Z</time>
      </trkpt>
      <trkpt lat="41.559550000" lon="1.881215000">
        <ele>239.00</ele>
        <time>2011-04-05T13:55:14Z</time>
      </trkpt>
      <trkpt lat="41.559340000" lon="1.881252000">
        <ele>236.50</ele>
        <time>2011-04-05T13:55:19Z</time>
      </trkpt>
      <trkpt lat="41.559288000" lon="1.881257000">
        <ele>236.50</ele>
        <time>2011-04-05T13:55:21Z</time>
      </trkpt>
      <trkpt lat="41.559238000" lon="1.881257000">
        <ele>238.50</ele>
        <time>2011-04-05T13:55:21Z</time>
      </trkpt>
      <trkpt lat="41.559148000" lon="1.881240000">
        <ele>243.00</ele>
        <time>2011-04-05T13:55:24Z</time>
      </trkpt>
      <trkpt lat="41.559037000" lon="1.881218000">
        <ele>244.50</ele>
        <time>2011-04-05T13:55:26Z</time>
      </trkpt>
      <trkpt lat="41.558755000" lon="1.881138000">
        <ele>243.50</ele>
        <time>2011-04-05T13:55:31Z</time>
      </trkpt>
      <trkpt lat="41.558523000" lon="1.881088000">
        <ele>245.00</ele>
        <time>2011-04-05T13:55:36Z</time>
      </trkpt>
      <trkpt lat="41.558370000" lon="1.881072000">
        <ele>242.00</ele>
        <time>2011-04-05T13:55:40Z</time>
      </trkpt>
      <trkpt lat="41.558245000" lon="1.881042000">
        <ele>241.50</ele>
        <time>2011-04-05T13:55:42Z</time>
      </trkpt>
      <trkpt lat="41.557888000" lon="1.880838000">
        <ele>251.50</ele>
        <time>2011-04-05T13:55:50Z</time>
      </trkpt>
      <trkpt lat="41.557812000" lon="1.880780000">
        <ele>255.00</ele>
        <time>2011-04-05T13:55:52Z</time>
      </trkpt>
      <trkpt lat="41.557677000" lon="1.880652000">
        <ele>262.00</ele>
        <time>2011-04-05T13:55:57Z</time>
      </trkpt>
      <trkpt lat="41.557308000" lon="1.880333000">
        <ele>266.50</ele>
        <time>2011-04-05T13:56:06Z</time>
      </trkpt>
      <trkpt lat="41.557063000" lon="1.880127000">
        <ele>276.50</ele>
        <time>2011-04-05T13:56:11Z</time>
      </trkpt>
      <trkpt lat="41.556808000" lon="1.879907000">
        <ele>277.50</ele>
        <time>2011-04-05T13:56:18Z</time>
      </trkpt>
      <trkpt lat="41.556457000" lon="1.879627000">
        <ele>285.50</ele>
        <time>2011-04-05T13:56:25Z</time>
      </trkpt>
      <trkpt lat="41.556360000" lon="1.879552000">
        <ele>284.00</ele>
        <time>2011-04-05T13:56:27Z</time>
      </trkpt>
      <trkpt lat="41.556208000" lon="1.879457000">
        <ele>283.00</ele>
        <time>2011-04-05T13:56:30Z</time>
      </trkpt>
      <trkpt lat="41.556047000" lon="1.879363000">
        <ele>283.50</ele>
        <time>2011-04-05T13:56:34Z</time>
      </trkpt>
      <trkpt lat="41.555777000" lon="1.879205000">
        <ele>287.00</ele>
        <time>2011-04-05T13:56:39Z</time>
      </trkpt>
      <trkpt lat="41.555562000" lon="1.879108000">
        <ele>290.50</ele>
        <time>2011-04-05T13:56:43Z</time>
      </trkpt>
      <trkpt lat="41.555455000" lon="1.879055000">
        <ele>290.00</ele>
        <time>2011-04-05T13:56:44Z</time>
      </trkpt>
      <trkpt lat="41.555290000" lon="1.878990000">
        <ele>287.00</ele>
        <time>2011-04-05T13:56:48Z</time>
      </trkpt>
      <trkpt lat="41.555228000" lon="1.878975000">
        <ele>284.50</ele>
        <time>2011-04-05T13:56:48Z</time>
      </trkpt>
      <trkpt lat="41.555045000" lon="1.878942000">
        <ele>282.50</ele>
        <time>2011-04-05T13:56:51Z</time>
      </trkpt>
      <trkpt lat="41.554403000" lon="1.878843000">
        <ele>283.00</ele>
        <time>2011-04-05T13:57:02Z</time>
      </trkpt>
      <trkpt lat="41.554190000" lon="1.878828000">
        <ele>281.50</ele>
        <time>2011-04-05T13:57:05Z</time>
      </trkpt>
      <trkpt lat="41.554068000" lon="1.878823000">
        <ele>278.50</ele>
        <time>2011-04-05T13:57:09Z</time>
      </trkpt>
      <trkpt lat="41.554045000" lon="1.878848000">
        <ele>278.00</ele>
        <time>2011-04-05T13:57:09Z</time>
      </trkpt>
      <trkpt lat="41.553948000" lon="1.879187000">
        <ele>280.00</ele>
        <time>2011-04-05T13:57:14Z</time>
      </trkpt>
      <trkpt lat="41.553980000" lon="1.879437000">
        <ele>278.00</ele>
        <time>2011-04-05T13:57:19Z</time>
      </trkpt>
      <trkpt lat="41.553997000" lon="1.879650000">
        <ele>279.50</ele>
        <time>2011-04-05T13:57:21Z</time>
      </trkpt>
      <trkpt lat="41.554040000" lon="1.879913000">
        <ele>279.00</ele>
        <time>2011-04-05T13:57:26Z</time>
      </trkpt>
      <trkpt lat="41.554090000" lon="1.880303000">
        <ele>273.00</ele>
        <time>2011-04-05T13:57:31Z</time>
      </trkpt>
      <trkpt lat="41.554032000" lon="1.880537000">
        <ele>267.00</ele>
        <time>2011-04-05T13:57:35Z</time>
      </trkpt>
      <trkpt lat="41.553615000" lon="1.880673000">
        <ele>269.50</ele>
        <time>2011-04-05T13:57:45Z</time>
      </trkpt>
      <trkpt lat="41.553567000" lon="1.880682000">
        <ele>268.50</ele>
        <time>2011-04-05T13:57:45Z</time>
      </trkpt>
      <trkpt lat="41.553120000" lon="1.880713000">
        <ele>261.00</ele>
        <time>2011-04-05T13:57:54Z</time>
      </trkpt>
      <trkpt lat="41.552628000" lon="1.880748000">
        <ele>262.00</ele>
        <time>2011-04-05T13:58:05Z</time>
      </trkpt>
      <trkpt lat="41.552242000" lon="1.880818000">
        <ele>261.50</ele>
        <time>2011-04-05T13:58:13Z</time>
      </trkpt>
      <trkpt lat="41.552048000" lon="1.880857000">
        <ele>263.50</ele>
        <time>2011-04-05T13:58:17Z</time>
      </trkpt>
      <trkpt lat="41.551665000" lon="1.880947000">
        <ele>264.00</ele>
        <time>2011-04-05T13:58:24Z</time>
      </trkpt>
      <trkpt lat="41.551620000" lon="1.880965000">
        <ele>263.50</ele>
        <time>2011-04-05T13:58:25Z</time>
      </trkpt>
      <trkpt lat="41.551575000" lon="1.880987000">
        <ele>263.50</ele>
        <time>2011-04-05T13:58:27Z</time>
      </trkpt>
      <trkpt lat="41.551538000" lon="1.881010000">
        <ele>261.00</ele>
        <time>2011-04-05T13:58:27Z</time>
      </trkpt>
      <trkpt lat="41.551453000" lon="1.881082000">
        <ele>260.00</ele>
        <time>2011-04-05T13:58:29Z</time>
      </trkpt>
      <trkpt lat="41.551333000" lon="1.881205000">
        <ele>259.50</ele>
        <time>2011-04-05T13:58:32Z</time>
      </trkpt>
      <trkpt lat="41.551258000" lon="1.881302000">
        <ele>261.50</ele>
        <time>2011-04-05T13:58:34Z</time>
      </trkpt>
      <trkpt lat="41.551173000" lon="1.881387000">
        <ele>258.50</ele>
        <time>2011-04-05T13:58:36Z</time>
      </trkpt>
      <trkpt lat="41.551092000" lon="1.881470000">
        <ele>258.50</ele>
        <time>2011-04-05T13:58:38Z</time>
      </trkpt>
      <trkpt lat="41.550900000" lon="1.881683000">
        <ele>255.00</ele>
        <time>2011-04-05T13:58:43Z</time>
      </trkpt>
      <trkpt lat="41.550698000" lon="1.881903000">
        <ele>255.00</ele>
        <time>2011-04-05T13:58:48Z</time>
      </trkpt>
      <trkpt lat="41.550653000" lon="1.881940000">
        <ele>253.00</ele>
        <time>2011-04-05T13:58:50Z</time>
      </trkpt>
      <trkpt lat="41.550527000" lon="1.882077000">
        <ele>251.00</ele>
        <time>2011-04-05T13:58:53Z</time>
      </trkpt>
      <trkpt lat="41.550228000" lon="1.882388000">
        <ele>250.00</ele>
        <time>2011-04-05T13:59:00Z</time>
      </trkpt>
      <trkpt lat="41.549600000" lon="1.883097000">
        <ele>250.00</ele>
        <time>2011-04-05T13:59:16Z</time>
      </trkpt>
      <trkpt lat="41.549448000" lon="1.883282000">
        <ele>251.50</ele>
        <time>2011-04-05T13:59:19Z</time>
      </trkpt>
      <trkpt lat="41.549177000" lon="1.883357000">
        <ele>253.00</ele>
        <time>2011-04-05T13:59:25Z</time>
      </trkpt>
      <trkpt lat="41.548875000" lon="1.883547000">
        <ele>250.50</ele>
        <time>2011-04-05T13:59:30Z</time>
      </trkpt>
      <trkpt lat="41.548698000" lon="1.883578000">
        <ele>252.00</ele>
        <time>2011-04-05T13:59:33Z</time>
      </trkpt>
      <trkpt lat="41.548197000" lon="1.883663000">
        <ele>249.50</ele>
        <time>2011-04-05T13:59:42Z</time>
      </trkpt>
      <trkpt lat="41.547542000" lon="1.883782000">
        <ele>253.00</ele>
        <time>2011-04-05T13:59:51Z</time>
      </trkpt>
      <trkpt lat="41.546733000" lon="1.883915000">
        <ele>254.00</ele>
        <time>2011-04-05T14:00:05Z</time>
      </trkpt>
      <trkpt lat="41.546575000" lon="1.883945000">
        <ele>256.50</ele>
        <time>2011-04-05T14:00:10Z</time>
      </trkpt>
      <trkpt lat="41.546638000" lon="1.884265000">
        <ele>254.00</ele>
        <time>2011-04-05T14:00:17Z</time>
      </trkpt>
      <trkpt lat="41.546650000" lon="1.884493000">
        <ele>256.00</ele>
        <time>2011-04-05T14:00:24Z</time>
      </trkpt>
      <trkpt lat="41.546643000" lon="1.884637000">
        <ele>255.00</ele>
        <time>2011-04-05T14:00:27Z</time>
      </trkpt>
      <trkpt lat="41.546570000" lon="1.884622000">
        <ele>254.00</ele>
        <time>2011-04-05T14:00:31Z</time>
      </trkpt>
      <trkpt lat="41.546485000" lon="1.884583000">
        <ele>255.00</ele>
        <time>2011-04-05T14:00:34Z</time>
      </trkpt>
      <trkpt lat="41.546448000" lon="1.884570000">
        <ele>257.00</ele>
        <time>2011-04-05T14:00:34Z</time>
      </trkpt>
      <trkpt lat="41.546297000" lon="1.884587000">
        <ele>257.00</ele>
        <time>2011-04-05T14:00:38Z</time>
      </trkpt>
      <trkpt lat="41.546080000" lon="1.884838000">
        <ele>257.50</ele>
        <time>2011-04-05T14:00:45Z</time>
      </trkpt>
      <trkpt lat="41.546057000" lon="1.884872000">
        <ele>259.50</ele>
        <time>2011-04-05T14:00:47Z</time>
      </trkpt>
      <trkpt lat="41.545917000" lon="1.885045000">
        <ele>261.00</ele>
        <time>2011-04-05T14:00:52Z</time>
      </trkpt>
      <trkpt lat="41.545752000" lon="1.885250000">
        <ele>259.00</ele>
        <time>2011-04-05T14:00:57Z</time>
      </trkpt>
      <trkpt lat="41.545662000" lon="1.885352000">
        <ele>259.50</ele>
        <time>2011-04-05T14:01:00Z</time>
      </trkpt>
      <trkpt lat="41.545607000" lon="1.885425000">
        <ele>257.00</ele>
        <time>2011-04-05T14:01:02Z</time>
      </trkpt>
      <trkpt lat="41.545518000" lon="1.885533000">
        <ele>256.00</ele>
        <time>2011-04-05T14:01:06Z</time>
      </trkpt>
      <trkpt lat="41.545478000" lon="1.885538000">
        <ele>258.00</ele>
        <time>2011-04-05T14:01:06Z</time>
      </trkpt>
      <trkpt lat="41.545375000" lon="1.885630000">
        <ele>258.50</ele>
        <time>2011-04-05T14:01:09Z</time>
      </trkpt>
      <trkpt lat="41.545150000" lon="1.886052000">
        <ele>257.50</ele>
        <time>2011-04-05T14:01:21Z</time>
      </trkpt>
      <trkpt lat="41.545138000" lon="1.886082000">
        <ele>258.00</ele>
        <time>2011-04-05T14:01:23Z</time>
      </trkpt>
      <trkpt lat="41.545070000" lon="1.886120000">
        <ele>259.50</ele>
        <time>2011-04-05T14:01:25Z</time>
      </trkpt>
      <trkpt lat="41.544980000" lon="1.886125000">
        <ele>256.50</ele>
        <time>2011-04-05T14:01:30Z</time>
      </trkpt>
      <trkpt lat="41.544973000" lon="1.886110000">
        <ele>257.50</ele>
        <time>2011-04-05T14:01:32Z</time>
      </trkpt>
      <trkpt lat="41.544978000" lon="1.886128000">
        <ele>259.50</ele>
        <time>2011-04-05T14:01:34Z</time>
      </trkpt>
      <trkpt lat="41.544988000" lon="1.886177000">
        <ele>260.50</ele>
        <time>2011-04-05T14:01:37Z</time>
      </trkpt>
      <trkpt lat="41.544977000" lon="1.886155000">
        <ele>268.50</ele>
        <time>2011-04-05T14:01:39Z</time>
      </trkpt>
      <trkpt lat="41.544928000" lon="1.886122000">
        <ele>273.50</ele>
        <time>2011-04-05T14:01:42Z</time>
      </trkpt>
      <trkpt lat="41.544888000" lon="1.886085000">
        <ele>271.50</ele>
        <time>2011-04-05T14:01:46Z</time>
      </trkpt>
      <trkpt lat="41.544878000" lon="1.886082000">
        <ele>274.00</ele>
        <time>2011-04-05T14:01:49Z</time>
      </trkpt>
      <trkpt lat="41.544815000" lon="1.886040000">
        <ele>272.50</ele>
        <time>2011-04-05T14:01:54Z</time>
      </trkpt>
      <trkpt lat="41.544750000" lon="1.886038000">
        <ele>283.50</ele>
        <time>2011-04-05T14:01:58Z</time>
      </trkpt>
      <trkpt lat="41.544678000" lon="1.886052000">
        <ele>283.00</ele>
        <time>2011-04-05T14:02:05Z</time>
      </trkpt>
      <trkpt lat="41.544690000" lon="1.886057000">
        <ele>280.00</ele>
        <time>2011-04-05T14:02:12Z</time>
      </trkpt>
      <trkpt lat="41.544662000" lon="1.886048000">
        <ele>279.50</ele>
        <time>2011-04-05T14:02:14Z</time>
      </trkpt>
      <trkpt lat="41.544617000" lon="1.885998000">
        <ele>279.50</ele>
        <time>2011-04-05T14:02:29Z</time>
      </trkpt>
      <trkpt lat="41.544455000" lon="1.886163000">
        <ele>279.00</ele>
        <time>2011-04-05T14:02:43Z</time>
      </trkpt>
      <trkpt lat="41.544488000" lon="1.886275000">
        <ele>279.00</ele>
        <time>2011-04-05T14:02:45Z</time>
      </trkpt>
    </trkseg>
  </trk>
</gpx>
